FR3163 / EI-EVR 7700 Squawk Report (23rd of February, 2018)

Aircraft B738 Reg No. EI-EVR Age 5 years old
Model 737 Jet engines 2 First flight 20-08-12
Registered 18-09-12 Rollout 13-08-12 Delivered 18-09-19
Construction No. 40295 Line No. 4166 Series 8AS
ADSHEX 4CAA57 Airline name Ryanair Owner N/A
Airfield based Dublin~Co Dublin~EI First tracked 2012-08-20 20:17:02

Flight history for EI-EVR

Route Flight No Date Playback
???? FR819 2018-06-21 20:55:00
Dublin (DUB) - Edinburgh (EDI) FR818 2018-06-21 19:28:00
Barcelona (BCN) - Dublin (DUB) FR3976 2018-06-21 18:34:00
Dublin (DUB) - Barcelona (BCN) FR3977 2018-06-21 13:58:00
Riga Intl (RIX) - Dublin (DUB) FR1977 2018-06-20 22:58:00
Dublin (DUB) - Riga Intl (RIX) FR1976 2018-06-20 18:53:00
Manchester (MAN) - Dublin (DUB) FR561 2018-06-20 16:07:00
Ciampino (CIA) - Manchester (MAN) FR3205 2018-06-20 12:44:00
Manchester (MAN) - Ciampino (CIA) FR3204 2018-06-20 09:02:00
Shannon (SNN) - Manchester (MAN) FR4777 2018-06-19 22:08:00
Manchester (MAN) - Shannon (SNN) FR4776 2018-06-19 20:42:00
Dublin (DUB) - Manchester (MAN) FR1556 2018-06-19 19:09:00
Koln Bonn (CGN) - Dublin (DUB) FR8036 2018-06-19 16:45:00
Dublin (DUB) - Koln Bonn (CGN) FR8035 2018-06-19 14:56:00
Bergamo Orio Al Serio (BGY) - Dublin (DUB) FR9429 2018-06-19 12:11:00
Dublin (DUB) - Bergamo Orio Al Serio (BGY) FR9428 2018-06-19 07:35:00
Bari (BRI) - Dublin (DUB) FR7359 2018-06-18 22:51:00
Dublin (DUB) - Bari (BRI) FR7358 2018-06-18 19:24:00
Lawica (POZ) - Dublin (DUB) FR1975 2018-06-18 15:32:00
Dublin (DUB) - Lawica (POZ) FR1974 2018-06-18 11:51:00
Time Lat Lon Altitude Heading Speed Vertical Rate
2018-02-23 16:15:36 GMT 52.827225 -1.329346 0 255 0 0
2018-02-23 16:15:20 GMT 52.827282 -1.329346 0 255 4 0
2018-02-23 16:15:08 GMT 52.827576 -1.329365 0 255 7 0
2018-02-23 16:14:57 GMT 52.827866 -1.329346 0 255 7 0
2018-02-23 16:14:46 GMT 52.827999 -1.328869 0 236 9 0
2018-02-23 16:14:34 GMT 52.828423 -1.328564 0 177 11 0
2018-02-23 16:14:24 GMT 52.828960 -1.328583 0 188 11 0
2018-02-23 16:14:05 GMT 52.829327 -1.327324 0 267 21 0
2018-02-23 16:13:49 GMT 52.829376 -1.324382 0 267 26 0
2018-02-23 16:13:26 GMT 52.829464 -1.319828 0 267 28 0
2018-02-23 16:13:11 GMT 52.829517 -1.316574 0 267 26 0
2018-02-23 16:13:01 GMT 52.829552 -1.314965 0 270 18 0
2018-02-23 16:12:50 GMT 52.829575 -1.313749 0 261 11 0
2018-02-23 16:12:38 GMT 52.829967 -1.313171 0 180 13 0
2018-02-23 16:12:30 GMT 52.830482 -1.313190 0 177 13 0
2018-02-23 16:12:19 GMT 52.831100 -1.313343 0 140 11 0
2018-02-23 16:12:07 GMT 52.831249 -1.314163 0 90 21 0
2018-02-23 16:11:58 GMT 52.831226 -1.316182 0 87 46 0
2018-02-23 16:11:48 GMT 52.831146 -1.320419 0 87 61 0
2018-02-23 16:11:36 GMT 52.831017 -1.327600 0 87 98 0
2018-02-23 16:11:24 GMT 52.830830 -1.337585 0 87 132 0
2018-02-23 16:11:17 GMT 52.830692 -1.345433 125 88 137 -576
2018-02-23 16:11:06 GMT 52.830460 -1.356262 250 87 136 -704
2018-02-23 16:10:56 GMT 52.830227 -1.367092 375 88 136 -768
2018-02-23 16:10:42 GMT 52.830002 -1.380768 550 88 131 -640
2018-02-23 16:10:35 GMT 52.829865 -1.388397 650 87 132 -704
2018-02-23 16:10:31 GMT 52.829819 -1.391220 675 87 132 -640
2018-02-23 16:10:25 GMT 52.829666 -1.398638 775 88 131 -704
2018-02-23 16:10:22 GMT 52.829636 -1.400375 900 87 131 -704
2018-02-23 16:10:17 GMT 52.829544 -1.406021 875 87 131 -640
2018-02-23 16:10:12 GMT 52.829453 -1.410370 950 87 132 -704
2018-02-23 16:10:07 GMT 52.829296 -1.416295 1,000 87 134 -832
2018-02-23 16:10:02 GMT 52.829201 -1.421160 1,050 87 138 -896
2018-02-23 16:09:59 GMT 52.829086 -1.424332 1,100 87 138 -896
2018-02-23 16:09:53 GMT 52.828876 -1.431362 1,200 88 144 -704
2018-02-23 16:09:50 GMT 52.828857 -1.433792 1,225 88 145 -704
2018-02-23 16:09:44 GMT 52.828766 -1.440506 1,300 89 148 -640
2018-02-23 16:09:40 GMT 52.828720 -1.445007 1,350 89 154 -768
2018-02-23 16:09:35 GMT 52.828690 -1.450823 1,425 88 156 -768
2018-02-23 16:09:32 GMT 52.828629 -1.454849 1,450 87 156 -960
2018-02-23 16:09:29 GMT 52.828548 -1.457493 1,475 87 156 -960
2018-02-23 16:09:22 GMT 52.828354 -1.466293 1,600 88 156 -832
2018-02-23 16:09:19 GMT 52.828270 -1.470363 1,650 88 156 -704
2018-02-23 16:09:14 GMT 52.828224 -1.476484 1,725 88 154 -704
2018-02-23 16:09:11 GMT 52.828171 -1.479111 1,750 88 154 -704
2018-02-23 16:09:08 GMT 52.828125 -1.482849 1,850 89 152 -960
2018-02-23 16:09:04 GMT 52.828087 -1.487784 1,950 88 151 -960
2018-02-23 16:09:01 GMT 52.828037 -1.491943 1,925 88 151 -1024
2018-02-23 16:08:58 GMT 52.828033 -1.493988 1,950 88 151 -960
2018-02-23 16:08:51 GMT 52.827805 -1.503220 2,075 87 152 -576
2018-02-23 16:08:48 GMT 52.827713 -1.505755 2,100 86 152 -576
2018-02-23 16:08:43 GMT 52.827480 -1.512268 2,150 84 155 -704
2018-02-23 16:08:40 GMT 52.827255 -1.515808 2,200 81 156 -768
2018-02-23 16:08:37 GMT 52.827015 -1.518389 2,225 79 157 -832
2018-02-23 16:08:32 GMT 52.826221 -1.524510 2,375 73 157 -1216
2018-02-23 16:08:28 GMT 52.825104 -1.530151 2,425 70 154 -1280
2018-02-23 16:08:22 GMT 52.823662 -1.537066 2,550 69 152 -832
2018-02-23 16:08:19 GMT 52.822964 -1.540048 2,600 63 152 -704
2018-02-23 16:08:15 GMT 52.822033 -1.542951 2,625 62 152 -832
2018-02-23 16:08:11 GMT 52.820297 -1.547012 2,750 53 155 -768
2018-02-23 16:08:07 GMT 52.818237 -1.551590 2,775 44 156 -768
2018-02-23 16:08:01 GMT 52.815746 -1.557077 2,825 53 155 -384
2018-02-23 16:07:57 GMT 52.814026 -1.560843 2,875 53 155 -320
2018-02-23 16:07:52 GMT 52.811790 -1.565709 2,875 53 155 -320
2018-02-23 16:07:48 GMT 52.810253 -1.569083 2,900 53 155 -384
2018-02-23 16:07:45 GMT 52.809139 -1.571594 2,925 53 155 -512
2018-02-23 16:07:41 GMT 52.807323 -1.575518 2,975 52 154 -512
2018-02-23 16:07:38 GMT 52.806110 -1.578186 3,000 51 155 -576
2018-02-23 16:07:35 GMT 52.804668 -1.581090 3,050 49 155 -640
2018-02-23 16:07:30 GMT 52.802490 -1.585236 3,075 42 156 -832
2018-02-23 16:07:27 GMT 52.800385 -1.588152 3,125 26 161 -960
2018-02-23 16:07:23 GMT 52.797501 -1.590742 3,200 26 161 -960
2018-02-23 16:07:19 GMT 52.794613 -1.592154 3,275 9 167 -832
2018-02-23 16:07:14 GMT 52.791321 -1.592712 3,325 359 173 -704
2018-02-23 16:07:11 GMT 52.788467 -1.592468 3,450 352 178 -576
2018-02-23 16:07:06 GMT 52.784409 -1.591568 3,525 352 180 -1088
2018-02-23 16:07:03 GMT 52.781754 -1.590958 3,500 352 180 -1088
2018-02-23 16:06:59 GMT 52.778091 -1.590118 3,550 352 181 -1152
2018-02-23 16:06:56 GMT 52.776123 -1.589584 3,575 352 181 -1152
2018-02-23 16:06:53 GMT 52.773338 -1.588858 3,650 351 180 -896
2018-02-23 16:06:50 GMT 52.771500 -1.588364 3,675 351 181 -832
2018-02-23 16:06:47 GMT 52.768356 -1.587603 3,725 352 182 -576
2018-02-23 16:06:43 GMT 52.765503 -1.586838 3,825 350 187 -448
2018-02-23 16:06:40 GMT 52.762306 -1.586033 3,800 351 186 -448
2018-02-23 16:06:36 GMT 52.759735 -1.585312 3,825 350 187 -448
2018-02-23 16:06:32 GMT 52.756489 -1.584307 3,875 348 191 -640
2018-02-23 16:06:29 GMT 52.752869 -1.582794 3,925 341 194 -960
2018-02-23 16:06:24 GMT 52.749317 -1.580697 3,975 337 195 -1088
2018-02-23 16:06:20 GMT 52.745316 -1.577872 4,075 337 195 -1024
2018-02-23 16:06:17 GMT 52.743641 -1.576695 4,100 337 195 -1024
2018-02-23 16:06:14 GMT 52.740662 -1.574498 4,175 337 194 -1088
2018-02-23 16:06:11 GMT 52.738659 -1.573085 4,225 337 194 -1088
2018-02-23 16:06:08 GMT 52.735352 -1.570731 4,300 337 194 -1216
2018-02-23 16:06:04 GMT 52.732224 -1.568527 4,375 337 194 -1216
2018-02-23 16:06:01 GMT 52.729767 -1.566807 4,450 337 193 -1152
2018-02-23 16:05:57 GMT 52.726959 -1.564789 4,500 337 193 -1152
2018-02-23 16:05:54 GMT 52.724304 -1.562958 4,650 337 193 -1088
2018-02-23 16:05:50 GMT 52.721527 -1.561000 4,675 337 194 -832
2018-02-23 16:05:47 GMT 52.718353 -1.558838 4,725 337 194 -640
2018-02-23 16:05:42 GMT 52.715240 -1.556606 4,750 338 197 0
2018-02-23 16:05:39 GMT 52.712402 -1.554642 4,775 338 197 0
2018-02-23 16:05:36 GMT 52.709888 -1.552917 4,775 338 197 0
2018-02-23 16:05:33 GMT 52.706314 -1.550446 4,775 338 198 0
2018-02-23 16:05:29 GMT 52.703419 -1.548444 4,775 338 200 64
2018-02-23 16:05:25 GMT 52.700180 -1.546249 4,775 338 209 -640
2018-02-23 16:05:22 GMT 52.697598 -1.544442 4,800 339 222 -896
2018-02-23 16:05:18 GMT 52.694107 -1.542088 4,800 338 208 -320
2018-02-23 16:05:15 GMT 52.690895 -1.539891 4,875 338 215 -832
2018-02-23 16:05:12 GMT 52.688007 -1.537929 4,825 338 211 -832
2018-02-23 16:05:09 GMT 52.685867 -1.536438 4,900 338 213 -832
2018-02-23 16:05:05 GMT 52.683151 -1.534576 4,925 338 213 -832
2018-02-23 16:05:02 GMT 52.679676 -1.532200 5,000 338 215 -832
2018-02-23 16:04:58 GMT 52.676193 -1.529846 5,025 338 216 -832
2018-02-23 16:04:55 GMT 52.673393 -1.528041 5,050 338 217 -832
2018-02-23 16:04:51 GMT 52.668732 -1.524963 5,125 339 218 -832
2018-02-23 16:04:48 GMT 52.666641 -1.523568 5,175 339 220 -832
2018-02-23 16:04:45 GMT 52.664360 -1.522077 5,200 339 221 -832
2018-02-23 16:04:40 GMT 52.659622 -1.519012 5,275 339 222 -896
2018-02-23 16:04:37 GMT 52.656143 -1.516876 5,350 340 224 -896
2018-02-23 16:04:34 GMT 52.653809 -1.515350 5,525 340 228 -1024
2018-02-23 16:04:30 GMT 52.648727 -1.512222 5,525 340 227 -1024
2018-02-23 16:04:26 GMT 52.644997 -1.509914 5,525 340 232 -1472
2018-02-23 16:04:20 GMT 52.639664 -1.506577 5,650 340 230 -1024
2018-02-23 16:04:17 GMT 52.636242 -1.504499 5,675 340 231 -1088
2018-02-23 16:04:13 GMT 52.632240 -1.502066 5,750 340 232 -1472
2018-02-23 16:04:10 GMT 52.628815 -1.499939 5,850 340 232 -1472
2018-02-23 16:04:07 GMT 52.625610 -1.497955 5,975 340 232 -1472
2018-02-23 16:04:04 GMT 52.623962 -1.497040 5,975 340 232 -1472
2018-02-23 16:04:01 GMT 52.620758 -1.495056 6,125 340 233 -1472
2018-02-23 16:03:58 GMT 52.617920 -1.493301 6,175 340 233 -1472
2018-02-23 16:03:55 GMT 52.614876 -1.491473 6,225 340 233 -1472
2018-02-23 16:03:52 GMT 52.611465 -1.489410 6,825 340 236 -1280
2018-02-23 16:03:49 GMT 52.608406 -1.487549 6,350 340 234 -1408
2018-02-23 16:03:46 GMT 52.604729 -1.485352 6,475 340 234 -1344
2018-02-23 16:03:42 GMT 52.601303 -1.483231 6,550 340 235 -1344
2018-02-23 16:03:39 GMT 52.597420 -1.480879 6,600 340 235 -1344
2018-02-23 16:03:36 GMT 52.594757 -1.479263 6,700 340 236 -1280
2018-02-23 16:03:33 GMT 52.592484 -1.477897 6,725 340 236 -1216
2018-02-23 16:03:30 GMT 52.588165 -1.475296 6,850 340 238 -1088
2018-02-23 16:03:26 GMT 52.584244 -1.472953 6,900 340 239 -960
2018-02-23 16:03:23 GMT 52.581730 -1.471462 6,925 340 240 -1216
2018-02-23 16:03:20 GMT 52.578842 -1.469657 6,975 340 241 -1472
2018-02-23 16:03:17 GMT 52.575256 -1.467514 7,050 340 243 -1408
2018-02-23 16:03:14 GMT 52.572281 -1.465759 7,175 340 246 -1344
2018-02-23 16:03:11 GMT 52.569069 -1.463850 7,325 341 250 -2496
2018-02-23 16:03:07 GMT 52.563900 -1.460711 7,325 340 251 -2176
2018-02-23 16:03:04 GMT 52.561249 -1.459141 7,500 341 250 -2432
2018-02-23 16:03:01 GMT 52.557999 -1.457214 7,550 341 250 -2432
2018-02-23 16:02:58 GMT 52.554310 -1.454982 7,700 341 250 -2240
2018-02-23 16:02:55 GMT 52.550583 -1.452866 7,800 341 251 -1856
2018-02-23 16:02:52 GMT 52.548386 -1.451569 7,925 341 254 -1472
2018-02-23 16:02:49 GMT 52.544403 -1.449203 7,950 341 255 -1280
2018-02-23 16:02:46 GMT 52.541088 -1.447213 8,050 340 261 -512
2018-02-23 16:02:43 GMT 52.537720 -1.445160 8,075 340 264 -512
2018-02-23 16:02:40 GMT 52.534973 -1.443558 8,150 340 276 -832
2018-02-23 16:02:37 GMT 52.531311 -1.441269 8,125 340 267 -832
2018-02-23 16:02:34 GMT 52.528107 -1.439285 8,175 339 269 -1088
2018-02-23 16:02:31 GMT 52.524857 -1.437225 8,225 340 270 -1088
2018-02-23 16:02:28 GMT 52.520645 -1.434555 8,300 340 271 -960
2018-02-23 16:02:25 GMT 52.517349 -1.432495 8,350 340 277 -768
2018-02-23 16:02:22 GMT 52.513809 -1.430341 8,800 340 289 -1344
2018-02-23 16:02:19 GMT 52.510254 -1.428146 8,425 340 277 -768
2018-02-23 16:02:16 GMT 52.506176 -1.425711 8,475 340 284 -896
2018-02-23 16:02:12 GMT 52.501556 -1.422882 8,600 340 283 -768
2018-02-23 16:02:09 GMT 52.498627 -1.421127 8,575 340 284 -896
2018-02-23 16:02:05 GMT 52.493935 -1.418256 8,575 340 288 -1280
2018-02-23 16:02:01 GMT 52.487183 -1.414108 8,700 340 289 -1344
2018-02-23 16:01:58 GMT 52.484711 -1.412582 8,775 340 290 -1472
2018-02-23 16:01:55 GMT 52.480946 -1.410252 8,825 340 290 -1664
2018-02-23 16:01:51 GMT 52.475918 -1.407113 8,950 340 291 -1856
2018-02-23 16:01:48 GMT 52.472122 -1.404800 9,075 340 292 -1792
2018-02-23 16:01:45 GMT 52.467815 -1.402169 9,125 340 292 -1728
2018-02-23 16:01:41 GMT 52.463257 -1.399423 9,250 340 293 -1600
2018-02-23 16:01:38 GMT 52.458939 -1.396790 9,350 341 295 -1472
2018-02-23 16:01:35 GMT 52.455322 -1.394653 9,400 341 296 -1408
2018-02-23 16:01:31 GMT 52.450150 -1.391678 9,500 341 298 -1408
2018-02-23 16:01:28 GMT 52.445751 -1.389143 9,575 341 299 -1408
2018-02-23 16:01:25 GMT 52.441818 -1.386871 9,850 341 302 -1600
2018-02-23 16:01:22 GMT 52.438396 -1.384984 9,800 341 303 -1664
2018-02-23 16:01:19 GMT 52.434719 -1.382865 9,800 341 303 -1728
2018-02-23 16:01:16 GMT 52.431042 -1.380668 9,925 341 303 -1984
2018-02-23 16:01:13 GMT 52.426804 -1.378235 9,975 341 303 -1984
2018-02-23 16:01:10 GMT 52.422569 -1.375724 10,125 341 305 -1920
2018-02-23 16:01:07 GMT 52.419357 -1.373840 10,200 341 306 -1472
2018-02-23 16:01:04 GMT 52.413025 -1.370074 10,300 341 306 -1472
2018-02-23 16:01:00 GMT 52.408447 -1.367416 10,425 340 309 -1408
2018-02-23 16:00:57 GMT 52.405529 -1.365679 10,575 341 313 -1472
2018-02-23 16:00:53 GMT 52.400131 -1.362462 10,575 341 314 -1472
2018-02-23 16:00:50 GMT 52.394684 -1.359244 10,650 341 314 -1472
2018-02-23 16:00:47 GMT 52.390820 -1.356968 10,700 341 316 -1344
2018-02-23 16:00:43 GMT 52.385883 -1.354065 10,825 341 322 -704
2018-02-23 16:00:40 GMT 52.381416 -1.351475 10,825 341 322 -704
2018-02-23 16:00:37 GMT 52.377506 -1.349200 10,850 341 323 -704
2018-02-23 16:00:34 GMT 52.373291 -1.346741 10,900 341 327 -704
2018-02-23 16:00:31 GMT 52.368427 -1.343863 10,950 341 331 -832
2018-02-23 16:00:28 GMT 52.364136 -1.341400 11,075 341 333 -832
2018-02-23 16:00:25 GMT 52.361584 -1.339861 10,975 341 331 -832
2018-02-23 16:00:22 GMT 52.356373 -1.336879 11,025 341 334 -832
2018-02-23 16:00:19 GMT 52.352276 -1.334446 11,100 341 337 -832
2018-02-23 16:00:16 GMT 52.347290 -1.331558 11,400 341 342 -768
2018-02-23 16:00:13 GMT 52.343170 -1.329193 11,200 341 340 -832
2018-02-23 16:00:09 GMT 52.337219 -1.325760 11,250 341 344 -768
2018-02-23 16:00:06 GMT 52.332722 -1.323146 11,250 341 346 -768
2018-02-23 16:00:03 GMT 52.328533 -1.320714 11,325 341 348 -704
2018-02-23 16:00:00 GMT 52.323040 -1.317496 11,350 341 351 -640
2018-02-23 15:59:57 GMT 52.319363 -1.315456 11,375 341 355 -576
2018-02-23 15:59:54 GMT 52.313171 -1.311846 11,400 341 357 -512
2018-02-23 15:59:51 GMT 52.309753 -1.309891 11,450 341 364 -384
2018-02-23 15:59:48 GMT 52.304420 -1.306824 11,450 341 364 -384
2018-02-23 15:59:45 GMT 52.300919 -1.304855 11,525 341 367 -384
2018-02-23 15:59:41 GMT 52.292919 -1.300232 11,500 341 371 -384
2018-02-23 15:59:38 GMT 52.288357 -1.297642 11,525 341 374 -384
2018-02-23 15:59:35 GMT 52.284119 -1.295242 11,525 341 379 -384
2018-02-23 15:59:31 GMT 52.277790 -1.291678 12,800 342 384 -448
2018-02-23 15:59:28 GMT 52.272438 -1.288696 11,600 342 388 -512
2018-02-23 15:59:25 GMT 52.266338 -1.285243 11,600 342 390 -576
2018-02-23 15:59:22 GMT 52.261185 -1.282425 11,625 342 397 -896
2018-02-23 15:59:19 GMT 52.256004 -1.279515 11,700 342 399 -1216
2018-02-23 15:59:15 GMT 52.249374 -1.275864 11,775 342 401 -1792
2018-02-23 15:59:12 GMT 52.245163 -1.273499 11,850 341 402 -2560
2018-02-23 15:59:09 GMT 52.239899 -1.270490 12,075 341 401 -3840
2018-02-23 15:59:06 GMT 52.232170 -1.266096 12,225 341 400 -4160
2018-02-23 15:59:03 GMT 52.228317 -1.263885 12,425 341 398 -4352
2018-02-23 15:59:00 GMT 52.223839 -1.261230 12,600 341 396 -3776
2018-02-23 15:58:57 GMT 52.217972 -1.257782 12,950 341 395 -2880
2018-02-23 15:58:54 GMT 52.212803 -1.254717 12,950 341 395 -3520
2018-02-23 15:58:50 GMT 52.206612 -1.251107 13,175 341 395 -2880
2018-02-23 15:58:46 GMT 52.198700 -1.246490 14,225 342 404 -2752
2018-02-23 15:58:43 GMT 52.194229 -1.243809 13,625 341 397 -2496
2018-02-23 15:58:40 GMT 52.187992 -1.240199 13,600 341 398 -2624
2018-02-23 15:58:37 GMT 52.183804 -1.237845 13,775 341 398 -2816
2018-02-23 15:58:34 GMT 52.178604 -1.234818 13,825 341 399 -2816
2018-02-23 15:58:31 GMT 52.173374 -1.231881 14,175 342 400 -2816
2018-02-23 15:58:28 GMT 52.167088 -1.228350 14,150 342 400 -2816
2018-02-23 15:58:25 GMT 52.161850 -1.225433 14,400 342 400 -2816
2018-02-23 15:58:22 GMT 52.156570 -1.222543 14,525 342 400 -2816
2018-02-23 15:58:19 GMT 52.152695 -1.220474 14,600 342 401 -2752
2018-02-23 15:58:16 GMT 52.146378 -1.216965 14,700 342 403 -2752
2018-02-23 15:58:13 GMT 52.142120 -1.214676 14,875 342 404 -2752
2018-02-23 15:58:10 GMT 52.136829 -1.211792 14,950 342 404 -2752
2018-02-23 15:58:07 GMT 52.130127 -1.208115 15,125 342 404 -2752
2018-02-23 15:58:03 GMT 52.122681 -1.204023 15,350 342 405 -2816
2018-02-23 15:58:00 GMT 52.119095 -1.202061 15,400 342 406 -2880
2018-02-23 15:57:57 GMT 52.114159 -1.199315 15,625 342 406 -2944
2018-02-23 15:57:54 GMT 52.108795 -1.196442 15,725 342 406 -3008
2018-02-23 15:57:51 GMT 52.103806 -1.193695 16,225 342 406 -2816
2018-02-23 15:57:48 GMT 52.098129 -1.190643 16,600 342 412 -960
2018-02-23 15:57:45 GMT 52.092793 -1.187701 16,200 342 408 -1984
2018-02-23 15:57:42 GMT 52.086685 -1.184464 16,300 342 409 -1664
2018-02-23 15:57:39 GMT 52.082382 -1.182098 16,475 342 411 -1152
2018-02-23 15:57:36 GMT 52.075195 -1.178207 16,425 342 411 -1152
2018-02-23 15:57:33 GMT 52.070496 -1.175616 16,475 342 412 -960
2018-02-23 15:57:30 GMT 52.064022 -1.172084 16,525 342 412 -1408
2018-02-23 15:57:27 GMT 52.058578 -1.169128 16,600 342 413 -1984
2018-02-23 15:57:24 GMT 52.054619 -1.166983 16,650 342 414 -2304
2018-02-23 15:57:21 GMT 52.049149 -1.164017 16,875 342 415 -3072
2018-02-23 15:57:18 GMT 52.043678 -1.161019 16,900 342 415 -3328
2018-02-23 15:57:15 GMT 52.038605 -1.158273 17,175 342 414 -4032
2018-02-23 15:57:12 GMT 52.031342 -1.154271 17,325 342 414 -4032
2018-02-23 15:57:09 GMT 52.026627 -1.151733 17,600 342 416 -3968
2018-02-23 15:57:06 GMT 52.020405 -1.148307 17,725 342 416 -3904
2018-02-23 15:57:02 GMT 52.013096 -1.144383 17,975 342 418 -3712
2018-02-23 15:56:59 GMT 52.007973 -1.141558 18,225 342 420 -3648
2018-02-23 15:56:56 GMT 52.002808 -1.138811 18,325 342 421 -3712
2018-02-23 15:56:53 GMT 51.997284 -1.135864 18,625 342 422 -4288
2018-02-23 15:56:50 GMT 51.992424 -1.133240 18,675 342 422 -4288
2018-02-23 15:56:47 GMT 51.984650 -1.129074 19,375 342 423 -4672
2018-02-23 15:56:44 GMT 51.980942 -1.127167 19,150 342 423 -4352
2018-02-23 15:56:41 GMT 51.975388 -1.124137 19,500 342 425 -3072
2018-02-23 15:56:38 GMT 51.969040 -1.120758 19,625 342 425 -2624
2018-02-23 15:56:35 GMT 51.964554 -1.118317 19,725 342 428 -2176
2018-02-23 15:56:32 GMT 51.957825 -1.114731 19,800 342 429 -2048
2018-02-23 15:56:29 GMT 51.952560 -1.111832 19,950 342 432 -2048
2018-02-23 15:56:26 GMT 51.946106 -1.108364 20,000 342 433 -2176
2018-02-23 15:56:23 GMT 51.941544 -1.105852 20,125 342 435 -2560
2018-02-23 15:56:20 GMT 51.934341 -1.101913 20,250 342 436 -2752
2018-02-23 15:56:17 GMT 51.930496 -1.099777 20,550 342 436 -3392
2018-02-23 15:56:14 GMT 51.923294 -1.095808 20,550 341 435 -3648
2018-02-23 15:56:11 GMT 51.917587 -1.092606 20,825 341 434 -4416
2018-02-23 15:56:08 GMT 51.911888 -1.089451 20,975 341 433 -4608
2018-02-23 15:56:05 GMT 51.907700 -1.087112 21,300 341 433 -4672
2018-02-23 15:56:02 GMT 51.902390 -1.084137 21,375 341 434 -4672
2018-02-23 15:55:58 GMT 51.894836 -1.079865 22,900 341 435 -4608
2018-02-23 15:55:55 GMT 51.887238 -1.075621 22,325 341 434 -4544
2018-02-23 15:55:52 GMT 51.882660 -1.073097 22,175 341 435 -4544
2018-02-23 15:55:49 GMT 51.876976 -1.069870 22,575 341 436 -4480
2018-02-23 15:55:46 GMT 51.870876 -1.066513 22,750 341 436 -4544
2018-02-23 15:55:43 GMT 51.865173 -1.063298 23,050 341 436 -4480
2018-02-23 15:55:40 GMT 51.860596 -1.060775 23,200 341 436 -4416
2018-02-23 15:55:37 GMT 51.854507 -1.057360 23,450 341 436 -4480
2018-02-23 15:55:34 GMT 51.849556 -1.054611 23,600 341 437 -4608
2018-02-23 15:55:31 GMT 51.843063 -1.050902 23,900 341 437 -4608
2018-02-23 15:55:28 GMT 51.838150 -1.048050 24,150 341 437 -4608
2018-02-23 15:55:25 GMT 51.829376 -1.043033 24,325 341 437 -4608
2018-02-23 15:55:22 GMT 51.824799 -1.040435 24,675 341 437 -4480
2018-02-23 15:55:19 GMT 51.820602 -1.038055 24,875 341 438 -4288
2018-02-23 15:55:16 GMT 51.814911 -1.034719 25,025 341 439 -4096
2018-02-23 15:55:13 GMT 51.808044 -1.030785 25,225 341 439 -4032
2018-02-23 15:55:10 GMT 51.802307 -1.027527 25,825 341 440 -3968
2018-02-23 15:55:06 GMT 51.794266 -1.022842 25,650 341 441 -3840
2018-02-23 15:55:03 GMT 51.790810 -1.020889 25,950 341 442 -4160
2018-02-23 15:55:00 GMT 51.783871 -1.016922 26,300 341 443 -4096
2018-02-23 15:54:57 GMT 51.778839 -1.014083 26,400 341 444 -3904
2018-02-23 15:54:54 GMT 51.770370 -1.009183 26,575 341 444 -3776
2018-02-23 15:54:51 GMT 51.766087 -1.006775 26,725 341 447 -3584
2018-02-23 15:54:48 GMT 51.760254 -1.003393 26,825 341 447 -3584
2018-02-23 15:54:45 GMT 51.754402 -1.000061 27,125 341 449 -4096
2018-02-23 15:54:42 GMT 51.746979 -0.995822 27,250 341 449 -4288
2018-02-23 15:54:39 GMT 51.741135 -0.992432 27,500 341 450 -4288
2018-02-23 15:54:36 GMT 51.735641 -0.989304 27,675 341 450 -4096
2018-02-23 15:54:33 GMT 51.730545 -0.986320 27,925 341 448 -4416
2018-02-23 15:54:30 GMT 51.723541 -0.982311 28,300 341 447 -4416
2018-02-23 15:54:27 GMT 51.718872 -0.979565 28,425 341 446 -4224
2018-02-23 15:54:24 GMT 51.711868 -0.975556 28,575 341 445 -3200
2018-02-23 15:54:21 GMT 51.707245 -0.972810 28,800 341 445 -3200
2018-02-23 15:54:18 GMT 51.700638 -0.969009 28,925 341 445 -2880
2018-02-23 15:54:15 GMT 51.695190 -0.965958 29,200 341 446 -2560
2018-02-23 15:54:12 GMT 51.688614 -0.962120 29,225 341 446 -2560
2018-02-23 15:54:09 GMT 51.685089 -0.960159 29,425 342 444 -1472
2018-02-23 15:54:06 GMT 51.677719 -0.956033 29,450 342 444 -1472
2018-02-23 15:54:03 GMT 51.671867 -0.952911 29,550 345 444 -1024
2018-02-23 15:54:00 GMT 51.666374 -0.950165 29,600 345 444 -1024
2018-02-23 15:53:57 GMT 51.661625 -0.948105 29,700 349 443 -832
2018-02-23 15:53:54 GMT 51.655655 -0.945938 29,700 351 442 -832
2018-02-23 15:53:51 GMT 51.647552 -0.943933 29,800 356 440 -896
2018-02-23 15:53:48 GMT 51.644348 -0.943414 29,925 357 439 -896
2018-02-23 15:53:45 GMT 51.634598 -0.942300 29,875 357 439 -896
2018-02-23 15:53:42 GMT 51.630108 -0.941849 29,900 357 439 -960
2018-02-23 15:53:39 GMT 51.625267 -0.941467 30,075 357 438 -896
2018-02-23 15:53:36 GMT 51.617958 -0.940781 30,075 357 437 -896
2018-02-23 15:53:33 GMT 51.613117 -0.940323 30,075 357 438 -960
2018-02-23 15:53:30 GMT 51.606216 -0.939702 30,125 357 438 -896
2018-02-23 15:53:27 GMT 51.599384 -0.939026 30,150 357 437 -896
2018-02-23 15:53:24 GMT 51.594543 -0.938568 30,175 357 437 -896
2018-02-23 15:53:21 GMT 51.587280 -0.937881 30,250 357 437 -896
2018-02-23 15:53:18 GMT 51.581223 -0.937327 30,275 357 437 -960
2018-02-23 15:53:15 GMT 51.574341 -0.936737 30,350 357 436 -896
2018-02-23 15:53:12 GMT 51.568707 -0.936203 30,375 357 436 -896
2018-02-23 15:53:09 GMT 51.563072 -0.935669 30,425 357 436 -896
2018-02-23 15:53:06 GMT 51.559071 -0.935287 30,500 357 436 -896
2018-02-23 15:53:03 GMT 51.552200 -0.934580 30,525 357 436 -896
2018-02-23 15:53:00 GMT 51.546570 -0.934061 30,675 357 435 -960
2018-02-23 15:52:57 GMT 51.539749 -0.933456 30,625 357 435 -896
2018-02-23 15:52:54 GMT 51.533707 -0.932873 30,675 357 435 -960
2018-02-23 15:52:51 GMT 51.528076 -0.932279 30,725 357 434 -960
2018-02-23 15:52:48 GMT 51.521271 -0.931625 30,800 357 434 -960
2018-02-23 15:52:45 GMT 51.514847 -0.931015 30,825 357 434 -960
2018-02-23 15:52:42 GMT 51.509674 -0.930572 30,850 357 434 -960
2018-02-23 15:52:39 GMT 51.502834 -0.929871 30,925 357 434 -960
2018-02-23 15:52:36 GMT 51.496456 -0.929337 30,950 357 434 -960
2018-02-23 15:52:33 GMT 51.490032 -0.928726 31,025 357 434 -960
2018-02-23 15:52:30 GMT 51.484818 -0.928196 31,050 357 434 -960
2018-02-23 15:52:27 GMT 51.479233 -0.927677 31,125 357 434 -896
2018-02-23 15:52:24 GMT 51.473228 -0.927124 31,225 357 434 -896
2018-02-23 15:52:21 GMT 51.468388 -0.926743 31,200 357 434 -896
2018-02-23 15:52:18 GMT 51.462387 -0.926192 31,250 357 434 -896
2018-02-23 15:52:15 GMT 51.457169 -0.925674 31,300 357 435 -896
2018-02-23 15:52:12 GMT 51.450348 -0.925079 31,425 357 435 -896
2018-02-23 15:52:09 GMT 51.444321 -0.924530 31,400 357 435 -896
2018-02-23 15:52:06 GMT 51.437897 -0.923996 31,475 357 435 -896
2018-02-23 15:52:03 GMT 51.431900 -0.923445 31,500 357 435 -896
2018-02-23 15:52:00 GMT 51.425491 -0.922852 31,525 357 435 -896
2018-02-23 15:51:57 GMT 51.418671 -0.922241 31,825 357 433 -896
2018-02-23 15:51:54 GMT 51.412628 -0.921738 31,625 357 434 -896
2018-02-23 15:51:51 GMT 51.406612 -0.921173 31,675 357 434 -896
2018-02-23 15:51:48 GMT 51.400234 -0.920639 31,850 357 434 -896
2018-02-23 15:51:45 GMT 51.395828 -0.920253 31,775 357 433 -896
2018-02-23 15:51:42 GMT 51.389809 -0.919724 31,825 357 433 -896
2018-02-23 15:51:39 GMT 51.383789 -0.919140 31,875 357 431 -960
2018-02-23 15:51:36 GMT 51.377007 -0.918579 31,925 357 433 -896
2018-02-23 15:51:33 GMT 51.371017 -0.918026 31,975 357 432 -896
2018-02-23 15:51:30 GMT 51.364655 -0.917507 31,975 357 432 -896
2018-02-23 15:51:27 GMT 51.359024 -0.916987 32,050 357 432 -896
2018-02-23 15:51:24 GMT 51.352661 -0.916393 32,075 357 432 -896
2018-02-23 15:51:21 GMT 51.346699 -0.915909 32,150 357 432 -896
2018-02-23 15:51:18 GMT 51.340714 -0.915428 32,175 357 432 -896
2018-02-23 15:51:15 GMT 51.334690 -0.914917 32,225 357 432 -896
2018-02-23 15:51:12 GMT 51.328720 -0.914389 32,275 357 432 -896
2018-02-23 15:51:09 GMT 51.324352 -0.914001 32,325 357 431 -896
2018-02-23 15:51:06 GMT 51.316772 -0.913350 32,350 357 431 -960
2018-02-23 15:51:03 GMT 51.310017 -0.912781 32,475 357 431 -960
2018-02-23 15:51:00 GMT 51.306011 -0.912476 32,450 357 431 -960
2018-02-23 15:50:57 GMT 51.300064 -0.911939 32,525 357 432 -896
2018-02-23 15:50:54 GMT 51.292053 -0.911271 32,575 357 432 -896
2018-02-23 15:50:51 GMT 51.288071 -0.910900 32,625 357 432 -896
2018-02-23 15:50:48 GMT 51.280106 -0.910232 32,650 357 432 -896
2018-02-23 15:50:45 GMT 51.275299 -0.909861 32,725 357 432 -896
2018-02-23 15:50:42 GMT 51.270123 -0.909424 32,875 357 432 -896
2018-02-23 15:50:39 GMT 51.263351 -0.908822 32,825 357 432 -960
2018-02-23 15:50:36 GMT 51.257366 -0.908279 32,850 357 432 -960
2018-02-23 15:50:33 GMT 51.250580 -0.907708 32,925 357 432 -896
2018-02-23 15:50:30 GMT 51.246597 -0.907337 32,950 357 432 -896
2018-02-23 15:50:27 GMT 51.238586 -0.906669 33,000 357 432 -896
2018-02-23 15:50:23 GMT 51.231808 -0.906067 33,125 357 432 -896
2018-02-23 15:50:20 GMT 51.226223 -0.905609 33,100 357 432 -896
2018-02-23 15:50:17 GMT 51.218674 -0.904887 33,150 357 431 -896
2018-02-23 15:50:14 GMT 51.212723 -0.904388 33,200 357 431 -960
2018-02-23 15:50:11 GMT 51.205551 -0.903702 33,250 357 431 -960
2018-02-23 15:50:08 GMT 51.201965 -0.903403 33,300 357 431 -960
2018-02-23 15:50:05 GMT 51.196754 -0.902939 33,350 357 431 -896
2018-02-23 15:50:02 GMT 51.189194 -0.902289 33,375 357 432 -896
2018-02-23 15:49:59 GMT 51.183254 -0.901718 33,475 357 432 -896
2018-02-23 15:49:56 GMT 51.179253 -0.901413 33,475 357 432 -896
2018-02-23 15:49:53 GMT 51.171661 -0.900656 33,550 357 431 -896
2018-02-23 15:49:50 GMT 51.164520 -0.899988 33,575 357 431 -896
2018-02-23 15:49:47 GMT 51.159714 -0.899543 33,650 357 431 -896
2018-02-23 15:49:44 GMT 51.152950 -0.898895 33,675 357 431 -896
2018-02-23 15:49:41 GMT 51.148590 -0.898503 33,725 357 430 -896
2018-02-23 15:49:38 GMT 51.141823 -0.897827 33,750 357 430 -896
2018-02-23 15:49:35 GMT 51.135864 -0.897167 33,850 357 430 -896
2018-02-23 15:49:32 GMT 51.131927 -0.896796 33,875 357 430 -896
2018-02-23 15:49:29 GMT 51.123184 -0.895905 33,925 357 430 -896
2018-02-23 15:49:26 GMT 51.118423 -0.895460 33,950 357 430 -896
2018-02-23 15:49:23 GMT 51.110867 -0.894699 34,025 357 429 -896
2018-02-23 15:49:20 GMT 51.107300 -0.894421 34,050 357 429 -896
2018-02-23 15:49:17 GMT 51.098995 -0.893631 34,125 357 429 -896
2018-02-23 15:49:14 GMT 51.095039 -0.893250 34,150 357 429 -960
2018-02-23 15:49:11 GMT 51.087914 -0.892639 34,200 357 428 -960
2018-02-23 15:49:08 GMT 51.083168 -0.892181 34,275 357 428 -896
2018-02-23 15:49:05 GMT 51.075668 -0.891526 34,300 357 428 -896
2018-02-23 15:49:02 GMT 51.070129 -0.891080 34,375 357 427 -896
2018-02-23 15:48:59 GMT 51.066547 -0.890732 34,400 357 427 -896
2018-02-23 15:48:56 GMT 51.058681 -0.890045 34,425 357 427 -896
2018-02-23 15:48:53 GMT 51.052780 -0.889521 34,500 357 427 -896
2018-02-23 15:48:50 GMT 51.046066 -0.888901 34,525 357 427 -896
2018-02-23 15:48:47 GMT 51.040924 -0.888482 34,600 357 427 -896
2018-02-23 15:48:44 GMT 51.033051 -0.887740 34,625 357 426 -896
2018-02-23 15:48:41 GMT 51.029114 -0.887369 34,675 357 426 -896
2018-02-23 15:48:38 GMT 51.023998 -0.886841 34,700 357 426 -896
2018-02-23 15:48:35 GMT 51.016132 -0.886154 34,800 357 423 -896
2018-02-23 15:48:32 GMT 51.011810 -0.885736 34,825 357 425 -896
2018-02-23 15:48:29 GMT 51.003983 -0.885068 34,850 357 424 -896
2018-02-23 15:48:25 GMT 50.998116 -0.884552 35,025 358 424 -1024
2018-02-23 15:48:22 GMT 50.991833 -0.883942 34,950 357 424 -896
2018-02-23 15:48:19 GMT 50.984802 -0.883331 35,025 357 423 -960
2018-02-23 15:48:16 GMT 50.980892 -0.883026 35,075 357 423 -960
2018-02-23 15:48:13 GMT 50.974606 -0.882492 35,125 357 423 -896
2018-02-23 15:48:10 GMT 50.968002 -0.881876 35,150 357 423 -896
2018-02-23 15:48:07 GMT 50.963287 -0.881504 35,225 357 423 -896
2018-02-23 15:48:04 GMT 50.957432 -0.880966 35,275 358 423 -896
2018-02-23 15:48:01 GMT 50.949608 -0.880356 35,325 358 423 -960
2018-02-23 15:47:58 GMT 50.945698 -0.880051 35,350 358 423 -960
2018-02-23 15:47:55 GMT 50.939072 -0.879500 35,425 358 424 -960
2018-02-23 15:47:52 GMT 50.932430 -0.878983 35,450 358 424 -960
2018-02-23 15:47:49 GMT 50.927731 -0.878601 35,525 358 424 -1024
2018-02-23 15:47:46 GMT 50.923416 -0.878238 35,525 358 424 -1024
2018-02-23 15:47:43 GMT 50.915161 -0.877533 35,600 358 424 -1024
2018-02-23 15:47:40 GMT 50.908920 -0.877075 35,650 358 424 -1088
2018-02-23 15:47:37 GMT 50.903427 -0.876617 35,725 358 424 -1088
2018-02-23 15:47:33 GMT 50.897552 -0.876085 35,825 358 424 -1088
2018-02-23 15:47:30 GMT 50.890503 -0.875566 35,825 358 424 -1024
2018-02-23 15:47:27 GMT 50.885056 -0.875046 35,975 358 423 -832
2018-02-23 15:47:24 GMT 50.878784 -0.874527 35,975 358 423 -512
2018-02-23 15:47:21 GMT 50.873291 -0.874081 35,975 357 423 -256
2018-02-23 15:47:18 GMT 50.867443 -0.873642 36,000 357 423 -64
2018-02-23 15:47:15 GMT 50.862743 -0.873184 36,000 357 423 0
2018-02-23 15:47:12 GMT 50.856125 -0.872597 36,000 358 423 0
2018-02-23 15:47:09 GMT 50.849075 -0.872077 36,000 359 423 0
2018-02-23 15:47:06 GMT 50.845184 -0.871854 36,000 0 423 0
2018-02-23 15:47:03 GMT 50.837357 -0.871632 36,000 0 423 0
2018-02-23 15:47:00 GMT 50.831505 -0.871658 36,000 1 423 0
2018-02-23 15:46:57 GMT 50.826805 -0.871811 36,000 3 422 0
2018-02-23 15:46:54 GMT 50.820969 -0.872225 36,000 3 422 0
2018-02-23 15:46:51 GMT 50.813538 -0.872955 36,000 5 422 0
2018-02-23 15:46:48 GMT 50.809296 -0.873562 36,000 6 422 0
2018-02-23 15:46:45 GMT 50.804226 -0.874329 36,000 8 423 0
2018-02-23 15:46:42 GMT 50.796112 -0.876011 36,000 8 422 0
2018-02-23 15:46:39 GMT 50.791843 -0.876999 36,000 10 422 0
2018-02-23 15:46:36 GMT 50.784908 -0.878906 36,000 11 422 0
2018-02-23 15:46:33 GMT 50.779953 -0.880391 36,000 13 422 64
2018-02-23 15:46:30 GMT 50.773087 -0.882841 36,000 14 422 64
2018-02-23 15:46:27 GMT 50.768940 -0.884552 36,000 15 422 0
2018-02-23 15:46:24 GMT 50.760654 -0.888062 36,000 15 422 0
2018-02-23 15:46:21 GMT 50.757294 -0.889521 36,000 15 422 0
2018-02-23 15:46:18 GMT 50.750134 -0.892639 36,000 15 422 0
2018-02-23 15:46:15 GMT 50.744476 -0.895089 36,000 15 423 0
2018-02-23 15:46:12 GMT 50.741100 -0.896530 36,000 15 422 0
2018-02-23 15:46:09 GMT 50.733948 -0.899691 36,000 15 423 0
2018-02-23 15:46:06 GMT 50.728683 -0.901992 36,000 15 423 0
2018-02-23 15:46:03 GMT 50.722294 -0.904770 36,000 15 423 0
2018-02-23 15:46:00 GMT 50.716290 -0.907364 36,000 15 423 0
2018-02-23 15:45:57 GMT 50.710983 -0.909653 36,000 15 423 0
2018-02-23 15:45:54 GMT 50.704975 -0.912247 36,000 15 423 0
2018-02-23 15:45:51 GMT 50.701206 -0.913849 36,000 15 423 0
2018-02-23 15:45:48 GMT 50.695541 -0.916319 36,000 15 423 0
2018-02-23 15:45:45 GMT 50.688034 -0.919585 36,000 15 423 0
2018-02-23 15:45:42 GMT 50.683144 -0.921707 36,000 15 423 0
2018-02-23 15:45:39 GMT 50.678238 -0.923817 36,000 15 423 0
2018-02-23 15:45:36 GMT 50.670341 -0.927231 36,000 15 423 0
2018-02-23 15:45:32 GMT 50.665035 -0.929532 36,000 15 423 0
2018-02-23 15:45:29 GMT 50.658646 -0.932392 36,000 15 422 0
2018-02-23 15:45:26 GMT 50.653381 -0.934705 36,000 15 422 0
2018-02-23 15:45:23 GMT 50.647385 -0.937380 36,000 15 422 0
2018-02-23 15:45:20 GMT 50.642506 -0.939554 36,000 15 423 0
2018-02-23 15:45:17 GMT 50.637989 -0.941558 36,000 15 423 0
2018-02-23 15:45:14 GMT 50.630447 -0.944898 36,000 15 423 0
2018-02-23 15:45:11 GMT 50.624817 -0.947426 36,000 16 423 0
2018-02-23 15:45:08 GMT 50.618774 -0.950173 36,000 16 423 0
2018-02-23 15:45:05 GMT 50.615021 -0.951835 36,000 16 423 0
2018-02-23 15:45:02 GMT 50.607513 -0.955232 36,000 16 423 0
2018-02-23 15:44:59 GMT 50.604145 -0.956776 36,000 16 423 0
2018-02-23 15:44:56 GMT 50.595112 -0.960858 36,000 16 423 0
2018-02-23 15:44:53 GMT 50.591721 -0.962388 36,000 16 423 0
2018-02-23 15:44:49 GMT 50.584595 -0.965683 36,000 16 424 -64
2018-02-23 15:44:46 GMT 50.577099 -0.969098 36,000 16 424 -64
2018-02-23 15:44:43 GMT 50.571838 -0.971548 35,975 16 423 -64
2018-02-23 15:44:40 GMT 50.566223 -0.974097 36,000 16 423 64
2018-02-23 15:44:37 GMT 50.558716 -0.977566 36,000 16 423 384
2018-02-23 15:44:34 GMT 50.556847 -0.978451 36,000 16 423 640
2018-02-23 15:44:31 GMT 50.551208 -0.981036 35,925 16 422 896
2018-02-23 15:44:28 GMT 50.545212 -0.983782 35,925 16 422 896
2018-02-23 15:44:25 GMT 50.538879 -0.986765 35,850 16 423 960
2018-02-23 15:44:22 GMT 50.533264 -0.989348 35,825 16 422 1024
2018-02-23 15:44:19 GMT 50.525757 -0.992745 35,725 16 422 1088
2018-02-23 15:44:16 GMT 50.522400 -0.994263 35,625 15 421 1152
2018-02-23 15:44:13 GMT 50.514496 -0.997804 35,650 15 422 1088
2018-02-23 15:44:10 GMT 50.511131 -0.999236 35,625 14 422 832
2018-02-23 15:44:07 GMT 50.505478 -1.001635 35,550 12 422 192
2018-02-23 15:44:04 GMT 50.499775 -1.003616 35,550 8 419 320
2018-02-23 15:44:01 GMT 50.493629 -1.005397 35,550 8 418 384
2018-02-23 15:43:58 GMT 50.486343 -1.007201 35,550 8 418 448
2018-02-23 15:43:54 GMT 50.479477 -1.008863 35,525 8 417 0
2018-02-23 15:43:51 GMT 50.473751 -1.010223 35,525 8 416 -832
2018-02-23 15:43:48 GMT 50.468445 -1.011559 35,550 8 414 -1088
2018-02-23 15:43:45 GMT 50.464626 -1.012450 35,600 8 412 -1856
2018-02-23 15:43:42 GMT 50.458969 -1.013850 35,700 8 412 -1920
2018-02-23 15:43:39 GMT 50.450684 -1.015874 35,775 8 410 -1856
2018-02-23 15:43:36 GMT 50.447662 -1.016597 35,875 8 410 -1600
2018-02-23 15:43:33 GMT 50.440933 -1.018259 35,950 9 408 -832
2018-02-23 15:43:30 GMT 50.435715 -1.019560 36,000 9 407 -832
2018-02-23 15:43:27 GMT 50.428642 -1.021283 36,150 9 404 -1280
2018-02-23 15:43:24 GMT 50.424919 -1.022174 36,075 9 405 -896
2018-02-23 15:43:21 GMT 50.418640 -1.023752 36,125 9 405 -960
2018-02-23 15:43:18 GMT 50.413094 -1.025143 36,175 9 404 -1280
2018-02-23 15:43:15 GMT 50.406876 -1.026716 36,225 9 407 -2112
2018-02-23 15:43:12 GMT 50.401318 -1.028187 36,300 9 405 -2048
2018-02-23 15:43:09 GMT 50.395065 -1.029751 36,375 8 406 -2112
2018-02-23 15:43:06 GMT 50.392471 -1.030414 36,500 9 406 -2112
2018-02-23 15:43:03 GMT 50.386185 -1.031992 36,625 8 406 -2112
2018-02-23 15:43:00 GMT 50.380600 -1.033383 36,750 8 407 -2112
2018-02-23 15:42:57 GMT 50.375015 -1.034739 36,850 8 407 -2112
2018-02-23 15:42:54 GMT 50.367241 -1.036649 37,500 8 409 -1920
2018-02-23 15:42:51 GMT 50.362770 -1.037688 37,150 8 408 -2112
2018-02-23 15:42:48 GMT 50.358257 -1.038802 37,200 8 410 -1920
2018-02-23 15:42:45 GMT 50.350807 -1.040583 37,575 8 410 -1920
2018-02-23 15:42:42 GMT 50.345947 -1.041750 37,350 8 409 -2112
2018-02-23 15:42:39 GMT 50.339634 -1.043330 37,700 8 409 -1920
2018-02-23 15:42:36 GMT 50.335510 -1.044352 37,550 8 416 0
2018-02-23 15:42:33 GMT 50.329514 -1.045797 37,650 8 411 -1472
2018-02-23 15:42:30 GMT 50.323109 -1.047264 37,800 8 412 -1408
2018-02-23 15:42:27 GMT 50.317848 -1.048526 37,800 8 413 -1152
2018-02-23 15:42:24 GMT 50.312210 -1.049917 37,900 8 414 -704
2018-02-23 15:42:21 GMT 50.306168 -1.051363 37,950 8 414 -704
2018-02-23 15:42:18 GMT 50.300079 -1.052808 38,000 8 416 0
2018-02-23 15:42:15 GMT 50.296665 -1.053574 38,000 8 416 -64
2018-02-23 15:42:12 GMT 50.289459 -1.055338 38,000 8 416 0
2018-02-23 15:42:09 GMT 50.284882 -1.056422 38,000 8 416 0
2018-02-23 15:42:06 GMT 50.277283 -1.058229 38,000 8 416 0
2018-02-23 15:42:03 GMT 50.272705 -1.059313 38,000 8 416 0
2018-02-23 15:42:00 GMT 50.268127 -1.060397 38,000 8 416 0
2018-02-23 15:41:57 GMT 50.260914 -1.062185 38,000 8 416 0
2018-02-23 15:41:54 GMT 50.254818 -1.063670 38,000 8 416 0
2018-02-23 15:41:50 GMT 50.247231 -1.065451 38,000 8 416 0
2018-02-23 15:41:47 GMT 50.241131 -1.066936 38,000 8 416 0
2018-02-23 15:41:43 GMT 50.235397 -1.068348 38,000 8 416 64
2018-02-23 15:41:40 GMT 50.227444 -1.070276 38,000 8 416 0
2018-02-23 15:41:37 GMT 50.222092 -1.071538 38,000 8 416 64
2018-02-23 15:41:34 GMT 50.215622 -1.073119 38,000 8 416 64
2018-02-23 15:41:31 GMT 50.212601 -1.073841 38,000 8 416 64
2018-02-23 15:41:28 GMT 50.204632 -1.075769 38,000 8 416 0
2018-02-23 15:41:25 GMT 50.200817 -1.076660 38,000 8 416 0
2018-02-23 15:41:22 GMT 50.193230 -1.078516 38,000 8 416 0
2018-02-23 15:41:19 GMT 50.190155 -1.079184 38,000 8 416 0
2018-02-23 15:41:16 GMT 50.181824 -1.081188 38,000 8 416 0
2018-02-23 15:41:13 GMT 50.178749 -1.081931 38,000 8 416 0
2018-02-23 15:41:10 GMT 50.171162 -1.083712 38,000 8 416 0
2018-02-23 15:41:07 GMT 50.164318 -1.085345 38,000 8 416 0
2018-02-23 15:41:04 GMT 50.161293 -1.086088 38,000 8 415 0
2018-02-23 15:41:00 GMT 50.154053 -1.087791 38,000 8 415 0
2018-02-23 15:40:57 GMT 50.146454 -1.089670 38,000 8 415 0
2018-02-23 15:40:54 GMT 50.140411 -1.091116 38,000 8 415 0
2018-02-23 15:40:51 GMT 50.134712 -1.092472 38,000 8 415 0
2018-02-23 15:40:48 GMT 50.129013 -1.093790 38,000 8 415 0
2018-02-23 15:40:45 GMT 50.122562 -1.095367 38,000 8 415 0
2018-02-23 15:40:42 GMT 50.117615 -1.096537 38,000 8 415 0
2018-02-23 15:40:39 GMT 50.113083 -1.097621 38,000 8 415 0
2018-02-23 15:40:36 GMT 50.108131 -1.098781 38,000 8 415 0
2018-02-23 15:40:33 GMT 50.102417 -1.100078 38,000 8 414 0
2018-02-23 15:40:28 GMT 50.093353 -1.102247 38,000 8 415 0
2018-02-23 15:40:25 GMT 50.086903 -1.103755 38,000 8 415 0
2018-02-23 15:40:22 GMT 50.080444 -1.105282 38,000 8 415 0
2018-02-23 15:40:19 GMT 50.074009 -1.106798 38,000 8 414 0
2018-02-23 15:40:16 GMT 50.069447 -1.107838 38,000 8 414 0
2018-02-23 15:40:13 GMT 50.062603 -1.109471 38,000 8 414 0
2018-02-23 15:40:10 GMT 50.058086 -1.110510 38,000 8 414 0
2018-02-23 15:40:07 GMT 50.052383 -1.111860 38,000 8 414 0
2018-02-23 15:40:04 GMT 50.045193 -1.113553 38,000 8 414 64
2018-02-23 15:40:01 GMT 50.041763 -1.114317 38,000 8 414 0
2018-02-23 15:39:58 GMT 50.035324 -1.115855 38,000 8 414 64
2018-02-23 15:39:55 GMT 50.029678 -1.117208 38,000 8 414 0
2018-02-23 15:39:52 GMT 50.022079 -1.119015 38,000 8 414 0
2018-02-23 15:39:49 GMT 50.018280 -1.119883 38,000 8 414 0
2018-02-23 15:39:46 GMT 50.012604 -1.121199 38,000 8 414 0
2018-02-23 15:39:43 GMT 50.006149 -1.122774 38,000 8 414 0
2018-02-23 15:39:40 GMT 50.000107 -1.124219 38,000 8 414 0
2018-02-23 15:39:37 GMT 49.996307 -1.125087 38,000 8 414 0
2018-02-23 15:39:34 GMT 49.990265 -1.126532 38,000 8 414 0
2018-02-23 15:39:31 GMT 49.983444 -1.128195 38,000 8 414 0
2018-02-23 15:39:27 GMT 49.976250 -1.129884 38,000 8 414 0
2018-02-23 15:39:24 GMT 49.969803 -1.131447 38,000 8 414 0
2018-02-23 15:39:21 GMT 49.965633 -1.132408 38,000 8 414 0
2018-02-23 15:39:18 GMT 49.959961 -1.133760 38,000 8 414 0
2018-02-23 15:39:15 GMT 49.955429 -1.134844 38,000 8 414 0
2018-02-23 15:39:12 GMT 49.947098 -1.136868 38,000 8 413 0
2018-02-23 15:39:08 GMT 49.942219 -1.138050 38,000 8 414 0
2018-02-23 15:39:05 GMT 49.933884 -1.140054 38,000 8 413 0
2018-02-23 15:39:02 GMT 49.928970 -1.141205 38,000 8 413 0
2018-02-23 15:38:59 GMT 49.924065 -1.142430 38,000 8 413 0
2018-02-23 15:38:56 GMT 49.918755 -1.143692 38,000 8 413 0
2018-02-23 15:38:53 GMT 49.911575 -1.145397 38,000 8 413 0
2018-02-23 15:38:50 GMT 49.907043 -1.146553 38,000 8 413 0
2018-02-23 15:38:47 GMT 49.902512 -1.147638 38,000 8 413 0
2018-02-23 15:38:44 GMT 49.894958 -1.149445 38,000 8 413 0
2018-02-23 15:38:40 GMT 49.888138 -1.151107 38,000 8 413 0
2018-02-23 15:38:37 GMT 49.882874 -1.152336 38,000 8 413 0
2018-02-23 15:38:34 GMT 49.876053 -1.153998 38,000 8 413 0
2018-02-23 15:38:31 GMT 49.870010 -1.155444 38,000 8 413 0
2018-02-23 15:38:28 GMT 49.865479 -1.156528 38,000 8 413 0
2018-02-23 15:38:25 GMT 49.860168 -1.157829 38,000 8 413 0
2018-02-23 15:38:19 GMT 49.840919 -1.162547 38,000 8 413 0
2018-02-23 15:38:14 GMT 49.837894 -1.163215 38,000 8 413 0
2018-02-23 15:38:10 GMT 49.830734 -1.164984 38,000 8 413 0
2018-02-23 15:38:07 GMT 49.823181 -1.166791 38,000 8 413 0
2018-02-23 15:38:03 GMT 49.816360 -1.168454 38,000 8 413 0
2018-02-23 15:37:59 GMT 49.809219 -1.170192 38,000 8 413 64
2018-02-23 15:37:56 GMT 49.805401 -1.171083 38,000 8 413 0
2018-02-23 15:37:52 GMT 49.797859 -1.172865 38,000 8 413 0
2018-02-23 15:37:49 GMT 49.790318 -1.174572 38,000 8 413 0
2018-02-23 15:37:46 GMT 49.787292 -1.175314 38,000 8 413 0
2018-02-23 15:37:42 GMT 49.777817 -1.177416 38,000 8 413 0
2018-02-23 15:37:39 GMT 49.770264 -1.179151 38,000 8 413 0
2018-02-23 15:37:36 GMT 49.766510 -1.180018 38,000 8 413 0
2018-02-23 15:37:32 GMT 49.758179 -1.181898 38,000 8 413 0
2018-02-23 15:37:29 GMT 49.754009 -1.182812 38,000 8 413 0
2018-02-23 15:37:26 GMT 49.749115 -1.183921 38,000 8 413 0
2018-02-23 15:37:23 GMT 49.740784 -1.185801 38,000 8 413 0
2018-02-23 15:37:20 GMT 49.738178 -1.186375 38,000 8 413 0
2018-02-23 15:37:17 GMT 49.730209 -1.188114 38,000 8 413 0
2018-02-23 15:37:13 GMT 49.722656 -1.189848 38,000 8 413 0
2018-02-23 15:37:10 GMT 49.718124 -1.190860 38,000 8 413 0
2018-02-23 15:37:07 GMT 49.712082 -1.192161 38,000 8 413 0
2018-02-23 15:37:04 GMT 49.705685 -1.193650 38,000 8 413 0
2018-02-23 15:37:01 GMT 49.701172 -1.194689 38,000 8 413 0
2018-02-23 15:36:58 GMT 49.695118 -1.196025 38,000 8 412 0
2018-02-23 15:36:55 GMT 49.689468 -1.197365 38,000 8 412 0
2018-02-23 15:36:52 GMT 49.684937 -1.198449 38,000 8 412 0
2018-02-23 15:36:49 GMT 49.678547 -1.199959 38,000 8 412 0
2018-02-23 15:36:46 GMT 49.673630 -1.201124 38,000 8 412 0
2018-02-23 15:36:43 GMT 49.665344 -1.203075 38,000 8 412 0
2018-02-23 15:36:40 GMT 49.660034 -1.204304 38,000 8 412 0
2018-02-23 15:36:37 GMT 49.655922 -1.205304 38,000 8 412 0
2018-02-23 15:36:34 GMT 49.650238 -1.206617 38,000 8 412 0
2018-02-23 15:36:31 GMT 49.644241 -1.208062 38,000 8 412 0
2018-02-23 15:36:28 GMT 49.638557 -1.209387 38,000 8 412 0
2018-02-23 15:36:25 GMT 49.632935 -1.210737 38,000 8 412 0
2018-02-23 15:36:22 GMT 49.628403 -1.211821 38,000 8 412 0
2018-02-23 15:36:19 GMT 49.621243 -1.213544 38,000 8 412 0
2018-02-23 15:36:16 GMT 49.615978 -1.214806 38,000 8 412 0
2018-02-23 15:36:13 GMT 49.610722 -1.215994 38,000 8 412 0
2018-02-23 15:36:10 GMT 49.604668 -1.217478 38,000 8 412 0
2018-02-23 15:36:07 GMT 49.599014 -1.218760 38,000 8 412 0
2018-02-23 15:36:03 GMT 49.590729 -1.220711 38,000 8 412 0
2018-02-23 15:36:00 GMT 49.585072 -1.222006 38,000 8 412 0
2018-02-23 15:35:57 GMT 49.579807 -1.223194 38,000 8 412 0
2018-02-23 15:35:54 GMT 49.575294 -1.224159 38,000 8 412 64
2018-02-23 15:35:51 GMT 49.567753 -1.225866 38,000 8 412 64
2018-02-23 15:35:48 GMT 49.563236 -1.226906 38,000 8 412 64
2018-02-23 15:35:45 GMT 49.557587 -1.228156 38,000 8 412 0
2018-02-23 15:35:42 GMT 49.552322 -1.229385 38,000 8 412 0
2018-02-23 15:35:39 GMT 49.545918 -1.230840 38,000 8 412 0
2018-02-23 15:35:35 GMT 49.539505 -1.232276 38,000 8 412 0
2018-02-23 15:35:32 GMT 49.533863 -1.233586 38,000 8 412 0
2018-02-23 15:35:28 GMT 49.526321 -1.235368 38,000 8 411 0
2018-02-23 15:35:25 GMT 49.520645 -1.236685 38,000 8 412 0
2018-02-23 15:35:22 GMT 49.515007 -1.237966 38,000 8 412 0
2018-02-23 15:35:19 GMT 49.508259 -1.239599 38,000 8 412 0
2018-02-23 15:35:16 GMT 49.502953 -1.240861 38,000 8 412 0
2018-02-23 15:35:13 GMT 49.497345 -1.242178 38,000 8 412 0
2018-02-23 15:35:10 GMT 49.492813 -1.243262 38,000 8 411 0
2018-02-23 15:35:07 GMT 49.486423 -1.244721 38,000 8 411 0
2018-02-23 15:35:04 GMT 49.480774 -1.246081 38,000 8 411 0
2018-02-23 15:35:01 GMT 49.476242 -1.247165 38,000 8 411 0
2018-02-23 15:34:58 GMT 49.468735 -1.248900 38,000 8 411 0
2018-02-23 15:34:55 GMT 49.464981 -1.249839 38,000 8 411 0
2018-02-23 15:34:52 GMT 49.458588 -1.251328 38,000 8 411 0
2018-02-23 15:34:48 GMT 49.448067 -1.253852 38,000 8 411 0
2018-02-23 15:34:45 GMT 49.444298 -1.254743 38,000 8 411 0
2018-02-23 15:34:41 GMT 49.437546 -1.256301 38,000 8 411 0
2018-02-23 15:34:38 GMT 49.432285 -1.257489 38,000 8 410 -64
2018-02-23 15:34:35 GMT 49.426666 -1.258780 38,000 8 410 0
2018-02-23 15:34:32 GMT 49.420277 -1.260247 38,000 8 410 0
2018-02-23 15:34:29 GMT 49.416138 -1.261174 38,000 21 405 0
2018-02-23 15:34:26 GMT 49.407520 -1.263211 38,000 8 410 0
2018-02-23 15:34:23 GMT 49.403366 -1.264132 38,000 8 409 0
2018-02-23 15:34:20 GMT 49.397743 -1.265452 38,000 8 410 -64
2018-02-23 15:34:17 GMT 49.390247 -1.267186 38,000 8 409 0
2018-02-23 15:34:14 GMT 49.386524 -1.268054 38,000 8 409 0
2018-02-23 15:34:11 GMT 49.380890 -1.269343 38,000 8 409 64
2018-02-23 15:34:08 GMT 49.375259 -1.270656 38,000 8 409 64
2018-02-23 15:34:05 GMT 49.368896 -1.272160 38,000 8 409 64
2018-02-23 15:34:02 GMT 49.364410 -1.273217 38,000 8 409 64
2018-02-23 15:33:59 GMT 49.358826 -1.274559 38,000 8 409 64
2018-02-23 15:33:56 GMT 49.353195 -1.275893 38,000 8 409 0
2018-02-23 15:33:52 GMT 49.345371 -1.277667 38,000 8 409 0
2018-02-23 15:33:49 GMT 49.338623 -1.279257 38,000 8 409 0
2018-02-23 15:33:46 GMT 49.332664 -1.280630 38,000 8 409 0
2018-02-23 15:33:43 GMT 49.327789 -1.281668 38,000 8 409 0
2018-02-23 15:33:40 GMT 49.323681 -1.282654 38,000 11 408 0
2018-02-23 15:33:37 GMT 49.318466 -1.283955 38,000 10 409 0
2018-02-23 15:33:34 GMT 49.313251 -1.285473 38,000 11 409 0
2018-02-23 15:33:31 GMT 49.306229 -1.287724 38,000 13 408 0
2018-02-23 15:33:28 GMT 49.301102 -1.289555 38,000 21 407 0
2018-02-23 15:33:24 GMT 49.292313 -1.293006 38,000 16 408 0
2018-02-23 15:33:21 GMT 49.288300 -1.294724 38,000 16 408 0
2018-02-23 15:33:18 GMT 49.282528 -1.297399 38,000 19 408 0
2018-02-23 15:33:15 GMT 49.276054 -1.300651 38,000 19 408 0
2018-02-23 15:33:12 GMT 49.271439 -1.303218 38,000 20 409 0
2018-02-23 15:33:09 GMT 49.266541 -1.306105 38,000 21 408 0
2018-02-23 15:33:06 GMT 49.261597 -1.309063 38,000 21 408 0
2018-02-23 15:33:02 GMT 49.253906 -1.313782 38,000 21 408 0
2018-02-23 15:32:59 GMT 49.249336 -1.316480 38,000 21 408 0
2018-02-23 15:32:55 GMT 49.241608 -1.321178 38,000 21 408 0
2018-02-23 15:32:52 GMT 49.237061 -1.323923 38,000 21 407 0
2018-02-23 15:32:49 GMT 49.230389 -1.327972 38,000 21 407 0
2018-02-23 15:32:45 GMT 49.224426 -1.331529 38,000 21 407 0
2018-02-23 15:32:42 GMT 49.218842 -1.334909 38,000 21 407 0
2018-02-23 15:32:39 GMT 49.213585 -1.338091 38,000 21 407 0
2018-02-23 15:32:36 GMT 49.207626 -1.341741 38,000 21 406 0
2018-02-23 15:32:33 GMT 49.202042 -1.345121 38,000 21 407 0
2018-02-23 15:32:29 GMT 49.193985 -1.350017 38,000 21 406 0
2018-02-23 15:32:26 GMT 49.191559 -1.351459 38,000 21 406 0
2018-02-23 15:32:23 GMT 49.187347 -1.353995 38,000 21 406 0
2018-02-23 15:32:20 GMT 49.180019 -1.358474 38,000 21 406 0
2018-02-23 15:32:17 GMT 49.174805 -1.361600 38,000 21 406 0
2018-02-23 15:32:14 GMT 49.170242 -1.364328 38,000 21 405 0
2018-02-23 15:32:11 GMT 49.166428 -1.366671 38,000 21 405 0
2018-02-23 15:32:08 GMT 49.160515 -1.370255 38,000 21 405 0
2018-02-23 15:32:05 GMT 49.152832 -1.374881 38,000 21 405 0
2018-02-23 15:32:02 GMT 49.149342 -1.376977 38,000 21 405 0
2018-02-23 15:31:59 GMT 49.142403 -1.381242 38,000 21 404 0
2018-02-23 15:31:56 GMT 49.137177 -1.384418 38,000 21 404 0
2018-02-23 15:31:53 GMT 49.133011 -1.386954 38,000 21 404 0
2018-02-23 15:31:50 GMT 49.128845 -1.389489 38,000 21 404 0
2018-02-23 15:31:47 GMT 49.123646 -1.392662 38,000 21 404 0
2018-02-23 15:31:43 GMT 49.116348 -1.397024 38,000 21 404 0
2018-02-23 15:31:40 GMT 49.111122 -1.400179 38,000 21 404 0
2018-02-23 15:31:37 GMT 49.106281 -1.403070 38,000 21 404 0
2018-02-23 15:31:34 GMT 49.100693 -1.406395 38,000 21 404 64
2018-02-23 15:31:31 GMT 49.095474 -1.409560 38,000 21 404 64
2018-02-23 15:31:27 GMT 49.089249 -1.413293 38,000 21 404 0
2018-02-23 15:31:24 GMT 49.082291 -1.417518 38,000 21 404 0
2018-02-23 15:31:21 GMT 49.078125 -1.419983 38,000 21 404 -64
2018-02-23 15:31:15 GMT 49.068760 -1.425621 38,000 21 404 64
2018-02-23 15:31:11 GMT 49.061775 -1.429813 38,000 21 404 64
2018-02-23 15:31:07 GMT 49.053818 -1.434631 38,000 21 404 64
2018-02-23 15:31:04 GMT 49.047901 -1.438125 38,000 21 404 64
2018-02-23 15:31:00 GMT 49.042007 -1.441744 38,000 21 404 64
2018-02-23 15:30:57 GMT 49.035427 -1.445714 38,000 21 404 0
2018-02-23 15:30:54 GMT 49.031239 -1.448244 38,000 21 403 0
2018-02-23 15:30:51 GMT 49.026398 -1.451207 38,000 21 403 -64
2018-02-23 15:30:48 GMT 49.022205 -1.453737 38,000 21 403 0
2018-02-23 15:30:45 GMT 49.015640 -1.457731 38,000 21 403 0
2018-02-23 15:30:42 GMT 49.009731 -1.461254 38,000 21 403 0
2018-02-23 15:30:39 GMT 49.005249 -1.463999 38,000 21 403 0
2018-02-23 15:30:34 GMT 48.997253 -1.468843 38,000 21 404 0
2018-02-23 15:30:31 GMT 48.989620 -1.473397 38,000 21 404 0
2018-02-23 15:30:27 GMT 48.984779 -1.476360 38,000 21 404 0
2018-02-23 15:30:24 GMT 48.980255 -1.479070 38,000 21 404 0
2018-02-23 15:30:21 GMT 48.974716 -1.482380 38,000 21 404 0
2018-02-23 15:30:18 GMT 48.969509 -1.485467 38,000 21 403 0
2018-02-23 15:30:13 GMT 48.960526 -1.490888 38,000 21 403 0
2018-02-23 15:30:10 GMT 48.953587 -1.495008 38,000 21 403 0
2018-02-23 15:30:07 GMT 48.949768 -1.497310 38,000 21 403 0
2018-02-23 15:30:04 GMT 48.944916 -1.500197 38,000 21 403 0
2018-02-23 15:30:01 GMT 48.939064 -1.503754 38,000 21 403 0
2018-02-23 15:29:57 GMT 48.933525 -1.507078 38,000 21 402 64
2018-02-23 15:29:54 GMT 48.928345 -1.510198 38,000 21 402 0
2018-02-23 15:29:51 GMT 48.922119 -1.513930 38,000 21 402 0
2018-02-23 15:29:48 GMT 48.916904 -1.517053 38,000 21 402 0
2018-02-23 15:29:45 GMT 48.910015 -1.521173 38,000 21 402 0
2018-02-23 15:29:41 GMT 48.904129 -1.524635 38,000 21 402 64
2018-02-23 15:29:38 GMT 48.900288 -1.526883 38,000 21 402 64
2018-02-23 15:29:35 GMT 48.894745 -1.530135 38,000 21 401 0
2018-02-23 15:29:32 GMT 48.888885 -1.533649 38,000 21 402 0
2018-02-23 15:29:29 GMT 48.883667 -1.536713 38,000 21 402 0
2018-02-23 15:29:26 GMT 48.878826 -1.539532 38,000 21 402 0
2018-02-23 15:29:23 GMT 48.874329 -1.542171 38,000 21 402 0
2018-02-23 15:29:20 GMT 48.868443 -1.545603 38,000 21 402 0
2018-02-23 15:29:17 GMT 48.861191 -1.549847 38,000 21 402 0
2018-02-23 15:29:14 GMT 48.859459 -1.550879 38,000 21 402 0
2018-02-23 15:29:11 GMT 48.853222 -1.554565 38,000 21 401 0
2018-02-23 15:29:08 GMT 48.848381 -1.557384 38,000 21 401 0
2018-02-23 15:29:04 GMT 48.839767 -1.562523 38,000 21 401 0
2018-02-23 15:29:01 GMT 48.834602 -1.565624 38,000 21 401 0
2018-02-23 15:28:57 GMT 48.829422 -1.568650 38,000 21 401 0
2018-02-23 15:28:54 GMT 48.822868 -1.572563 38,000 21 400 0
2018-02-23 15:28:50 GMT 48.816631 -1.576249 38,000 21 400 0
2018-02-23 15:28:47 GMT 48.812851 -1.578510 38,000 21 400 0
2018-02-23 15:28:44 GMT 48.805252 -1.583017 38,000 21 400 0
2018-02-23 15:28:41 GMT 48.801456 -1.585212 38,000 21 400 0
2018-02-23 15:28:38 GMT 48.794907 -1.589215 38,000 21 400 0
2018-02-23 15:28:35 GMT 48.790787 -1.591679 38,000 21 400 0
2018-02-23 15:28:32 GMT 48.785980 -1.594567 38,000 21 400 0
2018-02-23 15:28:29 GMT 48.780834 -1.597716 38,000 21 400 0
2018-02-23 15:28:26 GMT 48.775681 -1.600835 38,000 21 400 0
2018-02-23 15:28:23 GMT 48.770546 -1.604004 38,000 21 400 0
2018-02-23 15:28:20 GMT 48.765381 -1.607103 38,000 21 400 0
2018-02-23 15:28:17 GMT 48.760208 -1.610220 38,000 21 400 64
2018-02-23 15:28:14 GMT 48.754719 -1.613545 38,000 21 400 64
2018-02-23 15:28:11 GMT 48.749588 -1.616610 38,000 21 400 64
2018-02-23 15:28:08 GMT 48.743080 -1.620628 38,000 21 399 0
2018-02-23 15:28:05 GMT 48.740662 -1.622103 38,000 21 400 0
2018-02-23 15:28:02 GMT 48.732792 -1.626844 38,000 21 399 0
2018-02-23 15:27:59 GMT 48.727299 -1.630169 38,000 21 400 0
2018-02-23 15:27:56 GMT 48.724552 -1.631831 38,000 21 399 0
2018-02-23 15:27:53 GMT 48.718689 -1.635273 38,000 21 399 0
2018-02-23 15:27:50 GMT 48.714569 -1.637738 38,000 21 400 0
2018-02-23 15:27:46 GMT 48.707329 -1.642095 38,000 21 400 0
2018-02-23 15:27:43 GMT 48.700836 -1.645977 38,000 21 400 0
2018-02-23 15:27:40 GMT 48.697403 -1.648090 38,000 21 399 0
2018-02-23 15:27:37 GMT 48.691547 -1.651563 38,000 21 399 0
2018-02-23 15:27:34 GMT 48.687450 -1.654021 38,000 21 399 0
2018-02-23 15:27:31 GMT 48.682297 -1.657104 38,000 21 399 0
2018-02-23 15:27:28 GMT 48.676464 -1.660526 38,000 21 399 0
2018-02-23 15:27:24 GMT 48.669891 -1.664358 38,000 21 399 0
2018-02-23 15:27:21 GMT 48.662685 -1.668621 38,000 21 399 0
2018-02-23 15:27:18 GMT 48.659241 -1.670645 38,000 21 399 0
2018-02-23 15:27:15 GMT 48.653412 -1.674077 38,000 21 399 0
2018-02-23 15:27:12 GMT 48.645508 -1.678740 38,000 21 398 0
2018-02-23 15:27:09 GMT 48.643456 -1.679896 38,000 21 399 0
2018-02-23 15:27:06 GMT 48.638615 -1.682787 38,000 21 398 0
2018-02-23 15:27:03 GMT 48.632767 -1.686190 38,000 21 399 0
2018-02-23 15:26:59 GMT 48.626587 -1.689852 38,000 21 399 0
2018-02-23 15:26:54 GMT 48.617992 -1.694858 38,000 21 399 0
2018-02-23 15:26:51 GMT 48.611149 -1.698906 38,000 21 399 0
2018-02-23 15:26:48 GMT 48.606354 -1.701724 38,000 21 399 0
2018-02-23 15:26:45 GMT 48.601868 -1.704360 38,000 21 398 0
2018-02-23 15:26:42 GMT 48.597748 -1.706825 38,000 21 398 0
2018-02-23 15:26:39 GMT 48.591923 -1.710253 38,000 21 398 0
2018-02-23 15:26:35 GMT 48.584381 -1.714735 38,000 21 398 0
2018-02-23 15:26:32 GMT 48.580284 -1.717192 38,000 21 398 0
2018-02-23 15:26:28 GMT 48.572746 -1.721673 38,000 21 398 0
2018-02-23 15:26:24 GMT 48.566895 -1.725135 38,000 21 398 0
2018-02-23 15:26:21 GMT 48.560074 -1.729220 38,000 21 398 0
2018-02-23 15:26:18 GMT 48.556641 -1.731262 38,000 21 398 0
2018-02-23 15:26:15 GMT 48.549088 -1.735699 38,000 21 398 0
2018-02-23 15:26:11 GMT 48.543976 -1.738731 38,000 21 397 0
2018-02-23 15:26:08 GMT 48.538834 -1.741756 38,000 21 398 0
2018-02-23 15:26:04 GMT 48.532291 -1.745597 38,000 21 398 0
2018-02-23 15:26:01 GMT 48.527542 -1.748489 38,000 21 398 0
2018-02-23 15:25:58 GMT 48.522400 -1.751474 38,000 21 398 0
2018-02-23 15:25:54 GMT 48.514847 -1.755911 38,000 21 397 0
2018-02-23 15:25:50 GMT 48.508362 -1.759764 38,000 21 397 0
2018-02-23 15:25:47 GMT 48.503220 -1.762813 38,000 21 397 0
2018-02-23 15:25:44 GMT 48.497421 -1.766197 38,000 21 397 0
2018-02-23 15:25:41 GMT 48.492966 -1.768869 38,000 21 397 0
2018-02-23 15:25:38 GMT 48.486786 -1.772461 38,000 21 397 0
2018-02-23 15:25:34 GMT 48.479965 -1.776475 38,000 21 397 0
2018-02-23 15:25:30 GMT 48.474846 -1.779496 38,000 21 397 0
2018-02-23 15:25:27 GMT 48.469025 -1.782954 38,000 21 397 0
2018-02-23 15:25:23 GMT 48.460831 -1.787743 38,000 21 397 0
2018-02-23 15:25:20 GMT 48.457397 -1.789786 38,000 21 396 0
2018-02-23 15:25:17 GMT 48.449890 -1.794152 38,000 21 397 0
2018-02-23 15:25:13 GMT 48.445084 -1.796969 38,000 21 397 0
2018-02-23 15:25:10 GMT 48.439636 -1.800208 38,000 21 397 0
2018-02-23 15:25:07 GMT 48.434143 -1.803378 38,000 21 397 0
2018-02-23 15:25:04 GMT 48.429737 -1.806022 38,000 21 397 0
2018-02-23 15:25:01 GMT 48.423592 -1.809564 38,000 21 397 0
2018-02-23 15:24:58 GMT 48.417446 -1.813178 38,000 21 396 0
2018-02-23 15:24:55 GMT 48.414001 -1.815202 38,000 21 396 0
2018-02-23 15:24:51 GMT 48.405109 -1.820333 38,000 21 396 64
2018-02-23 15:24:47 GMT 48.399994 -1.823308 38,000 21 396 0
2018-02-23 15:24:44 GMT 48.395920 -1.825702 38,000 21 396 0
2018-02-23 15:24:41 GMT 48.390121 -1.829079 38,000 21 396 0
2018-02-23 15:24:38 GMT 48.385979 -1.831464 38,000 21 396 0
2018-02-23 15:24:34 GMT 48.376099 -1.837182 38,000 21 396 0
2018-02-23 15:24:31 GMT 48.373688 -1.838620 38,000 21 396 0
2018-02-23 15:24:28 GMT 48.368240 -1.841728 38,000 21 396 0
2018-02-23 15:24:25 GMT 48.363445 -1.844547 38,000 21 396 64
2018-02-23 15:24:22 GMT 48.357300 -1.848088 38,000 21 395 0
2018-02-23 15:24:17 GMT 48.349110 -1.852859 38,000 21 395 64
2018-02-23 15:24:14 GMT 48.344009 -1.855844 38,000 21 396 0
2018-02-23 15:24:09 GMT 48.335468 -1.860809 38,000 21 396 0
2018-02-23 15:24:05 GMT 48.328308 -1.865000 38,000 21 396 0
2018-02-23 15:24:01 GMT 48.321175 -1.869194 38,000 21 396 0
2018-02-23 15:23:58 GMT 48.317081 -1.871579 38,000 21 396 0
2018-02-23 15:23:55 GMT 48.311279 -1.874930 38,000 21 396 0
2018-02-23 15:23:52 GMT 48.304459 -1.878944 38,000 21 396 0
2018-02-23 15:23:48 GMT 48.299698 -1.881761 38,000 21 396 0
2018-02-23 15:23:44 GMT 48.293243 -1.885601 38,000 21 396 0
2018-02-23 15:23:41 GMT 48.287750 -1.888781 38,000 21 396 0
2018-02-23 15:23:38 GMT 48.283005 -1.891600 38,000 21 396 0
2018-02-23 15:23:35 GMT 48.277557 -1.894780 38,000 21 396 0
2018-02-23 15:23:32 GMT 48.272110 -1.897960 38,000 21 396 0
2018-02-23 15:23:28 GMT 48.264267 -1.902536 38,000 21 396 0
2018-02-23 15:23:25 GMT 48.260517 -1.904682 38,000 21 396 0
2018-02-23 15:23:22 GMT 48.254059 -1.908522 38,000 21 396 0
2018-02-23 15:23:17 GMT 48.246552 -1.912889 38,000 21 395 0
2018-02-23 15:23:13 GMT 48.239731 -1.916903 38,000 21 395 0
2018-02-23 15:23:10 GMT 48.234634 -1.919861 38,000 21 395 0
2018-02-23 15:23:07 GMT 48.229523 -1.922889 38,000 21 395 0
2018-02-23 15:23:03 GMT 48.222393 -1.927016 38,000 21 394 0
2018-02-23 15:22:59 GMT 48.216946 -1.930197 38,000 21 394 0
2018-02-23 15:22:56 GMT 48.210846 -1.933738 38,000 21 395 0
2018-02-23 15:22:53 GMT 48.205402 -1.936919 38,000 21 395 0
2018-02-23 15:22:49 GMT 48.198898 -1.940707 38,000 21 395 0
2018-02-23 15:22:46 GMT 48.193810 -1.943640 38,000 21 395 0
2018-02-23 15:22:43 GMT 48.189060 -1.946387 38,000 21 395 0
2018-02-23 15:22:38 GMT 48.180542 -1.951341 38,000 21 395 0
2018-02-23 15:22:34 GMT 48.174072 -1.955060 38,000 21 395 0
2018-02-23 15:22:31 GMT 48.169601 -1.957609 38,000 21 395 0
2018-02-23 15:22:28 GMT 48.163830 -1.960915 38,000 21 395 0
2018-02-23 15:22:25 GMT 48.158707 -1.963875 38,000 21 395 0
2018-02-23 15:22:21 GMT 48.151539 -1.968032 38,000 21 395 0
2018-02-23 15:22:18 GMT 48.146439 -1.970947 38,000 21 395 0
2018-02-23 15:22:15 GMT 48.141346 -1.973877 38,000 21 395 0
2018-02-23 15:22:12 GMT 48.136230 -1.976852 38,000 21 395 0
2018-02-23 15:22:08 GMT 48.128723 -1.981178 38,000 21 395 64
2018-02-23 15:22:03 GMT 48.118813 -1.986906 38,000 21 396 0
2018-02-23 15:22:00 GMT 48.116066 -1.988455 38,000 21 397 0
2018-02-23 15:21:57 GMT 48.110275 -1.991821 38,000 21 397 0
2018-02-23 15:21:54 GMT 48.105515 -1.994637 38,000 21 397 0
2018-02-23 15:21:50 GMT 48.098648 -1.998550 38,000 21 397 0
2018-02-23 15:21:47 GMT 48.091488 -2.002751 38,000 21 397 0
2018-02-23 15:21:44 GMT 48.088089 -2.004723 38,000 21 397 0
2018-02-23 15:21:40 GMT 48.082260 -2.008095 38,000 21 397 0
2018-02-23 15:21:37 GMT 48.076450 -2.011484 38,000 21 397 0
2018-02-23 15:21:33 GMT 48.069607 -2.015428 38,000 21 397 0
2018-02-23 15:21:30 GMT 48.062393 -2.019630 38,000 21 397 0
2018-02-23 15:21:25 GMT 48.055923 -2.023456 38,000 21 398 0
2018-02-23 15:21:22 GMT 48.049393 -2.027184 38,000 21 398 0
2018-02-23 15:21:18 GMT 48.044933 -2.029795 38,000 21 398 0
2018-02-23 15:21:15 GMT 48.037766 -2.033981 38,000 21 398 0
2018-02-23 15:21:12 GMT 48.033298 -2.036555 38,000 21 398 0
2018-02-23 15:21:09 GMT 48.027466 -2.039955 38,000 21 398 0
2018-02-23 15:21:04 GMT 48.018215 -2.045288 38,000 21 398 0
2018-02-23 15:21:00 GMT 48.013779 -2.047920 38,000 21 399 0
2018-02-23 15:20:57 GMT 48.005878 -2.052471 38,000 21 399 64
2018-02-23 15:20:54 GMT 48.002434 -2.054443 38,000 21 398 0
2018-02-23 15:20:50 GMT 47.996243 -2.058035 38,000 21 398 0
2018-02-23 15:20:46 GMT 47.988701 -2.062401 38,000 21 401 0
2018-02-23 15:20:43 GMT 47.982834 -2.065773 38,000 21 399 0
2018-02-23 15:20:40 GMT 47.978367 -2.068388 38,000 21 399 0
2018-02-23 15:20:35 GMT 47.970078 -2.073106 38,000 21 401 0
2018-02-23 15:20:32 GMT 47.965935 -2.075500 38,000 21 399 0
2018-02-23 15:20:29 GMT 47.960442 -2.078670 38,000 21 399 0
2018-02-23 15:20:26 GMT 47.955276 -2.081635 38,000 21 399 0
2018-02-23 15:20:22 GMT 47.947678 -2.086029 38,000 21 400 0
2018-02-23 15:20:19 GMT 47.942520 -2.089022 38,000 21 400 0
2018-02-23 15:20:16 GMT 47.937679 -2.091769 38,000 21 401 0
2018-02-23 15:20:12 GMT 47.928696 -2.096910 38,000 21 401 0
2018-02-23 15:20:09 GMT 47.925613 -2.098732 38,000 21 401 0
2018-02-23 15:20:06 GMT 47.920074 -2.101891 38,000 21 401 0
2018-02-23 15:20:03 GMT 47.914867 -2.104868 38,000 21 401 0
2018-02-23 15:20:00 GMT 47.910725 -2.107262 38,000 21 401 0
2018-02-23 15:19:56 GMT 47.903137 -2.111629 38,000 21 401 0
2018-02-23 15:19:53 GMT 47.898651 -2.114250 38,000 21 402 0
2018-02-23 15:19:50 GMT 47.892426 -2.117821 38,000 21 402 0
2018-02-23 15:19:46 GMT 47.885120 -2.121981 38,000 21 401 0
2018-02-23 15:19:41 GMT 47.877182 -2.126541 38,000 21 401 0
2018-02-23 15:19:38 GMT 47.871994 -2.129517 38,000 21 401 0
2018-02-23 15:19:35 GMT 47.866058 -2.132858 38,000 20 402 0
2018-02-23 15:19:32 GMT 47.862263 -2.135010 38,000 20 402 0
2018-02-23 15:19:28 GMT 47.853931 -2.139799 38,000 20 402 -64
2018-02-23 15:19:24 GMT 47.847336 -2.143570 38,000 21 403 0
2018-02-23 15:19:20 GMT 47.839005 -2.148308 38,000 20 402 0
2018-02-23 15:19:17 GMT 47.835869 -2.150081 38,000 20 402 0
2018-02-23 15:19:12 GMT 47.826141 -2.155644 38,000 21 403 0
2018-02-23 15:19:07 GMT 47.818817 -2.159775 38,000 20 403 0
2018-02-23 15:19:04 GMT 47.812222 -2.163532 38,000 21 403 0
2018-02-23 15:19:01 GMT 47.808029 -2.165926 38,000 21 403 0
2018-02-23 15:18:57 GMT 47.800735 -2.170074 38,000 21 403 0
2018-02-23 15:18:51 GMT 47.789921 -2.176279 38,000 21 403 64
2018-02-23 15:18:47 GMT 47.782608 -2.180443 38,000 21 403 0
2018-02-23 15:18:42 GMT 47.774963 -2.184837 38,000 21 405 0
2018-02-23 15:18:39 GMT 47.769020 -2.188181 38,000 21 405 0
2018-02-23 15:18:35 GMT 47.761337 -2.192618 38,000 21 405 64
2018-02-23 15:18:30 GMT 47.752960 -2.197406 38,000 21 405 0
2018-02-23 15:18:27 GMT 47.747726 -2.200356 38,000 20 405 0
2018-02-23 15:18:24 GMT 47.743515 -2.202759 38,000 20 405 0
2018-02-23 15:18:21 GMT 47.738297 -2.205717 38,000 20 406 -64
2018-02-23 15:18:16 GMT 47.729553 -2.210724 38,000 21 406 0
2018-02-23 15:18:13 GMT 47.723583 -2.214097 38,000 20 405 0
2018-02-23 15:18:10 GMT 47.718338 -2.217110 38,000 21 406 0
2018-02-23 15:18:07 GMT 47.711334 -2.221092 38,000 21 406 0
2018-02-23 15:18:03 GMT 47.706081 -2.224027 38,000 21 406 0
2018-02-23 15:18:00 GMT 47.699799 -2.227619 38,000 21 406 0
2018-02-23 15:17:55 GMT 47.692429 -2.231873 38,000 21 406 0
2018-02-23 15:17:51 GMT 47.684738 -2.236267 38,000 21 406 0
2018-02-23 15:17:47 GMT 47.678421 -2.239838 38,000 21 406 0
2018-02-23 15:17:44 GMT 47.673523 -2.242653 38,000 21 407 0
2018-02-23 15:17:39 GMT 47.662647 -2.248817 38,000 21 407 64
2018-02-23 15:17:34 GMT 47.655304 -2.253021 38,000 21 407 -64
2018-02-23 15:17:30 GMT 47.647892 -2.257268 38,000 20 406 64
2018-02-23 15:17:27 GMT 47.644043 -2.259407 38,000 21 407 64
2018-02-23 15:17:24 GMT 47.638069 -2.262831 38,000 21 407 0
2018-02-23 15:17:21 GMT 47.631039 -2.266775 38,025 20 407 0
2018-02-23 15:17:18 GMT 47.625778 -2.269707 38,000 20 406 64
2018-02-23 15:17:14 GMT 47.620518 -2.272691 38,000 21 407 64
2018-02-23 15:17:09 GMT 47.611038 -2.278084 38,000 21 407 0
2018-02-23 15:17:06 GMT 47.606461 -2.280649 38,000 21 407 0
2018-02-23 15:17:02 GMT 47.599430 -2.284593 38,000 20 406 -64
2018-02-23 15:16:57 GMT 47.589249 -2.290375 38,000 21 407 0
2018-02-23 15:16:53 GMT 47.583664 -2.293602 38,000 21 407 64
2018-02-23 15:16:50 GMT 47.576294 -2.297762 38,000 21 407 0
2018-02-23 15:16:46 GMT 47.569962 -2.301354 38,025 21 407 0
2018-02-23 15:16:43 GMT 47.565399 -2.303902 38,000 21 407 0
2018-02-23 15:16:36 GMT 47.553497 -2.310699 38,000 21 407 -64
2018-02-23 15:16:33 GMT 47.548553 -2.313515 38,000 21 407 0
2018-02-23 15:16:27 GMT 47.537701 -2.319665 38,000 21 407 0
2018-02-23 15:16:22 GMT 47.529278 -2.324383 38,000 21 407 0
2018-02-23 15:16:18 GMT 47.521912 -2.328552 38,000 21 407 0
2018-02-23 15:16:14 GMT 47.515217 -2.332341 38,000 20 406 0
2018-02-23 15:16:11 GMT 47.508884 -2.335933 38,000 20 406 0
2018-02-23 15:16:07 GMT 47.502602 -2.339524 38,000 20 406 0
2018-02-23 15:16:04 GMT 47.497665 -2.342271 38,000 20 406 0
2018-02-23 15:16:01 GMT 47.491699 -2.345650 38,000 20 406 0
2018-02-23 15:15:58 GMT 47.486446 -2.348609 38,000 20 406 0
2018-02-23 15:15:55 GMT 47.481514 -2.351356 38,000 20 406 0
2018-02-23 15:15:51 GMT 47.475540 -2.354713 38,000 20 406 0
2018-02-23 15:15:48 GMT 47.468155 -2.358891 38,000 20 406 0
2018-02-23 15:15:43 GMT 47.460800 -2.363022 38,000 20 406 0
2018-02-23 15:15:40 GMT 47.455856 -2.365768 38,000 20 406 0
2018-02-23 15:15:37 GMT 47.449905 -2.369173 38,000 20 406 0
2018-02-23 15:15:34 GMT 47.445328 -2.371742 38,000 20 406 0
2018-02-23 15:15:31 GMT 47.438641 -2.375441 38,000 20 407 0
2018-02-23 15:15:27 GMT 47.431961 -2.379227 38,000 20 407 0
2018-02-23 15:15:24 GMT 47.427063 -2.381973 38,000 20 407 0
2018-02-23 15:15:21 GMT 47.420391 -2.385723 38,000 20 406 0
2018-02-23 15:15:17 GMT 47.413010 -2.389870 38,000 20 406 0
2018-02-23 15:15:13 GMT 47.407379 -2.393028 38,000 21 407 64
2018-02-23 15:15:10 GMT 47.401749 -2.396187 38,000 20 407 0
2018-02-23 15:15:04 GMT 47.392227 -2.401499 38,000 20 407 64
2018-02-23 15:15:00 GMT 47.384499 -2.405865 38,000 20 407 0
2018-02-23 15:14:55 GMT 47.375702 -2.410812 38,000 20 408 0
2018-02-23 15:14:52 GMT 47.370441 -2.413753 38,000 20 408 64
2018-02-23 15:14:49 GMT 47.365505 -2.416570 38,000 20 407 0
2018-02-23 15:14:45 GMT 47.357391 -2.421112 38,000 20 407 0
2018-02-23 15:14:42 GMT 47.353180 -2.423447 38,000 20 407 0
2018-02-23 15:14:39 GMT 47.346512 -2.427204 38,000 20 407 0
2018-02-23 15:14:32 GMT 47.335945 -2.433120 38,000 20 408 64
2018-02-23 15:14:29 GMT 47.329613 -2.436711 38,000 20 408 64
2018-02-23 15:14:25 GMT 47.323608 -2.440063 38,000 20 408 0
2018-02-23 15:14:21 GMT 47.316208 -2.444247 38,000 20 408 64
2018-02-23 15:14:18 GMT 47.309177 -2.448191 38,000 20 408 0
2018-02-23 15:14:13 GMT 47.302845 -2.451712 38,000 20 408 0
2018-02-23 15:14:10 GMT 47.297215 -2.454881 38,000 20 407 0
2018-02-23 15:14:06 GMT 47.290184 -2.458895 38,000 20 407 0
2018-02-23 15:14:03 GMT 47.284882 -2.461830 38,000 20 407 0
2018-02-23 15:13:59 GMT 47.278172 -2.465586 38,000 20 407 64
2018-02-23 15:13:56 GMT 47.272202 -2.468903 38,000 20 408 64
2018-02-23 15:13:53 GMT 47.266907 -2.471853 38,000 20 408 64
2018-02-23 15:13:48 GMT 47.256683 -2.477554 38,000 20 408 64
2018-02-23 15:13:45 GMT 47.253502 -2.479318 38,000 20 408 0
2018-02-23 15:13:42 GMT 47.247868 -2.482488 38,000 20 408 0
2018-02-23 15:13:39 GMT 47.241852 -2.485863 38,000 20 408 0
2018-02-23 15:13:36 GMT 47.235855 -2.489178 38,000 20 409 0
2018-02-23 15:13:32 GMT 47.229172 -2.492935 38,000 20 409 0
2018-02-23 15:13:28 GMT 47.222809 -2.496506 38,000 20 409 -64
2018-02-23 15:13:25 GMT 47.215374 -2.500587 38,000 20 409 0
2018-02-23 15:13:21 GMT 47.209694 -2.503756 38,000 20 409 64
2018-02-23 15:13:17 GMT 47.201569 -2.508316 38,000 20 409 64
2018-02-23 15:13:12 GMT 47.193447 -2.512841 37,975 20 409 0
2018-02-23 15:13:07 GMT 47.186005 -2.516968 38,000 20 409 0
2018-02-23 15:13:04 GMT 47.181061 -2.519714 38,000 20 409 0
2018-02-23 15:13:01 GMT 47.175385 -2.522873 38,000 20 409 -64
2018-02-23 15:12:58 GMT 47.169380 -2.526222 38,000 20 409 0
2018-02-23 15:12:55 GMT 47.165096 -2.528546 38,000 20 409 0
2018-02-23 15:12:51 GMT 47.156982 -2.533104 38,000 20 409 0
2018-02-23 15:12:48 GMT 47.151646 -2.536081 38,000 20 409 -64
2018-02-23 15:12:45 GMT 47.146362 -2.539078 38,000 20 409 0
2018-02-23 15:12:41 GMT 47.137848 -2.543816 38,000 20 409 0
2018-02-23 15:12:35 GMT 47.128647 -2.548965 38,000 20 409 0
2018-02-23 15:12:32 GMT 47.124039 -2.551504 38,000 20 409 0
2018-02-23 15:12:29 GMT 47.119446 -2.554115 38,000 20 410 0
2018-02-23 15:12:24 GMT 47.109188 -2.559885 38,000 20 410 0
2018-02-23 15:12:19 GMT 47.100311 -2.564827 38,000 20 410 0
2018-02-23 15:12:16 GMT 47.096432 -2.566998 38,000 20 411 0
2018-02-23 15:12:13 GMT 47.090755 -2.570237 38,000 20 411 0
2018-02-23 15:12:10 GMT 47.083679 -2.574181 38,000 20 411 0
2018-02-23 15:12:04 GMT 47.074081 -2.579521 38,000 20 410 0
2018-02-23 15:11:59 GMT 47.064499 -2.584886 38,000 20 411 0
2018-02-23 15:11:54 GMT 47.055981 -2.589604 38,000 20 411 128
2018-02-23 15:11:51 GMT 47.050644 -2.592567 38,000 20 411 128
2018-02-23 15:11:48 GMT 47.046017 -2.595097 38,000 20 411 64
2018-02-23 15:11:43 GMT 47.037453 -2.599816 38,000 20 412 -64
2018-02-23 15:11:39 GMT 47.028534 -2.604721 38,000 20 412 0
2018-02-23 15:11:33 GMT 47.019287 -2.609871 38,000 20 412 128
2018-02-23 15:11:30 GMT 47.013245 -2.613197 38,000 20 412 128
2018-02-23 15:11:27 GMT 47.008961 -2.615591 38,000 20 412 0
2018-02-23 15:11:23 GMT 47.000748 -2.620102 38,000 20 412 0
2018-02-23 15:11:18 GMT 46.991455 -2.625252 38,000 20 412 0
2018-02-23 15:11:12 GMT 46.981125 -2.630944 38,000 20 413 0
2018-02-23 15:11:09 GMT 46.976486 -2.633492 38,000 20 413 0
2018-02-23 15:11:06 GMT 46.971497 -2.636307 38,000 20 413 64
2018-02-23 15:11:02 GMT 46.962891 -2.640976 38,000 20 413 0
2018-02-23 15:10:59 GMT 46.957901 -2.643723 38,000 20 413 64
2018-02-23 15:10:56 GMT 46.953598 -2.646057 38,000 20 413 64
2018-02-23 15:10:52 GMT 46.945370 -2.650593 38,000 20 413 0
2018-02-23 15:10:47 GMT 46.935364 -2.656086 38,000 20 413 0
2018-02-23 15:10:39 GMT 46.923523 -2.662605 38,000 20 419 0
2018-02-23 15:10:36 GMT 46.915298 -2.667142 38,000 20 414 0
2018-02-23 15:10:31 GMT 46.909195 -2.670433 38,000 20 419 0
2018-02-23 15:10:27 GMT 46.902008 -2.674347 38,000 20 414 64
2018-02-23 15:10:24 GMT 46.895599 -2.677917 38,000 20 414 64
2018-02-23 15:10:18 GMT 46.885178 -2.683692 38,000 20 415 0
2018-02-23 15:10:15 GMT 46.879452 -2.686861 38,000 20 415 0
2018-02-23 15:10:11 GMT 46.871586 -2.691228 38,000 20 415 64
2018-02-23 15:10:08 GMT 46.866558 -2.694054 38,000 20 414 0
2018-02-23 15:10:05 GMT 46.861176 -2.697010 38,000 20 414 0
2018-02-23 15:10:02 GMT 46.856548 -2.699547 38,000 20 414 0
2018-02-23 15:09:58 GMT 46.848637 -2.703941 38,000 20 414 64
2018-02-23 15:09:55 GMT 46.841469 -2.707855 38,000 20 414 0
2018-02-23 15:09:51 GMT 46.834995 -2.711426 38,000 20 415 0
2018-02-23 15:09:46 GMT 46.828171 -2.715164 38,000 20 415 64
2018-02-23 15:09:43 GMT 46.820297 -2.719518 38,000 20 415 0
2018-02-23 15:09:40 GMT 46.816330 -2.721657 38,000 20 415 0
2018-02-23 15:09:37 GMT 46.812046 -2.724060 37,975 20 415 0
2018-02-23 15:09:33 GMT 46.803772 -2.728562 38,000 20 415 0
2018-02-23 15:09:30 GMT 46.798737 -2.731308 38,000 20 415 -64
2018-02-23 15:09:27 GMT 46.794029 -2.733879 38,000 20 415 -64
2018-02-23 15:09:22 GMT 46.782532 -2.740196 38,000 20 416 0
2018-02-23 15:09:17 GMT 46.775364 -2.744110 38,000 20 415 0
2018-02-23 15:09:13 GMT 46.767838 -2.748257 38,000 20 415 64
2018-02-23 15:09:10 GMT 46.762802 -2.751003 38,000 20 415 64
2018-02-23 15:09:07 GMT 46.757034 -2.754152 38,000 20 415 0
2018-02-23 15:09:00 GMT 46.744080 -2.761253 38,000 20 416 0
2018-02-23 15:08:57 GMT 46.738682 -2.764160 38,000 20 416 0
2018-02-23 15:08:52 GMT 46.730392 -2.768756 38,000 20 417 0
2018-02-23 15:08:49 GMT 46.724995 -2.771645 38,000 20 417 0
2018-02-23 15:08:46 GMT 46.719917 -2.774460 38,000 20 417 0
2018-02-23 15:08:39 GMT 46.706882 -2.781532 38,000 20 418 0
2018-02-23 15:08:36 GMT 46.701462 -2.784431 38,000 20 418 64
2018-02-23 15:08:30 GMT 46.690964 -2.790115 38,000 20 418 0
2018-02-23 15:08:26 GMT 46.682957 -2.794510 38,000 20 418 0
2018-02-23 15:08:21 GMT 46.673904 -2.799437 38,000 20 419 0
2018-02-23 15:08:18 GMT 46.668091 -2.802586 38,000 20 419 0
2018-02-23 15:08:15 GMT 46.663742 -2.804930 38,000 20 419 0
2018-02-23 15:08:08 GMT 46.651428 -2.811629 38,000 20 419 -64
2018-02-23 15:08:05 GMT 46.645248 -2.815041 38,000 20 419 0
2018-02-23 15:08:00 GMT 46.636185 -2.819936 38,000 20 419 0
2018-02-23 15:07:57 GMT 46.630726 -2.822937 38,000 20 419 0
2018-02-23 15:07:54 GMT 46.625290 -2.825898 38,000 20 419 0
2018-02-23 15:07:49 GMT 46.617279 -2.830252 38,000 20 419 0
2018-02-23 15:07:46 GMT 46.610779 -2.833803 38,000 20 419 0
2018-02-23 15:07:43 GMT 46.605309 -2.836739 38,000 20 419 0
2018-02-23 15:07:40 GMT 46.598045 -2.840721 38,000 20 419 0
2018-02-23 15:07:37 GMT 46.594803 -2.842511 38,000 20 419 0
2018-02-23 15:07:34 GMT 46.589722 -2.845325 38,000 20 419 0
2018-02-23 15:07:29 GMT 46.579891 -2.850677 38,000 20 419 0
2018-02-23 15:07:25 GMT 46.571186 -2.855415 38,000 20 419 0
2018-02-23 15:07:22 GMT 46.567554 -2.857407 38,000 20 419 0
2018-02-23 15:07:18 GMT 46.560699 -2.861202 38,000 20 419 0
2018-02-23 15:07:15 GMT 46.555218 -2.864136 38,000 20 419 0
2018-02-23 15:07:12 GMT 46.550144 -2.866951 38,000 20 419 0
2018-02-23 15:07:06 GMT 46.537109 -2.874023 38,000 20 419 64
2018-02-23 15:07:02 GMT 46.530945 -2.877413 38,000 20 419 0
2018-02-23 15:06:54 GMT 46.516068 -2.885559 38,000 20 419 -64
2018-02-23 15:06:49 GMT 46.508060 -2.889885 38,000 20 419 -64
2018-02-23 15:06:44 GMT 46.497910 -2.895447 38,000 20 419 0
2018-02-23 15:06:37 GMT 46.485214 -2.902333 38,000 20 419 0
2018-02-23 15:06:33 GMT 46.478313 -2.906090 38,000 20 419 -64
2018-02-23 15:06:30 GMT 46.472492 -2.909180 38,000 20 419 -64
2018-02-23 15:06:22 GMT 46.458714 -2.916664 38,000 20 419 64
2018-02-23 15:06:17 GMT 46.449265 -2.921745 38,000 20 419 0
2018-02-23 15:06:12 GMT 46.439816 -2.926895 38,000 20 419 0
2018-02-23 15:06:09 GMT 46.435486 -2.929230 38,000 20 419 64
2018-02-23 15:06:05 GMT 46.427479 -2.933487 38,000 20 419 64
2018-02-23 15:06:02 GMT 46.420578 -2.937235 38,000 20 418 0
2018-02-23 15:05:58 GMT 46.415497 -2.939982 38,000 20 419 -64
2018-02-23 15:05:53 GMT 46.405739 -2.945229 38,000 20 419 0
2018-02-23 15:05:49 GMT 46.399174 -2.948799 38,000 20 419 0
2018-02-23 15:05:46 GMT 46.393402 -2.951889 38,000 20 419 0
2018-02-23 15:05:43 GMT 46.387207 -2.955255 38,000 20 419 0
2018-02-23 15:05:40 GMT 46.380322 -2.958961 38,000 20 419 64
2018-02-23 15:05:36 GMT 46.375244 -2.961639 38,000 20 418 0
2018-02-23 15:05:30 GMT 46.363998 -2.967715 38,000 20 418 0
2018-02-23 15:05:27 GMT 46.358185 -2.970864 38,000 20 418 0
2018-02-23 15:05:21 GMT 46.348068 -2.976290 38,000 20 418 0
2018-02-23 15:05:18 GMT 46.340790 -2.980175 38,000 20 418 0
2018-02-23 15:05:12 GMT 46.331764 -2.985054 38,000 20 418 64
2018-02-23 15:05:06 GMT 46.320511 -2.991095 38,000 20 418 0
2018-02-23 15:05:02 GMT 46.313278 -2.995047 38,000 20 418 0
2018-02-23 15:04:58 GMT 46.306778 -2.998531 38,000 20 418 0
2018-02-23 15:04:55 GMT 46.301697 -3.001277 38,000 20 418 0
2018-02-23 15:04:51 GMT 46.292999 -3.005967 38,000 20 418 0
2018-02-23 15:04:48 GMT 46.286144 -3.009636 38,000 20 418 -64
2018-02-23 15:04:42 GMT 46.275604 -3.015278 38,000 20 418 0
2018-02-23 15:04:39 GMT 46.272366 -3.017052 38,000 20 418 0
2018-02-23 15:04:36 GMT 46.266953 -3.019967 38,000 20 418 0
2018-02-23 15:04:33 GMT 46.261139 -3.023116 38,000 20 418 0
2018-02-23 15:04:30 GMT 46.255001 -3.026390 38,000 20 418 64
2018-02-23 15:04:26 GMT 46.248825 -3.029681 38,000 20 418 -64
2018-02-23 15:04:21 GMT 46.239082 -3.034973 38,000 20 418 -64
2018-02-23 15:04:18 GMT 46.234360 -3.037452 38,000 20 418 -64
2018-02-23 15:04:15 GMT 46.228931 -3.040398 38,000 20 418 -64
2018-02-23 15:04:11 GMT 46.218430 -3.045959 38,000 20 417 0
2018-02-23 15:04:03 GMT 46.207581 -3.051788 38,000 20 418 64
2018-02-23 15:04:00 GMT 46.200348 -3.055673 38,000 20 417 0
2018-02-23 15:03:54 GMT 46.190575 -3.060928 38,000 20 418 0
2018-02-23 15:03:49 GMT 46.180801 -3.066123 38,000 20 417 0
2018-02-23 15:03:42 GMT 46.168880 -3.072533 38,000 20 417 0
2018-02-23 15:03:38 GMT 46.161667 -3.076447 38,000 20 418 64
2018-02-23 15:03:33 GMT 46.152603 -3.081263 38,000 20 418 0
2018-02-23 15:03:30 GMT 46.147522 -3.084010 38,000 20 418 0
2018-02-23 15:03:27 GMT 46.142113 -3.086884 38,000 20 418 0
2018-02-23 15:03:20 GMT 46.129078 -3.093887 38,000 20 417 0
2018-02-23 15:03:17 GMT 46.123306 -3.096977 38,000 20 417 0
2018-02-23 15:03:12 GMT 46.114601 -3.101646 38,000 20 417 0
2018-02-23 15:03:09 GMT 46.107384 -3.105492 38,000 20 417 0
2018-02-23 15:03:06 GMT 46.103752 -3.107414 38,000 20 417 0
2018-02-23 15:03:01 GMT 46.094009 -3.112681 38,000 20 417 0
2018-02-23 15:02:58 GMT 46.089275 -3.115173 38,000 20 418 0
2018-02-23 15:02:53 GMT 46.080963 -3.119648 38,000 20 417 0
2018-02-23 15:02:49 GMT 46.073044 -3.123936 38,000 20 417 0
2018-02-23 15:02:46 GMT 46.067963 -3.126682 38,000 20 418 0
2018-02-23 15:02:38 GMT 46.053150 -3.134605 38,000 20 418 0
2018-02-23 15:02:35 GMT 46.048077 -3.137352 38,000 20 419 0
2018-02-23 15:02:28 GMT 46.033173 -3.145305 38,000 20 419 0
2018-02-23 15:02:22 GMT 46.023010 -3.150732 38,000 20 419 0
2018-02-23 15:02:19 GMT 46.018284 -3.153282 38,000 20 419 0
2018-02-23 15:02:14 GMT 46.009964 -3.157698 38,000 20 419 64
2018-02-23 15:02:07 GMT 45.996140 -3.165067 38,000 20 419 0
2018-02-23 15:01:59 GMT 45.981583 -3.172704 38,000 20 419 0
2018-02-23 15:01:56 GMT 45.976154 -3.175598 38,000 20 419 0
2018-02-23 15:01:53 GMT 45.971031 -3.178276 38,000 20 419 0
2018-02-23 15:01:48 GMT 45.961582 -3.183289 38,000 20 419 0
2018-02-23 15:01:45 GMT 45.954323 -3.187134 38,000 20 419 64
2018-02-23 15:01:38 GMT 45.944504 -3.192265 38,000 20 419 0
2018-02-23 15:01:35 GMT 45.939007 -3.195168 38,000 20 419 0
2018-02-23 15:01:32 GMT 45.933929 -3.197845 38,000 20 418 0
2018-02-23 15:01:28 GMT 45.925922 -3.202103 38,000 20 418 0
2018-02-23 15:01:24 GMT 45.917965 -3.206360 38,000 20 418 0
2018-02-23 15:01:19 GMT 45.910309 -3.210352 38,000 20 418 0
2018-02-23 15:01:16 GMT 45.903393 -3.214050 38,000 20 418 0
2018-02-23 15:01:13 GMT 45.897621 -3.217072 38,000 20 418 0
2018-02-23 15:01:05 GMT 45.883438 -3.224621 38,000 20 418 0
2018-02-23 15:01:02 GMT 45.878357 -3.227301 38,000 20 418 0
2018-02-23 15:00:58 GMT 45.870762 -3.231285 38,000 20 418 0
2018-02-23 15:00:55 GMT 45.863113 -3.235340 38,000 20 417 0
2018-02-23 15:00:51 GMT 45.859497 -3.237282 38,000 20 417 0
2018-02-23 15:00:47 GMT 45.851906 -3.241310 38,000 20 417 0
2018-02-23 15:00:44 GMT 45.845718 -3.244584 38,000 20 417 0
2018-02-23 15:00:41 GMT 45.841015 -3.247078 38,000 20 417 0
2018-02-23 15:00:37 GMT 45.833752 -3.250923 38,000 20 417 0
2018-02-23 15:00:33 GMT 45.826534 -3.254700 38,000 20 417 0
2018-02-23 15:00:30 GMT 45.820717 -3.257790 38,000 20 417 0
2018-02-23 15:00:27 GMT 45.815323 -3.260662 38,000 20 417 0
2018-02-23 15:00:23 GMT 45.807358 -3.264882 38,000 20 417 0
2018-02-23 15:00:19 GMT 45.801544 -3.267897 38,000 20 417 0
2018-02-23 15:00:16 GMT 45.795776 -3.270978 38,000 20 417 0
2018-02-23 15:00:10 GMT 45.783798 -3.277222 38,000 20 416 0
2018-02-23 15:00:06 GMT 45.777649 -3.280491 38,000 20 416 0
2018-02-23 15:00:02 GMT 45.768997 -3.285046 38,000 20 416 0
2018-02-23 14:59:58 GMT 45.763596 -3.287865 38,000 20 416 0
2018-02-23 14:59:55 GMT 45.758148 -3.290740 38,000 20 416 0
2018-02-23 14:59:49 GMT 45.744091 -3.298164 38,000 20 416 0
2018-02-23 14:59:46 GMT 45.741203 -3.299744 38,000 20 416 0
2018-02-23 14:59:38 GMT 45.725330 -3.308121 38,000 20 416 0
2018-02-23 14:59:35 GMT 45.722076 -3.309832 38,000 20 416 0
2018-02-23 14:59:29 GMT 45.710201 -3.316154 38,000 20 416 0
2018-02-23 14:59:25 GMT 45.704086 -3.319412 38,000 20 415 0
2018-02-23 14:59:20 GMT 45.694748 -3.324436 38,000 20 415 0
2018-02-23 14:59:17 GMT 45.689713 -3.327116 38,000 20 415 0
2018-02-23 14:59:14 GMT 45.684319 -3.329956 38,000 20 415 0
2018-02-23 14:59:09 GMT 45.673874 -3.335489 38,000 20 415 0
2018-02-23 14:59:05 GMT 45.667744 -3.338745 38,000 20 415 0
2018-02-23 14:58:58 GMT 45.654465 -3.345806 38,000 20 414 0
2018-02-23 14:58:55 GMT 45.648743 -3.348887 38,000 20 414 0
2018-02-23 14:58:47 GMT 45.634739 -3.356323 38,000 20 413 0
2018-02-23 14:58:38 GMT 45.618958 -3.364632 38,000 20 414 0
2018-02-23 14:58:35 GMT 45.613541 -3.367444 38,000 20 414 0
2018-02-23 14:58:26 GMT 45.597015 -3.376018 38,000 19 413 0
2018-02-23 14:58:15 GMT 45.577991 -3.385780 38,000 19 413 0
2018-02-23 14:58:05 GMT 45.560394 -3.394775 38,000 19 412 0
2018-02-23 14:57:55 GMT 45.541763 -3.404388 38,000 19 412 0
2018-02-23 14:57:44 GMT 45.522781 -3.414202 38,000 20 412 0
2018-02-23 14:57:34 GMT 45.503510 -3.424251 38,000 20 411 0
2018-02-23 14:57:23 GMT 45.484936 -3.433964 38,000 20 410 0
2018-02-23 14:57:13 GMT 45.466358 -3.443678 38,000 20 411 0
2018-02-23 14:57:05 GMT 45.452114 -3.451181 38,000 20 411 64
2018-02-23 14:57:02 GMT 45.447464 -3.453565 38,000 20 410 64
2018-02-23 14:56:55 GMT 45.432144 -3.461564 38,000 20 410 0
2018-02-23 14:56:51 GMT 45.428238 -3.463571 38,000 20 410 0
2018-02-23 14:56:41 GMT 45.408966 -3.473642 38,000 20 411 0
2018-02-23 14:56:30 GMT 45.390106 -3.483470 38,000 20 410 0
2018-02-23 14:56:25 GMT 45.379761 -3.488813 38,000 20 410 0
2018-02-23 14:56:19 GMT 45.370136 -3.493786 38,000 20 410 0
2018-02-23 14:56:16 GMT 45.364792 -3.496595 38,000 20 410 0
2018-02-23 14:56:08 GMT 45.351608 -3.503433 38,000 20 410 0
2018-02-23 14:56:02 GMT 45.340202 -3.509328 38,000 20 410 0
2018-02-23 14:55:58 GMT 45.333824 -3.512677 38,000 20 410 0
2018-02-23 14:55:48 GMT 45.314941 -3.522491 38,000 20 410 0
2018-02-23 14:55:42 GMT 45.302856 -3.528704 38,000 20 410 0
2018-02-23 14:55:36 GMT 45.293976 -3.533310 38,000 20 410 0
2018-02-23 14:55:30 GMT 45.283630 -3.538644 38,000 19 409 0
2018-02-23 14:55:26 GMT 45.276894 -3.542153 38,000 20 410 0
2018-02-23 14:55:20 GMT 45.264790 -3.548450 38,000 20 410 0
2018-02-23 14:55:15 GMT 45.256622 -3.552638 38,000 20 409 0
2018-02-23 14:55:09 GMT 45.243469 -3.559503 38,000 20 409 0
2018-02-23 14:55:03 GMT 45.235291 -3.563690 38,000 20 409 0
2018-02-23 14:54:53 GMT 45.217167 -3.573102 38,000 20 410 0
2018-02-23 14:54:46 GMT 45.205078 -3.579385 38,000 19 409 0
2018-02-23 14:54:43 GMT 45.199757 -3.582146 38,000 19 409 0
2018-02-23 14:54:33 GMT 45.180862 -3.591810 38,000 19 410 0
2018-02-23 14:54:21 GMT 45.159485 -3.602731 38,000 19 410 0
2018-02-23 14:54:17 GMT 45.151993 -3.606530 38,000 19 410 0
2018-02-23 14:54:10 GMT 45.139526 -3.612932 38,000 20 410 0
2018-02-23 14:54:01 GMT 45.123825 -3.620976 38,000 20 410 0
2018-02-23 14:53:50 GMT 45.105286 -3.630524 38,000 20 410 0
2018-02-23 14:53:40 GMT 45.087097 -3.639891 38,000 20 410 0
2018-02-23 14:53:30 GMT 45.068523 -3.649471 38,000 20 411 0
2018-02-23 14:53:19 GMT 45.049206 -3.659318 38,000 19 411 0
2018-02-23 14:53:09 GMT 45.030632 -3.668831 38,000 20 411 0
2018-02-23 14:53:03 GMT 45.019878 -3.674391 38,000 20 411 0
2018-02-23 14:52:58 GMT 45.011265 -3.678812 38,000 20 413 0
2018-02-23 14:52:54 GMT 45.005219 -3.681924 38,000 20 413 0
2018-02-23 14:52:47 GMT 44.991947 -3.688727 38,000 20 413 0
2018-02-23 14:52:40 GMT 44.979401 -3.695199 38,000 20 413 0
2018-02-23 14:52:37 GMT 44.974026 -3.697971 38,000 20 413 0
2018-02-23 14:52:34 GMT 44.968597 -3.700758 38,000 19 413 0
2018-02-23 14:52:26 GMT 44.954956 -3.707755 38,000 19 413 0
2018-02-23 14:52:23 GMT 44.949585 -3.710498 38,000 19 413 0
2018-02-23 14:52:15 GMT 44.935200 -3.717800 38,000 20 414 0
2018-02-23 14:52:09 GMT 44.923653 -3.723695 38,000 20 414 0
2018-02-23 14:52:04 GMT 44.914673 -3.728289 38,000 20 415 0
2018-02-23 14:51:55 GMT 44.898102 -3.736790 38,000 19 415 0
2018-02-23 14:51:44 GMT 44.877869 -3.747057 38,000 19 415 0
2018-02-23 14:51:33 GMT 44.859055 -3.756605 38,000 19 415 0
2018-02-23 14:51:23 GMT 44.840607 -3.765966 38,000 19 415 0
2018-02-23 14:51:13 GMT 44.822159 -3.775308 38,000 19 415 0
2018-02-23 14:51:05 GMT 44.806229 -3.783417 38,000 19 415 0
2018-02-23 14:51:00 GMT 44.799358 -3.786867 38,000 19 415 64
2018-02-23 14:50:51 GMT 44.783112 -3.795188 38,000 19 415 0
2018-02-23 14:50:40 GMT 44.763565 -3.805128 38,000 19 415 0
2018-02-23 14:50:29 GMT 44.742939 -3.815605 38,000 19 415 0
2018-02-23 14:50:19 GMT 44.723434 -3.825520 38,000 19 415 0
2018-02-23 14:50:07 GMT 44.704285 -3.835275 38,000 19 415 0
2018-02-23 14:49:58 GMT 44.687263 -3.843808 38,000 19 415 0
2018-02-23 14:49:47 GMT 44.666702 -3.854239 38,000 19 415 0
2018-02-23 14:49:36 GMT 44.646809 -3.864240 38,000 19 415 0
2018-02-23 14:49:26 GMT 44.629852 -3.872811 38,000 19 414 0
2018-02-23 14:49:16 GMT 44.610729 -3.882394 38,000 19 414 0
2018-02-23 14:49:05 GMT 44.592014 -3.891840 38,000 19 414 0
2018-02-23 14:48:54 GMT 44.571487 -3.902239 38,000 19 413 0
2018-02-23 14:48:43 GMT 44.552448 -3.911870 38,000 19 413 0
2018-02-23 14:48:33 GMT 44.533733 -3.921315 38,000 19 413 0
2018-02-23 14:48:23 GMT 44.516098 -3.930228 38,000 19 413 0
2018-02-23 14:48:12 GMT 44.496689 -3.939972 38,000 19 412 -64
2018-02-23 14:48:02 GMT 44.478058 -3.949389 37,975 19 410 576
2018-02-23 14:47:51 GMT 44.458786 -3.959067 37,900 19 409 512
2018-02-23 14:47:41 GMT 44.440292 -3.968288 37,800 19 408 576
2018-02-23 14:47:29 GMT 44.419693 -3.978555 37,700 19 407 512
2018-02-23 14:47:20 GMT 44.402664 -3.987056 37,625 19 406 512
2018-02-23 14:47:09 GMT 44.383228 -3.996746 37,525 19 405 576
2018-02-23 14:46:57 GMT 44.363892 -4.006413 37,425 19 403 576
2018-02-23 14:46:47 GMT 44.344208 -4.016222 37,300 19 403 704
2018-02-23 14:46:36 GMT 44.325256 -4.025705 37,175 19 402 768
2018-02-23 14:46:33 GMT 44.321407 -4.027628 37,150 19 402 768
2018-02-23 14:46:25 GMT 44.307396 -4.034662 37,050 19 402 704
2018-02-23 14:46:15 GMT 44.289597 -4.043623 36,925 19 402 896
2018-02-23 14:46:04 GMT 44.270004 -4.053432 36,750 19 401 832
2018-02-23 14:45:56 GMT 44.255676 -4.060654 36,600 19 401 768
2018-02-23 14:45:44 GMT 44.235428 -4.070770 36,500 19 400 704
2018-02-23 14:45:31 GMT 44.211033 -4.082895 36,300 19 400 960
2018-02-23 14:45:21 GMT 44.195671 -4.090398 36,125 19 401 1216
2018-02-23 14:45:12 GMT 44.180054 -4.098667 36,000 22 401 128
2018-02-23 14:45:02 GMT 44.162197 -4.110260 36,000 27 402 0
2018-02-23 14:44:51 GMT 44.144806 -4.123067 36,000 27 402 0
2018-02-23 14:44:41 GMT 44.127686 -4.135586 36,000 27 402 0
2018-02-23 14:44:30 GMT 44.110294 -4.148385 36,000 27 401 0
2018-02-23 14:44:19 GMT 44.090553 -4.162837 36,000 27 402 0
2018-02-23 14:44:08 GMT 44.073807 -4.175124 36,000 27 402 0
2018-02-23 14:44:00 GMT 44.058994 -4.185922 36,000 27 402 0
2018-02-23 14:43:48 GMT 44.041256 -4.198870 36,000 27 402 0
2018-02-23 14:43:39 GMT 44.024822 -4.210903 36,000 27 402 0
2018-02-23 14:43:25 GMT 44.004089 -4.226096 36,000 27 402 0
2018-02-23 14:43:17 GMT 43.989624 -4.236699 36,000 27 402 0
2018-02-23 14:43:05 GMT 43.970871 -4.250401 36,000 27 402 0
2018-02-23 14:42:55 GMT 43.953087 -4.263349 36,000 27 402 0
2018-02-23 14:42:45 GMT 43.935608 -4.276045 36,000 27 403 0
2018-02-23 14:42:40 GMT 43.928375 -4.281283 36,000 27 403 0
2018-02-23 14:42:33 GMT 43.918442 -4.288500 36,000 27 403 0
2018-02-23 14:42:23 GMT 43.901646 -4.300690 36,000 27 403 0
2018-02-23 14:42:19 GMT 43.893684 -4.306444 36,000 27 403 0
2018-02-23 14:42:15 GMT 43.887726 -4.310760 36,000 27 403 0
2018-02-23 14:42:10 GMT 43.877811 -4.317954 36,000 27 403 0
2018-02-23 14:42:05 GMT 43.870548 -4.323251 36,000 27 403 0
2018-02-23 14:41:57 GMT 43.858681 -4.331818 36,000 27 403 0
2018-02-23 14:41:53 GMT 43.851059 -4.337364 36,000 27 403 0
2018-02-23 14:41:49 GMT 43.842758 -4.343327 36,000 27 403 0
2018-02-23 14:41:42 GMT 43.833160 -4.350267 36,000 27 403 0
2018-02-23 14:41:38 GMT 43.825581 -4.355752 36,000 27 403 0
2018-02-23 14:41:34 GMT 43.817963 -4.361253 36,000 27 403 64
2018-02-23 14:41:27 GMT 43.807343 -4.368918 36,000 27 403 0
2018-02-23 14:41:22 GMT 43.800705 -4.373708 36,000 27 404 0
2018-02-23 14:41:16 GMT 43.790771 -4.380862 36,000 27 404 0
2018-02-23 14:41:13 GMT 43.783493 -4.386100 36,000 27 404 64
2018-02-23 14:41:07 GMT 43.772873 -4.393765 36,000 27 404 64
2018-02-23 14:41:01 GMT 43.765900 -4.398717 36,000 27 405 0
2018-02-23 14:40:55 GMT 43.754242 -4.407051 36,000 27 405 0
2018-02-23 14:40:51 GMT 43.747932 -4.411599 36,000 27 405 0
2018-02-23 14:40:45 GMT 43.736893 -4.419442 36,000 27 406 0
2018-02-23 14:40:35 GMT 43.719906 -4.431610 36,000 27 407 0
2018-02-23 14:40:24 GMT 43.703194 -4.443708 36,000 27 408 0
2018-02-23 14:40:17 GMT 43.692123 -4.451698 36,000 27 408 0
2018-02-23 14:40:13 GMT 43.683083 -4.458226 36,000 27 410 -64
2018-02-23 14:40:10 GMT 43.678711 -4.461407 36,000 27 410 0
2018-02-23 14:40:02 GMT 43.666626 -4.470222 36,000 27 410 128
2018-02-23 14:39:58 GMT 43.659576 -4.475359 36,000 27 411 0
2018-02-23 14:39:52 GMT 43.650513 -4.481911 36,000 27 411 -64
2018-02-23 14:39:47 GMT 43.642410 -4.487787 36,000 27 411 -64
2018-02-23 14:39:43 GMT 43.633366 -4.494389 36,000 27 412 64
2018-02-23 14:39:35 GMT 43.621216 -4.503217 36,000 27 413 0
2018-02-23 14:39:32 GMT 43.616135 -4.506886 36,000 27 412 -64
2018-02-23 14:39:28 GMT 43.609066 -4.511980 36,000 27 413 64
2018-02-23 14:39:21 GMT 43.598221 -4.519828 36,000 27 412 64
2018-02-23 14:39:18 GMT 43.590771 -4.525125 36,000 27 412 64
2018-02-23 14:39:12 GMT 43.580624 -4.532449 36,000 27 413 -64
2018-02-23 14:39:01 GMT 43.562668 -4.545402 36,000 27 414 -64
2018-02-23 14:38:50 GMT 43.544685 -4.558345 36,000 27 415 0
2018-02-23 14:38:41 GMT 43.527969 -4.570312 36,000 27 416 0
2018-02-23 14:38:29 GMT 43.509521 -4.583534 36,000 27 417 0
2018-02-23 14:38:20 GMT 43.492031 -4.596078 36,000 27 418 0
2018-02-23 14:38:08 GMT 43.473175 -4.609595 36,000 27 418 0
2018-02-23 14:37:59 GMT 43.454979 -4.622628 36,000 27 419 0
2018-02-23 14:37:54 GMT 43.449142 -4.626777 36,000 27 419 0
2018-02-23 14:37:48 GMT 43.439198 -4.633942 36,000 27 419 0
2018-02-23 14:37:38 GMT 43.419926 -4.647675 36,000 27 419 64
2018-02-23 14:37:27 GMT 43.402359 -4.660119 36,000 27 419 0
2018-02-23 14:37:17 GMT 43.384460 -4.672830 36,000 27 419 0
2018-02-23 14:37:07 GMT 43.365829 -4.686052 36,000 27 419 -64
2018-02-23 14:36:56 GMT 43.349258 -4.697805 36,000 27 419 64
2018-02-23 14:36:45 GMT 43.330627 -4.711027 36,000 27 420 0
2018-02-23 14:36:36 GMT 43.311951 -4.724249 36,000 27 419 0
2018-02-23 14:36:25 GMT 43.286087 -4.742628 36,000 27 419 0
2018-02-23 14:36:10 GMT 43.267418 -4.755772 36,000 27 419 0
2018-02-23 14:35:59 GMT 43.249496 -4.768524 36,000 27 419 0
2018-02-23 14:35:48 GMT 43.231201 -4.781480 36,000 27 420 0
2018-02-23 14:35:37 GMT 43.212254 -4.794944 36,000 27 419 0
2018-02-23 14:35:27 GMT 43.195312 -4.806902 36,000 27 419 0
2018-02-23 14:35:17 GMT 43.175995 -4.820571 36,000 27 419 0
2018-02-23 14:35:06 GMT 43.155350 -4.835198 36,000 27 419 0
2018-02-23 14:34:53 GMT 43.137074 -4.848110 36,000 27 419 -64
2018-02-23 14:34:43 GMT 43.118088 -4.861450 36,000 27 419 64
2018-02-23 14:34:36 GMT 43.108429 -4.868221 36,000 27 419 0
2018-02-23 14:34:33 GMT 43.100830 -4.873586 36,000 27 419 -64
2018-02-23 14:34:24 GMT 43.088100 -4.882573 36,000 27 419 0
2018-02-23 14:34:21 GMT 43.081863 -4.886889 36,000 27 419 0
2018-02-23 14:34:15 GMT 43.071167 -4.894409 36,000 27 419 0
2018-02-23 14:34:12 GMT 43.064636 -4.899052 36,000 27 419 0
2018-02-23 14:34:04 GMT 43.053268 -4.907056 36,000 27 419 0
2018-02-23 14:34:01 GMT 43.047043 -4.911400 36,000 27 419 0
2018-02-23 14:33:51 GMT 43.028095 -4.924752 36,000 27 419 0
2018-02-23 14:33:39 GMT 43.009827 -4.937652 36,000 27 419 -64
2018-02-23 14:33:30 GMT 42.991241 -4.950810 36,000 27 419 0
2018-02-23 14:33:18 GMT 42.972610 -4.963904 36,000 27 419 0
2018-02-23 14:33:08 GMT 42.956039 -4.975529 36,000 27 420 0
2018-02-23 14:32:57 GMT 42.936676 -4.989070 36,000 27 420 0
2018-02-23 14:32:51 GMT 42.924225 -4.997757 36,000 27 420 0
2018-02-23 14:32:48 GMT 42.920059 -5.000632 36,000 27 420 0
2018-02-23 14:32:42 GMT 42.910736 -5.007215 36,000 27 420 0
2018-02-23 14:32:36 GMT 42.900696 -5.014237 36,000 27 419 0
2018-02-23 14:32:27 GMT 42.882797 -5.026756 36,000 27 419 0
2018-02-23 14:31:28 GMT 42.784836 -5.095222 36,000 27 413 0
2018-02-23 14:30:59 GMT 42.732861 -5.131382 36,000 27 412 0
2018-02-23 14:30:48 GMT 42.716217 -5.142912 36,000 27 412 0
2018-02-23 14:30:37 GMT 42.698223 -5.155462 36,000 27 412 0
2018-02-23 14:29:55 GMT 42.623749 -5.207207 36,000 27 414 0
2018-02-23 14:29:38 GMT 42.596088 -5.226298 36,000 27 415 0
2018-02-23 14:29:29 GMT 42.580353 -5.237157 36,000 27 415 0
2018-02-23 14:29:19 GMT 42.562572 -5.249421 36,000 26 416 0
2018-02-23 14:29:07 GMT 42.544743 -5.261749 36,000 26 416 0
2018-02-23 14:28:57 GMT 42.524864 -5.275418 36,000 26 416 0
2018-02-23 14:28:03 GMT 42.433640 -5.338169 36,000 26 418 64
2018-02-23 14:24:35 GMT 42.070004 -5.587123 36,000 26 422 -64
2018-02-23 14:24:29 GMT 42.059921 -5.593914 36,000 26 422 -64
2018-02-23 14:24:21 GMT 42.046646 -5.602840 36,000 26 421 0
2018-02-23 14:24:16 GMT 42.039688 -5.607522 36,000 26 421 0
2018-02-23 14:24:08 GMT 42.026459 -5.616448 36,000 26 421 64
2018-02-23 14:24:00 GMT 42.011078 -5.626685 36,000 26 421 64
2018-02-23 14:23:50 GMT 41.992584 -5.639116 36,000 26 421 0
2018-02-23 14:23:45 GMT 41.985649 -5.643907 36,000 27 422 0
2018-02-23 14:23:38 GMT 41.973450 -5.652216 36,000 26 423 0
2018-02-23 14:23:27 GMT 41.952530 -5.666448 36,000 26 423 0
2018-02-23 14:23:17 GMT 41.935822 -5.677809 36,000 26 423 0
2018-02-23 14:23:05 GMT 41.914124 -5.692479 36,000 26 424 0
2018-02-23 14:23:01 GMT 41.909912 -5.695350 36,000 26 424 0
2018-02-23 14:22:54 GMT 41.896221 -5.704587 36,000 26 424 0
2018-02-23 14:22:49 GMT 41.889240 -5.709314 36,000 26 425 64
2018-02-23 14:22:44 GMT 41.879013 -5.716199 36,000 26 425 0
2018-02-23 14:22:39 GMT 41.870247 -5.722152 36,000 26 426 0
2018-02-23 14:22:31 GMT 41.854698 -5.732628 36,000 26 426 0
2018-02-23 14:22:28 GMT 41.852966 -5.733802 36,000 26 427 0
2018-02-23 14:22:23 GMT 41.841988 -5.741187 36,000 26 427 0
2018-02-23 14:22:17 GMT 41.833145 -5.747098 36,000 26 428 0
2018-02-23 14:22:08 GMT 41.815475 -5.759021 36,000 26 428 0
2018-02-23 14:22:02 GMT 41.803391 -5.767073 36,000 26 428 -64
2018-02-23 14:21:54 GMT 41.792412 -5.774465 36,000 26 428 0
2018-02-23 14:21:47 GMT 41.777515 -5.784430 36,000 26 428 64
2018-02-23 14:21:40 GMT 41.765457 -5.792542 36,000 26 429 0
2018-02-23 14:21:35 GMT 41.759079 -5.796821 36,000 26 429 0
2018-02-23 14:21:28 GMT 41.741344 -5.808766 36,000 26 429 0
2018-02-23 14:21:22 GMT 41.736008 -5.812329 36,000 26 429 0
2018-02-23 14:21:18 GMT 41.724655 -5.820007 36,000 26 429 -64
2018-02-23 14:21:15 GMT 41.722164 -5.821668 36,000 26 429 -64
2018-02-23 14:21:08 GMT 41.707222 -5.831696 36,000 26 429 0
2018-02-23 14:21:03 GMT 41.701904 -5.835238 36,000 26 429 0
2018-02-23 14:20:57 GMT 41.688042 -5.844535 36,000 26 430 0
2018-02-23 14:20:54 GMT 41.683411 -5.847660 36,000 26 430 0
2018-02-23 14:20:48 GMT 41.674896 -5.853403 36,000 26 430 0
2018-02-23 14:20:43 GMT 41.666023 -5.859354 36,000 26 431 0
2018-02-23 14:20:39 GMT 41.659973 -5.863391 36,000 26 431 0
2018-02-23 14:20:33 GMT 41.647156 -5.872005 36,000 26 431 0
2018-02-23 14:20:26 GMT 41.630768 -5.882991 36,000 26 431 0
2018-02-23 14:20:22 GMT 41.628269 -5.884648 36,000 26 432 0
2018-02-23 14:20:18 GMT 41.622208 -5.888734 36,000 26 432 0
2018-02-23 14:20:12 GMT 41.609344 -5.897349 36,000 26 432 0
2018-02-23 14:20:08 GMT 41.604015 -5.900936 36,000 26 432 0
2018-02-23 14:19:59 GMT 41.587234 -5.912143 36,000 26 432 -64
2018-02-23 14:19:52 GMT 41.575478 -5.920034 36,000 26 432 0
2018-02-23 14:19:48 GMT 41.568310 -5.924825 36,000 26 432 64
2018-02-23 14:19:43 GMT 41.555786 -5.933179 36,000 26 432 0
2018-02-23 14:19:38 GMT 41.549732 -5.937216 36,000 26 432 0
2018-02-23 14:19:31 GMT 41.537201 -5.945601 36,000 26 432 0
2018-02-23 14:19:28 GMT 41.531811 -5.949161 36,000 26 433 0
2018-02-23 14:19:20 GMT 41.517105 -5.958835 36,000 26 433 64
2018-02-23 14:19:17 GMT 41.512802 -5.961706 36,000 26 433 64
2018-02-23 14:19:11 GMT 41.498108 -5.971453 36,000 26 433 0
2018-02-23 14:19:07 GMT 41.494522 -5.973816 36,000 26 433 0
2018-02-23 14:18:57 GMT 41.476959 -5.985426 36,000 26 433 0
2018-02-23 14:18:47 GMT 41.458282 -5.997849 36,000 26 433 0
2018-02-23 14:18:36 GMT 41.439964 -6.009969 36,000 26 434 0
2018-02-23 14:18:26 GMT 41.421661 -6.022131 36,000 26 434 0
2018-02-23 14:18:16 GMT 41.402584 -6.034752 36,000 26 435 0
2018-02-23 14:18:04 GMT 41.381680 -6.048598 36,000 26 436 0
2018-02-23 14:17:58 GMT 41.370529 -6.056030 36,000 26 436 0
2018-02-23 14:17:54 GMT 41.363667 -6.060583 36,000 26 435 -64
2018-02-23 14:17:45 GMT 41.344254 -6.073504 36,000 26 435 64
2018-02-23 14:17:33 GMT 41.325493 -6.085864 36,000 26 435 0
2018-02-23 14:17:23 GMT 41.305336 -6.099160 36,000 26 435 0
2018-02-23 14:17:20 GMT 41.303146 -6.100596 36,000 26 435 0
2018-02-23 14:17:14 GMT 41.290157 -6.109148 36,000 26 435 64
2018-02-23 14:17:11 GMT 41.285477 -6.112244 36,000 26 435 0
2018-02-23 14:17:04 GMT 41.273209 -6.120300 36,000 26 435 0
2018-02-23 14:17:01 GMT 41.267117 -6.124379 36,000 26 435 0
2018-02-23 14:16:53 GMT 41.253429 -6.133430 36,000 26 434 0
2018-02-23 14:16:50 GMT 41.247658 -6.137238 36,000 26 434 0
2018-02-23 14:16:41 GMT 41.228199 -6.150097 36,000 26 434 0
2018-02-23 14:16:37 GMT 41.224960 -6.152222 36,000 26 434 0
2018-02-23 14:16:33 GMT 41.215576 -6.158386 36,000 26 434 0
2018-02-23 14:16:30 GMT 41.209808 -6.162170 36,000 26 434 0
2018-02-23 14:16:21 GMT 41.196495 -6.170946 36,000 26 434 0
2018-02-23 14:16:18 GMT 41.188248 -6.176453 36,000 26 434 64
2018-02-23 14:16:12 GMT 41.179970 -6.181932 36,000 26 434 0
2018-02-23 14:16:09 GMT 41.173874 -6.185913 36,000 26 433 0
2018-02-23 14:16:05 GMT 41.165955 -6.191162 36,000 26 434 0
2018-02-23 14:16:01 GMT 41.159500 -6.195435 36,000 26 433 0
2018-02-23 14:15:55 GMT 41.144775 -6.205153 36,000 26 433 0
2018-02-23 14:15:51 GMT 41.142242 -6.206848 36,000 26 433 0
2018-02-23 14:15:47 GMT 41.130390 -6.214641 36,000 26 432 0
2018-02-23 14:15:41 GMT 41.123966 -6.218886 36,000 26 432 0
2018-02-23 14:15:36 GMT 41.112122 -6.226685 36,000 26 432 0
2018-02-23 14:15:29 GMT 41.102829 -6.232849 36,000 26 432 0
2018-02-23 14:15:23 GMT 41.090309 -6.241108 36,000 26 432 0
2018-02-23 14:15:20 GMT 41.087082 -6.243225 36,000 26 432 0
2018-02-23 14:15:17 GMT 41.080254 -6.247725 36,000 26 432 0
2018-02-23 14:15:13 GMT 41.069916 -6.254578 36,000 26 431 0
2018-02-23 14:15:09 GMT 41.065266 -6.257650 36,000 26 431 0
2018-02-23 14:15:04 GMT 41.053116 -6.265640 36,000 26 431 0
2018-02-23 14:14:58 GMT 41.047028 -6.269653 36,000 26 431 0
2018-02-23 14:14:53 GMT 41.034542 -6.277937 36,000 26 431 0
2018-02-23 14:14:48 GMT 41.026672 -6.283056 36,000 26 431 0
2018-02-23 14:14:45 GMT 41.023834 -6.284929 36,000 26 430 -64
2018-02-23 14:14:40 GMT 41.014893 -6.290771 36,000 26 431 0
2018-02-23 14:14:37 GMT 41.008797 -6.294729 36,000 26 430 0
2018-02-23 14:14:30 GMT 40.996647 -6.302594 36,000 26 430 0
2018-02-23 14:14:27 GMT 40.989166 -6.307434 36,000 26 430 0
2018-02-23 14:14:19 GMT 40.978073 -6.314642 36,000 26 430 64
2018-02-23 14:14:16 GMT 40.971313 -6.319031 36,000 26 429 0
2018-02-23 14:14:12 GMT 40.965591 -6.322754 36,000 26 429 0
2018-02-23 14:14:09 GMT 40.958149 -6.327626 36,000 26 429 0
2018-02-23 14:14:05 GMT 40.950279 -6.332744 36,000 26 428 0
2018-02-23 14:13:57 GMT 40.937805 -6.340820 36,000 26 428 0
2018-02-23 14:13:53 GMT 40.931396 -6.344910 36,000 26 428 0
2018-02-23 14:13:47 GMT 40.919998 -6.352295 36,000 26 428 64
2018-02-23 14:13:43 GMT 40.913925 -6.356215 36,000 26 428 0
2018-02-23 14:13:36 GMT 40.898281 -6.366327 36,000 26 428 0
2018-02-23 14:13:32 GMT 40.893631 -6.369324 36,000 26 428 0
2018-02-23 14:13:26 GMT 40.878845 -6.379395 36,000 29 429 0
2018-02-23 14:13:23 GMT 40.877102 -6.380685 36,000 30 430 0
2018-02-23 14:13:16 GMT 40.862411 -6.392273 36,000 31 430 0
2018-02-23 14:13:13 GMT 40.859711 -6.394470 36,000 31 430 0
2018-02-23 14:13:06 GMT 40.848816 -6.403259 36,000 31 430 0
2018-02-23 14:13:03 GMT 40.842041 -6.408691 36,000 31 430 0
2018-02-23 14:12:55 GMT 40.830830 -6.417763 36,000 31 430 0
2018-02-23 14:12:52 GMT 40.824730 -6.422695 36,000 31 430 0
2018-02-23 14:12:45 GMT 40.812836 -6.432251 36,000 31 429 0
2018-02-23 14:12:41 GMT 40.806343 -6.437426 36,000 31 429 0
2018-02-23 14:12:36 GMT 40.796494 -6.445312 36,000 31 430 0
2018-02-23 14:12:32 GMT 40.789719 -6.450745 36,000 31 430 0
2018-02-23 14:12:24 GMT 40.778458 -6.459711 36,000 31 430 0
2018-02-23 14:12:20 GMT 40.771008 -6.465704 36,000 31 430 0
2018-02-23 14:12:15 GMT 40.759781 -6.474670 36,000 31 430 0
2018-02-23 14:12:09 GMT 40.749920 -6.482558 36,000 31 429 0
2018-02-23 14:12:03 GMT 40.741776 -6.489050 36,000 31 429 0
2018-02-23 14:11:59 GMT 40.734650 -6.494812 36,000 31 429 0
2018-02-23 14:11:54 GMT 40.725815 -6.501831 36,000 31 429 0
2018-02-23 14:11:49 GMT 40.717987 -6.508089 36,000 31 429 0
2018-02-23 14:11:43 GMT 40.707138 -6.516828 36,000 31 429 0
2018-02-23 14:11:39 GMT 40.700340 -6.522258 36,000 31 430 0
2018-02-23 14:11:33 GMT 40.690475 -6.530090 36,000 31 430 0
2018-02-23 14:11:26 GMT 40.677204 -6.540673 36,000 31 430 0
2018-02-23 14:11:22 GMT 40.671432 -6.545288 36,000 31 430 0
2018-02-23 14:11:19 GMT 40.665661 -6.549911 36,000 31 430 0
2018-02-23 14:11:16 GMT 40.662262 -6.552596 36,000 31 430 0
2018-02-23 14:11:13 GMT 40.655418 -6.558026 36,000 31 430 0
2018-02-23 14:11:08 GMT 40.647923 -6.564019 36,000 31 430 0
2018-02-23 14:11:04 GMT 40.641129 -6.569450 36,000 31 430 0
2018-02-23 14:11:00 GMT 40.634331 -6.574880 36,000 31 430 64
2018-02-23 14:10:57 GMT 40.629227 -6.578918 36,000 31 430 64
2018-02-23 14:10:53 GMT 40.622742 -6.584119 36,000 31 430 64
2018-02-23 14:10:48 GMT 40.610138 -6.594116 36,000 31 431 0
2018-02-23 14:10:44 GMT 40.603317 -6.599548 36,000 31 431 0
2018-02-23 14:10:39 GMT 40.594437 -6.606628 36,000 31 431 0
2018-02-23 14:10:36 GMT 40.591736 -6.608826 36,000 31 431 0
2018-02-23 14:10:33 GMT 40.588661 -6.611273 36,000 31 431 0
2018-02-23 14:10:26 GMT 40.576374 -6.621011 36,000 31 431 0
2018-02-23 14:10:21 GMT 40.566132 -6.629188 36,000 31 432 0
2018-02-23 14:10:15 GMT 40.557240 -6.636242 36,000 31 432 0
2018-02-23 14:10:11 GMT 40.547333 -6.644104 36,000 31 432 0
2018-02-23 14:10:08 GMT 40.543213 -6.647400 36,000 31 432 0
2018-02-23 14:10:04 GMT 40.539093 -6.650635 36,000 31 432 0
2018-02-23 14:10:00 GMT 40.531586 -6.656616 36,000 31 432 0
2018-02-23 14:09:55 GMT 40.523346 -6.663147 36,000 31 433 0
2018-02-23 14:09:50 GMT 40.513046 -6.671265 36,000 31 433 64
2018-02-23 14:09:45 GMT 40.505493 -6.677246 36,000 31 433 0
2018-02-23 14:09:41 GMT 40.500000 -6.681580 36,000 31 433 0
2018-02-23 14:09:38 GMT 40.494862 -6.685680 36,000 31 433 0
2018-02-23 14:09:34 GMT 40.486954 -6.691956 36,000 31 434 0
2018-02-23 14:09:29 GMT 40.477684 -6.699288 36,000 31 434 0
2018-02-23 14:09:26 GMT 40.471848 -6.703979 36,000 31 435 0
2018-02-23 14:09:23 GMT 40.468414 -6.706726 36,000 31 435 -64
2018-02-23 14:09:18 GMT 40.456741 -6.716003 36,000 31 435 0
2018-02-23 14:09:13 GMT 40.451935 -6.719788 36,000 31 435 0
2018-02-23 14:09:10 GMT 40.447472 -6.723383 36,000 31 435 0
2018-02-23 14:09:03 GMT 40.434036 -6.734009 36,000 31 435 0
2018-02-23 14:09:00 GMT 40.429916 -6.737305 36,000 31 435 0
2018-02-23 14:08:55 GMT 40.418884 -6.746094 36,000 31 436 -64
2018-02-23 14:08:50 GMT 40.411671 -6.751848 36,000 31 436 -64
2018-02-23 14:08:45 GMT 40.402313 -6.759277 36,000 31 437 -64
2018-02-23 14:08:42 GMT 40.396450 -6.763958 36,000 31 437 0
2018-02-23 14:08:36 GMT 40.388165 -6.770512 36,000 31 438 64
2018-02-23 14:08:33 GMT 40.381577 -6.775757 36,000 31 438 0
2018-02-23 14:08:30 GMT 40.378098 -6.778503 36,000 31 438 64
2018-02-23 14:08:27 GMT 40.370453 -6.784546 36,000 31 439 64
2018-02-23 14:08:21 GMT 40.360371 -6.792485 36,000 31 439 0
2018-02-23 14:08:18 GMT 40.357578 -6.794669 36,000 31 439 0
2018-02-23 14:08:11 GMT 40.344727 -6.804871 36,000 31 439 -64
2018-02-23 14:08:08 GMT 40.340214 -6.808402 36,000 31 439 -64
2018-02-23 14:08:04 GMT 40.331497 -6.815308 36,000 31 440 0
2018-02-23 14:08:01 GMT 40.326294 -6.819389 36,000 31 440 64
2018-02-23 14:07:58 GMT 40.322433 -6.822449 36,000 31 440 64
2018-02-23 14:07:55 GMT 40.316521 -6.827129 36,000 31 440 0
2018-02-23 14:07:51 GMT 40.308838 -6.833122 36,000 31 440 0
2018-02-23 14:07:48 GMT 40.304306 -6.836731 36,000 31 440 0
2018-02-23 14:07:45 GMT 40.298035 -6.841614 36,000 31 440 0
2018-02-23 14:07:38 GMT 40.287888 -6.849601 36,000 31 441 0
2018-02-23 14:07:34 GMT 40.277416 -6.857778 36,000 30 440 0
2018-02-23 14:07:28 GMT 40.269379 -6.864075 36,000 31 441 0
2018-02-23 14:07:23 GMT 40.261047 -6.870728 36,000 31 441 0
2018-02-23 14:07:20 GMT 40.255463 -6.875122 36,000 31 441 0
2018-02-23 14:07:17 GMT 40.250565 -6.878967 36,000 31 441 0
2018-02-23 14:07:13 GMT 40.243244 -6.884807 36,000 31 441 0
2018-02-23 14:07:10 GMT 40.237659 -6.889177 36,000 31 441 0
2018-02-23 14:07:07 GMT 40.231750 -6.893860 36,000 31 441 0
2018-02-23 14:07:04 GMT 40.226486 -6.898041 36,000 31 441 0
2018-02-23 14:06:59 GMT 40.219162 -6.903809 36,000 31 441 0
2018-02-23 14:06:56 GMT 40.213577 -6.908264 36,000 31 441 0
2018-02-23 14:06:52 GMT 40.205887 -6.914307 36,000 31 441 -64
2018-02-23 14:06:49 GMT 40.200649 -6.918453 36,000 31 441 -64
2018-02-23 14:06:45 GMT 40.194717 -6.923096 36,000 30 440 0
2018-02-23 14:06:42 GMT 40.188080 -6.928316 36,000 31 441 0
2018-02-23 14:06:38 GMT 40.182129 -6.932983 36,000 30 440 0
2018-02-23 14:06:35 GMT 40.176910 -6.937117 36,000 30 441 0
2018-02-23 14:06:32 GMT 40.170227 -6.942322 36,000 30 441 0
2018-02-23 14:06:29 GMT 40.164989 -6.946418 36,000 30 440 0
2018-02-23 14:06:25 GMT 40.159058 -6.951050 36,000 30 440 0
2018-02-23 14:06:21 GMT 40.152374 -6.956281 36,000 30 441 0
2018-02-23 14:06:18 GMT 40.146423 -6.960938 36,000 31 442 0
2018-02-23 14:06:15 GMT 40.141205 -6.965020 36,000 31 442 0
2018-02-23 14:06:12 GMT 40.135941 -6.969177 36,000 31 442 0
2018-02-23 14:06:09 GMT 40.129986 -6.973821 36,000 31 442 0
2018-02-23 14:06:04 GMT 40.122955 -6.979315 36,000 31 442 0
2018-02-23 14:06:01 GMT 40.115616 -6.985046 36,000 31 442 0
2018-02-23 14:05:57 GMT 40.109642 -6.989739 36,000 31 442 0
2018-02-23 14:05:54 GMT 40.103714 -6.994385 36,000 31 442 0
2018-02-23 14:05:50 GMT 40.096710 -6.999878 36,000 31 442 0
2018-02-23 14:05:47 GMT 40.093185 -7.002625 36,000 31 442 0
2018-02-23 14:05:44 GMT 40.088646 -7.006219 36,000 31 442 0
2018-02-23 14:05:40 GMT 40.079178 -7.013611 36,000 31 442 0
2018-02-23 14:05:36 GMT 40.074280 -7.017456 36,000 31 442 0
2018-02-23 14:05:33 GMT 40.066906 -7.023198 36,000 31 442 0
2018-02-23 14:05:30 GMT 40.063065 -7.026245 36,000 31 442 0
2018-02-23 14:05:27 GMT 40.057434 -7.030579 36,000 31 442 0
2018-02-23 14:05:24 GMT 40.052536 -7.034424 36,000 31 442 0
2018-02-23 14:05:20 GMT 40.045532 -7.039917 36,000 31 442 -64
2018-02-23 14:05:17 GMT 40.039532 -7.044608 36,000 31 442 0
2018-02-23 14:05:14 GMT 40.035004 -7.048157 36,000 31 442 -64
2018-02-23 14:05:10 GMT 40.026917 -7.054534 36,000 31 442 -64
2018-02-23 14:05:07 GMT 40.021332 -7.058903 36,000 31 442 0
2018-02-23 14:05:03 GMT 40.015697 -7.063335 36,000 31 442 0
2018-02-23 14:04:59 GMT 40.005524 -7.071289 36,000 30 443 64
2018-02-23 14:04:56 GMT 40.002686 -7.073425 36,000 30 442 0
2018-02-23 14:04:52 GMT 39.996754 -7.078129 36,000 30 442 0
2018-02-23 14:04:49 GMT 39.991119 -7.082499 36,000 30 442 0
2018-02-23 14:04:46 GMT 39.983345 -7.088491 36,000 30 443 0
2018-02-23 14:04:43 GMT 39.980209 -7.090942 36,000 30 443 0
2018-02-23 14:04:38 GMT 39.970367 -7.098633 36,000 30 443 0
2018-02-23 14:04:33 GMT 39.962257 -7.104908 36,000 30 443 0
2018-02-23 14:04:28 GMT 39.955227 -7.110402 36,000 30 443 0
2018-02-23 14:04:25 GMT 39.947845 -7.116150 36,000 30 443 0
2018-02-23 14:04:22 GMT 39.944366 -7.118896 36,000 30 443 0
2018-02-23 14:04:18 GMT 39.936630 -7.124939 36,000 30 443 0
2018-02-23 14:04:12 GMT 39.926411 -7.132874 36,000 30 443 0
2018-02-23 14:04:08 GMT 39.918682 -7.138916 36,000 30 443 0
2018-02-23 14:04:01 GMT 39.907059 -7.147920 36,000 30 444 0
2018-02-23 14:03:58 GMT 39.900391 -7.153137 36,000 30 444 0
2018-02-23 14:03:54 GMT 39.892612 -7.159119 36,000 30 444 64
2018-02-23 14:03:51 GMT 39.888748 -7.162131 36,000 30 444 0
2018-02-23 14:03:47 GMT 39.882046 -7.167358 36,000 30 444 -64
2018-02-23 14:03:41 GMT 39.871170 -7.175864 36,000 30 444 0
2018-02-23 14:03:37 GMT 39.862701 -7.182431 36,000 30 444 0
2018-02-23 14:03:33 GMT 39.856339 -7.187328 36,000 30 444 0
2018-02-23 14:03:30 GMT 39.852486 -7.190369 36,000 30 444 0
2018-02-23 14:03:26 GMT 39.844391 -7.196642 36,000 30 444 0
2018-02-23 14:03:20 GMT 39.834843 -7.203979 36,000 30 444 0
2018-02-23 14:03:15 GMT 39.826035 -7.210853 36,000 30 444 0
2018-02-23 14:03:10 GMT 39.816502 -7.218262 36,000 30 444 0
2018-02-23 14:03:05 GMT 39.808075 -7.224792 36,000 30 444 0
2018-02-23 14:03:02 GMT 39.801361 -7.230019 36,000 30 444 0
2018-02-23 14:02:58 GMT 39.796417 -7.233840 36,000 30 444 0
2018-02-23 14:02:55 GMT 39.790054 -7.238736 36,000 30 444 0
2018-02-23 14:02:49 GMT 39.780167 -7.246379 36,000 30 444 0
2018-02-23 14:02:45 GMT 39.771393 -7.253235 36,000 30 444 0
2018-02-23 14:02:41 GMT 39.764317 -7.258728 36,000 30 444 0
2018-02-23 14:02:38 GMT 39.760437 -7.261724 36,000 30 444 0
2018-02-23 14:02:34 GMT 39.752655 -7.267755 36,000 30 444 0
2018-02-23 14:02:28 GMT 39.743832 -7.274536 36,000 30 444 0
2018-02-23 14:02:23 GMT 39.734661 -7.281616 36,000 30 444 0
2018-02-23 14:02:18 GMT 39.725491 -7.288696 36,000 30 444 0
2018-02-23 14:02:14 GMT 39.715988 -7.296056 36,000 30 443 0
2018-02-23 14:02:08 GMT 39.707520 -7.302565 36,000 30 443 64
2018-02-23 14:02:04 GMT 39.699051 -7.309132 36,000 30 444 0
2018-02-23 14:02:01 GMT 39.691647 -7.314819 36,000 30 443 0
2018-02-23 14:01:57 GMT 39.688477 -7.317312 36,000 30 443 -64
2018-02-23 14:01:52 GMT 39.679276 -7.324358 36,000 30 444 0
2018-02-23 14:01:48 GMT 39.671864 -7.330078 36,000 30 444 0
2018-02-23 14:01:42 GMT 39.661297 -7.338196 36,000 30 443 0
2018-02-23 14:01:37 GMT 39.653522 -7.344177 36,000 30 443 0
2018-02-23 14:01:32 GMT 39.643654 -7.351807 36,000 30 444 0
2018-02-23 14:01:26 GMT 39.634483 -7.358887 36,000 30 443 0
2018-02-23 14:01:22 GMT 39.624252 -7.366751 36,000 30 444 0
2018-02-23 14:01:16 GMT 39.616470 -7.372722 36,000 30 444 0
2018-02-23 14:01:11 GMT 39.606583 -7.380364 36,000 30 444 0
2018-02-23 14:01:07 GMT 39.598495 -7.386597 36,000 30 444 0
2018-02-23 14:01:04 GMT 39.594215 -7.389832 36,000 30 444 0
2018-02-23 14:01:00 GMT 39.587540 -7.394993 36,000 30 444 0
2018-02-23 14:00:56 GMT 39.578712 -7.401794 36,000 30 444 0
2018-02-23 14:00:50 GMT 39.570240 -7.408264 36,000 30 444 0
2018-02-23 14:00:47 GMT 39.564560 -7.412598 36,000 30 443 0
2018-02-23 14:00:44 GMT 39.559982 -7.416130 36,000 30 443 0
2018-02-23 14:00:40 GMT 39.551155 -7.422913 36,000 30 443 0
2018-02-23 14:00:35 GMT 39.541985 -7.429993 36,000 30 443 0
2018-02-23 14:00:30 GMT 39.533157 -7.436729 36,000 30 443 0
2018-02-23 14:00:25 GMT 39.525421 -7.442700 36,000 30 443 0
2018-02-23 14:00:22 GMT 39.519745 -7.447059 36,000 30 443 0
2018-02-23 14:00:19 GMT 39.514847 -7.450820 36,000 30 443 0
2018-02-23 14:00:13 GMT 39.501434 -7.461090 36,000 30 443 0
2018-02-23 14:00:08 GMT 39.494732 -7.466248 36,000 30 443 0
2018-02-23 14:00:05 GMT 39.489101 -7.470581 36,000 30 443 0
2018-02-23 14:00:02 GMT 39.485229 -7.473569 36,000 30 443 0
2018-02-23 13:59:58 GMT 39.477135 -7.479797 36,000 30 443 0
2018-02-23 13:59:55 GMT 39.471455 -7.484131 36,000 30 443 0
2018-02-23 13:59:52 GMT 39.466187 -7.488198 36,000 30 443 0
2018-02-23 13:59:48 GMT 39.460190 -7.492737 36,000 30 442 0
2018-02-23 13:59:45 GMT 39.455257 -7.496521 36,000 30 442 0
2018-02-23 13:59:41 GMT 39.446087 -7.503540 36,000 30 442 0
2018-02-23 13:59:38 GMT 39.440094 -7.508140 36,000 30 442 0
2018-02-23 13:59:34 GMT 39.433422 -7.513245 36,000 30 442 0
2018-02-23 13:59:31 GMT 39.429886 -7.515930 36,000 30 442 0
2018-02-23 13:59:27 GMT 39.423553 -7.520813 36,000 30 442 0
2018-02-23 13:59:22 GMT 39.411896 -7.529695 36,000 30 442 0
2018-02-23 13:59:17 GMT 39.403816 -7.535889 36,000 30 442 0
2018-02-23 13:59:14 GMT 39.401367 -7.537756 36,000 30 442 0
2018-02-23 13:59:11 GMT 39.395691 -7.542114 36,000 30 442 0
2018-02-23 13:59:07 GMT 39.387615 -7.548279 36,000 30 442 0
2018-02-23 13:59:03 GMT 39.379143 -7.554749 36,000 30 442 0
2018-02-23 13:59:00 GMT 39.376350 -7.556885 36,000 30 442 0
2018-02-23 13:58:56 GMT 39.366852 -7.564147 36,000 30 442 0
2018-02-23 13:58:53 GMT 39.364388 -7.566040 36,000 30 442 0
2018-02-23 13:58:50 GMT 39.357311 -7.571472 36,000 30 442 0
2018-02-23 13:58:46 GMT 39.350647 -7.576566 36,000 30 442 0
2018-02-23 13:58:42 GMT 39.343597 -7.581940 36,000 30 442 0
2018-02-23 13:58:39 GMT 39.336174 -7.587585 36,000 30 442 0
2018-02-23 13:58:33 GMT 39.327702 -7.593994 36,000 30 442 0
2018-02-23 13:58:29 GMT 39.320984 -7.599136 36,000 30 442 0
2018-02-23 13:58:24 GMT 39.312202 -7.605835 36,000 30 442 0
2018-02-23 13:58:21 GMT 39.306885 -7.609883 36,000 30 442 0
2018-02-23 13:58:18 GMT 39.302284 -7.613342 36,000 30 442 0
2018-02-23 13:58:14 GMT 39.293472 -7.620093 36,000 30 442 0
2018-02-23 13:58:11 GMT 39.289577 -7.623047 36,000 30 442 0
2018-02-23 13:58:08 GMT 39.285004 -7.626542 36,000 30 442 0
2018-02-23 13:58:05 GMT 39.277954 -7.631916 36,000 30 443 0
2018-02-23 13:58:01 GMT 39.270538 -7.637573 36,000 30 443 0
2018-02-23 13:57:58 GMT 39.266647 -7.640514 36,000 30 443 0
2018-02-23 13:57:52 GMT 39.254654 -7.649709 36,000 30 443 -64
2018-02-23 13:57:48 GMT 39.248978 -7.654008 36,000 30 443 0
2018-02-23 13:57:43 GMT 39.240509 -7.660456 36,000 30 443 0
2018-02-23 13:57:40 GMT 39.234505 -7.664978 36,000 30 443 64
2018-02-23 13:57:37 GMT 39.227783 -7.670129 36,000 30 443 0
2018-02-23 13:57:34 GMT 39.222153 -7.674368 36,000 30 443 0
2018-02-23 13:57:30 GMT 39.215057 -7.679742 36,000 30 443 0
2018-02-23 13:57:27 GMT 39.211533 -7.682429 36,000 30 443 0
2018-02-23 13:57:23 GMT 39.204437 -7.687803 36,000 30 443 0
2018-02-23 13:57:20 GMT 39.199871 -7.691284 36,000 30 443 0
2018-02-23 13:57:17 GMT 39.193493 -7.696167 36,000 30 443 0
2018-02-23 13:57:13 GMT 39.186417 -7.701538 36,000 30 443 0
2018-02-23 13:57:10 GMT 39.181824 -7.704999 36,000 30 443 0
2018-02-23 13:57:06 GMT 39.174728 -7.710432 36,000 30 444 0
2018-02-23 13:57:03 GMT 39.167679 -7.715806 36,000 30 444 0
2018-02-23 13:56:59 GMT 39.160255 -7.721436 36,000 30 444 0
2018-02-23 13:56:56 GMT 39.156715 -7.724121 36,000 30 444 0
2018-02-23 13:56:53 GMT 39.149963 -7.729240 36,000 30 444 0
2018-02-23 13:56:50 GMT 39.143963 -7.733826 36,000 30 444 0
2018-02-23 13:56:46 GMT 39.137238 -7.738913 36,000 30 444 0
2018-02-23 13:56:39 GMT 39.127304 -7.746436 36,000 30 444 0
2018-02-23 13:56:36 GMT 39.120209 -7.751810 36,000 30 444 0
2018-02-23 13:56:33 GMT 39.115265 -7.755571 36,000 30 445 0
2018-02-23 13:56:30 GMT 39.109932 -7.759644 36,000 30 445 0
2018-02-23 13:56:27 GMT 39.105648 -7.762878 36,000 30 446 0
2018-02-23 13:56:24 GMT 39.099968 -7.767151 36,000 30 445 0
2018-02-23 13:56:20 GMT 39.092514 -7.772827 36,000 30 445 64
2018-02-23 13:56:17 GMT 39.086517 -7.777344 36,000 30 445 0
2018-02-23 13:56:13 GMT 39.080429 -7.781903 36,000 30 446 -64
2018-02-23 13:56:08 GMT 39.071915 -7.788351 36,000 30 446 -64
2018-02-23 13:56:04 GMT 39.063007 -7.795044 36,000 30 446 0
2018-02-23 13:55:58 GMT 39.053043 -7.802612 36,000 30 446 64
2018-02-23 13:55:53 GMT 39.044815 -7.808772 36,000 30 446 64
2018-02-23 13:55:48 GMT 39.034470 -7.816528 36,000 30 447 0
2018-02-23 13:55:45 GMT 39.030888 -7.819275 36,000 30 447 0
2018-02-23 13:55:42 GMT 39.026604 -7.822449 36,000 30 447 0
2018-02-23 13:55:37 GMT 39.016983 -7.829729 36,000 30 447 -64
2018-02-23 13:55:34 GMT 39.011662 -7.833801 36,000 30 447 0
2018-02-23 13:55:30 GMT 39.003094 -7.840271 36,000 30 447 64
2018-02-23 13:55:27 GMT 38.997711 -7.844298 36,000 30 447 64
2018-02-23 13:55:24 GMT 38.993454 -7.847522 36,000 30 447 64
2018-02-23 13:55:20 GMT 38.985580 -7.853433 36,000 30 448 0
2018-02-23 13:55:17 GMT 38.978794 -7.858582 36,000 30 448 0
2018-02-23 13:55:14 GMT 38.975208 -7.861267 36,000 30 448 0
2018-02-23 13:55:09 GMT 38.965248 -7.868835 36,000 30 448 0
2018-02-23 13:55:06 GMT 38.959854 -7.872898 36,000 30 448 0
2018-02-23 13:55:03 GMT 38.956284 -7.875585 36,000 30 448 0
2018-02-23 13:55:00 GMT 38.950211 -7.880127 36,000 30 448 0
2018-02-23 13:54:56 GMT 38.942734 -7.885795 36,000 30 448 0
2018-02-23 13:54:52 GMT 38.935593 -7.891229 36,000 30 448 0
2018-02-23 13:54:48 GMT 38.928799 -7.896301 36,000 30 447 -64
2018-02-23 13:54:45 GMT 38.921997 -7.901439 36,000 30 447 -64
2018-02-23 13:54:42 GMT 38.917007 -7.905200 36,000 30 447 0
2018-02-23 13:54:37 GMT 38.910221 -7.910339 36,000 30 447 64
2018-02-23 13:54:34 GMT 38.903751 -7.915161 36,000 30 447 64
2018-02-23 13:54:31 GMT 38.895885 -7.921021 36,000 30 448 64
2018-02-23 13:54:28 GMT 38.893044 -7.923218 36,000 30 448 64
2018-02-23 13:54:25 GMT 38.886620 -7.928040 36,000 30 448 64
2018-02-23 13:54:22 GMT 38.881592 -7.931763 36,000 30 448 64
2018-02-23 13:54:17 GMT 38.874802 -7.936906 36,000 30 448 0
2018-02-23 13:54:12 GMT 38.863358 -7.945504 36,000 30 448 0
2018-02-23 13:54:08 GMT 38.856903 -7.950340 36,000 30 448 0
2018-02-23 13:54:05 GMT 38.851521 -7.954346 36,000 30 448 0
2018-02-23 13:54:02 GMT 38.846539 -7.958130 36,000 30 448 0
2018-02-23 13:53:58 GMT 38.838272 -7.964252 36,000 30 448 0
2018-02-23 13:53:53 GMT 38.828979 -7.971238 36,000 30 447 0
2018-02-23 13:53:50 GMT 38.826141 -7.973387 36,000 30 447 0
2018-02-23 13:53:46 GMT 38.818607 -7.979004 36,000 30 447 64
2018-02-23 13:53:40 GMT 38.807201 -7.987610 36,000 30 447 0
2018-02-23 13:53:36 GMT 38.800732 -7.992432 36,000 30 447 0
2018-02-23 13:53:33 GMT 38.793961 -7.997569 36,000 30 447 0
2018-02-23 13:53:30 GMT 38.789326 -8.001038 36,000 30 447 0
2018-02-23 13:53:27 GMT 38.784668 -8.004495 36,000 30 447 0
2018-02-23 13:53:23 GMT 38.777130 -8.010132 36,000 30 447 0
2018-02-23 13:53:20 GMT 38.770008 -8.015503 36,000 30 447 0
2018-02-23 13:53:14 GMT 38.761395 -8.021912 36,000 30 448 0
2018-02-23 13:53:11 GMT 38.754639 -8.027005 36,000 30 448 0
2018-02-23 13:53:07 GMT 38.747452 -8.032379 36,000 30 448 0
2018-02-23 13:53:03 GMT 38.738537 -8.039062 36,000 30 448 0
2018-02-23 13:52:59 GMT 38.733509 -8.042786 36,000 30 448 0
2018-02-23 13:52:55 GMT 38.726341 -8.048157 36,000 30 448 0
2018-02-23 13:52:50 GMT 38.718109 -8.054292 36,000 30 448 0
2018-02-23 13:52:47 GMT 38.711655 -8.059128 36,000 30 448 0
2018-02-23 13:52:44 GMT 38.708084 -8.061815 36,000 30 448 0
2018-02-23 13:52:41 GMT 38.700550 -8.067444 36,000 30 448 0
2018-02-23 13:52:38 GMT 38.695908 -8.070891 36,000 30 448 0
2018-02-23 13:52:34 GMT 38.689098 -8.075989 36,000 30 448 0
2018-02-23 13:52:29 GMT 38.680161 -8.082654 36,000 30 449 0
2018-02-23 13:52:26 GMT 38.673317 -8.087708 36,000 30 449 0
2018-02-23 13:52:21 GMT 38.665787 -8.093282 36,000 30 449 0
2018-02-23 13:52:18 GMT 38.658646 -8.098655 36,000 30 449 0
2018-02-23 13:52:15 GMT 38.655396 -8.101013 36,000 30 449 0
2018-02-23 13:52:10 GMT 38.646084 -8.107971 36,000 30 449 0
2018-02-23 13:52:07 GMT 38.640701 -8.111970 36,000 30 449 0
2018-02-23 13:52:03 GMT 38.634586 -8.116516 36,000 30 449 0
2018-02-23 13:52:00 GMT 38.628117 -8.121277 36,000 30 449 0
2018-02-23 13:51:57 GMT 38.621338 -8.126360 36,000 30 449 0
2018-02-23 13:51:50 GMT 38.608429 -8.135973 36,000 30 449 64
2018-02-23 13:51:46 GMT 38.603024 -8.139954 36,000 30 449 0
2018-02-23 13:51:42 GMT 38.595856 -8.145325 36,000 30 449 -64
2018-02-23 13:51:39 GMT 38.591171 -8.148810 36,000 30 449 -64
2018-02-23 13:51:36 GMT 38.583984 -8.154124 36,000 30 449 0
2018-02-23 13:51:32 GMT 38.578262 -8.158423 36,000 30 449 0
2018-02-23 13:51:29 GMT 38.572159 -8.162964 36,000 30 449 64
2018-02-23 13:51:25 GMT 38.565689 -8.167725 36,000 30 449 0
2018-02-23 13:51:21 GMT 38.558853 -8.172813 36,000 30 449 0
2018-02-23 13:51:18 GMT 38.552750 -8.177368 36,000 30 449 0
2018-02-23 13:51:15 GMT 38.547363 -8.181351 36,000 30 449 0
2018-02-23 13:51:11 GMT 38.540176 -8.186725 36,000 30 449 0
2018-02-23 13:51:08 GMT 38.535141 -8.190487 36,000 30 450 0
2018-02-23 13:51:05 GMT 38.528000 -8.195860 36,000 30 450 0
2018-02-23 13:50:59 GMT 38.517197 -8.203861 36,000 30 450 0
2018-02-23 13:50:54 GMT 38.509640 -8.209534 36,000 30 450 0
2018-02-23 13:50:50 GMT 38.503555 -8.214072 36,000 30 450 0
2018-02-23 13:50:47 GMT 38.497101 -8.218908 36,000 30 450 0
2018-02-23 13:50:44 GMT 38.490227 -8.223999 36,000 30 450 0
2018-02-23 13:50:39 GMT 38.481617 -8.230408 36,000 30 450 0
2018-02-23 13:50:35 GMT 38.474075 -8.236044 36,000 30 450 0
2018-02-23 13:50:32 GMT 38.471191 -8.238194 36,000 30 450 0
2018-02-23 13:50:28 GMT 38.461121 -8.245657 36,000 30 450 0
2018-02-23 13:50:23 GMT 38.452847 -8.251831 36,000 30 451 0
2018-02-23 13:50:17 GMT 38.442001 -8.259827 36,000 30 451 0
2018-02-23 13:50:12 GMT 38.434433 -8.265421 36,000 30 451 0
2018-02-23 13:50:06 GMT 38.423985 -8.273132 36,000 30 451 0
2018-02-23 13:50:03 GMT 38.417465 -8.277954 36,000 30 451 0
2018-02-23 13:50:00 GMT 38.412781 -8.281422 36,000 30 451 0
2018-02-23 13:49:56 GMT 38.404861 -8.287315 36,000 30 451 0
2018-02-23 13:49:51 GMT 38.395821 -8.293961 36,000 30 451 0
2018-02-23 13:49:47 GMT 38.387161 -8.300350 36,000 30 451 0
2018-02-23 13:49:44 GMT 38.382477 -8.303852 36,000 30 451 -64
2018-02-23 13:49:40 GMT 38.377060 -8.307814 36,000 30 452 0
2018-02-23 13:49:36 GMT 38.368744 -8.313962 36,000 30 451 64
2018-02-23 13:49:33 GMT 38.364025 -8.317427 36,000 30 452 64
2018-02-23 13:49:30 GMT 38.357895 -8.321968 36,000 30 452 0
2018-02-23 13:49:25 GMT 38.349930 -8.327812 36,000 30 452 0
2018-02-23 13:49:20 GMT 38.339081 -8.335818 36,000 30 452 0
2018-02-23 13:49:15 GMT 38.330383 -8.342246 36,000 30 452 64
2018-02-23 13:49:11 GMT 38.323151 -8.347564 36,000 30 452 0
2018-02-23 13:49:08 GMT 38.319534 -8.350194 36,000 30 452 0
2018-02-23 13:49:05 GMT 38.314075 -8.354207 36,000 30 452 -64
2018-02-23 13:49:02 GMT 38.307556 -8.359043 36,000 30 452 0
2018-02-23 13:48:58 GMT 38.300674 -8.364102 36,000 30 452 0
2018-02-23 13:48:54 GMT 38.293034 -8.369671 36,000 30 452 0
2018-02-23 13:48:51 GMT 38.285816 -8.374985 36,000 30 452 0
2018-02-23 13:48:46 GMT 38.276733 -8.381692 36,000 30 452 0
2018-02-23 13:48:42 GMT 38.269852 -8.386748 36,000 30 452 0
2018-02-23 13:48:37 GMT 38.260757 -8.393379 36,000 30 452 0
2018-02-23 13:48:33 GMT 38.254257 -8.398171 36,000 30 452 0
2018-02-23 13:48:29 GMT 38.248810 -8.402153 36,000 30 452 0
2018-02-23 13:48:26 GMT 38.241898 -8.407229 36,000 30 453 64
2018-02-23 13:48:23 GMT 38.236084 -8.411495 36,000 30 453 0
2018-02-23 13:48:20 GMT 38.229908 -8.416005 36,000 30 453 0
2018-02-23 13:48:14 GMT 38.220459 -8.422931 36,000 30 452 0
2018-02-23 13:48:11 GMT 38.214638 -8.427170 36,000 30 452 0
2018-02-23 13:48:08 GMT 38.209946 -8.430604 36,000 30 452 0
2018-02-23 13:48:04 GMT 38.200859 -8.437261 36,000 30 453 0
2018-02-23 13:48:01 GMT 38.195786 -8.441023 36,000 30 453 0
2018-02-23 13:47:58 GMT 38.192154 -8.443650 36,000 30 453 0
2018-02-23 13:47:55 GMT 38.183762 -8.449772 36,000 30 453 0
2018-02-23 13:47:52 GMT 38.178329 -8.453741 36,000 30 453 0
2018-02-23 13:47:48 GMT 38.172508 -8.458040 36,000 30 453 -64
2018-02-23 13:47:43 GMT 38.164169 -8.464148 36,000 30 453 0
2018-02-23 13:47:40 GMT 38.158730 -8.468130 36,000 30 453 0
2018-02-23 13:47:37 GMT 38.154007 -8.471628 36,000 30 453 64
2018-02-23 13:47:34 GMT 38.148193 -8.475894 36,000 30 454 0
2018-02-23 13:47:31 GMT 38.140915 -8.481270 36,000 30 454 0
2018-02-23 13:47:28 GMT 38.136566 -8.484484 36,000 30 454 0
2018-02-23 13:47:23 GMT 38.127090 -8.491438 36,000 30 455 0
2018-02-23 13:47:20 GMT 38.122742 -8.494652 36,000 30 455 64
2018-02-23 13:47:17 GMT 38.117615 -8.498451 36,000 30 455 64
2018-02-23 13:47:13 GMT 38.107754 -8.505687 36,000 30 456 64
2018-02-23 13:47:10 GMT 38.103378 -8.508911 36,000 30 456 0
2018-02-23 13:47:07 GMT 38.098259 -8.512673 36,000 30 457 -64
2018-02-23 13:47:01 GMT 38.085434 -8.522060 36,000 30 457 -64
2018-02-23 13:46:56 GMT 38.079575 -8.526326 36,000 30 457 -64
2018-02-23 13:46:53 GMT 38.072250 -8.531702 36,025 30 457 0
2018-02-23 13:46:50 GMT 38.066742 -8.535720 36,025 30 457 0
2018-02-23 13:46:47 GMT 38.060181 -8.540557 36,025 30 457 0
2018-02-23 13:46:41 GMT 38.049938 -8.548080 36,000 30 457 0
2018-02-23 13:46:34 GMT 38.037460 -8.557215 36,000 30 457 64
2018-02-23 13:46:31 GMT 38.031597 -8.561514 36,000 30 457 64
2018-02-23 13:46:23 GMT 38.018051 -8.571440 36,000 30 457 0
2018-02-23 13:46:20 GMT 38.012554 -8.575486 36,000 30 457 0
2018-02-23 13:46:14 GMT 37.999741 -8.584880 36,000 30 457 0
2018-02-23 13:46:11 GMT 37.994659 -8.588620 36,000 30 457 0
2018-02-23 13:46:03 GMT 37.982208 -8.597737 36,000 30 457 0
2018-02-23 13:46:00 GMT 37.975616 -8.602587 36,000 30 457 0
2018-02-23 13:45:54 GMT 37.962433 -8.612171 36,000 30 457 0
2018-02-23 13:45:48 GMT 37.955482 -8.617282 36,000 29 456 0
2018-02-23 13:45:39 GMT 37.937141 -8.630597 36,000 29 456 0
2018-02-23 13:45:32 GMT 37.925411 -8.639135 36,000 29 456 0
2018-02-23 13:45:28 GMT 37.917709 -8.644721 36,000 29 456 0
2018-02-23 13:45:17 GMT 37.897572 -8.659376 36,000 29 456 0
2018-02-23 13:45:14 GMT 37.890610 -8.664414 36,000 29 456 0
2018-02-23 13:45:07 GMT 37.879276 -8.672631 36,000 29 456 0
2018-02-23 13:44:57 GMT 37.859848 -8.686738 36,000 29 456 0
2018-02-23 13:44:49 GMT 37.844875 -8.697649 36,000 29 456 0
2018-02-23 13:44:46 GMT 37.840118 -8.701055 36,000 29 456 0
2018-02-23 13:44:43 GMT 37.833889 -8.705590 36,000 29 456 0
2018-02-23 13:44:36 GMT 37.821121 -8.714905 36,000 29 456 0
2018-02-23 13:44:28 GMT 37.806095 -8.725772 36,000 29 456 0
2018-02-23 13:44:25 GMT 37.802078 -8.728696 36,000 29 456 64
2018-02-23 13:44:18 GMT 37.788208 -8.738806 36,000 29 456 0
2018-02-23 13:44:15 GMT 37.782028 -8.743326 36,000 29 456 0
2018-02-23 13:44:07 GMT 37.769600 -8.752342 36,000 29 455 0
2018-02-23 13:44:04 GMT 37.763397 -8.756863 36,000 29 455 0
2018-02-23 13:44:00 GMT 37.756424 -8.761895 36,000 29 455 0
2018-02-23 13:43:56 GMT 37.748371 -8.767687 36,000 29 455 0
2018-02-23 13:43:53 GMT 37.743252 -8.771389 36,000 29 455 -64
2018-02-23 13:43:50 GMT 37.738129 -8.775091 36,000 29 455 0
2018-02-23 13:43:46 GMT 37.731216 -8.780063 36,000 29 454 0
2018-02-23 13:43:42 GMT 37.724625 -8.784797 36,000 29 452 0
2018-02-23 13:43:39 GMT 37.718437 -8.789242 36,000 29 451 0
2018-02-23 13:43:34 GMT 37.709034 -8.796048 36,000 29 450 0
2018-02-23 13:43:29 GMT 37.700375 -8.802318 36,000 29 448 0
2018-02-23 13:43:26 GMT 37.693859 -8.807035 36,000 29 448 64
2018-02-23 13:43:22 GMT 37.686691 -8.812229 36,000 29 447 0
2018-02-23 13:43:19 GMT 37.680218 -8.816887 36,000 29 446 0
2018-02-23 13:43:15 GMT 37.675598 -8.820268 36,000 29 445 64
2018-02-23 13:43:11 GMT 37.668068 -8.825664 36,000 29 444 0
2018-02-23 13:43:08 GMT 37.662048 -8.830086 36,000 29 444 0
2018-02-23 13:43:04 GMT 37.655968 -8.834501 36,000 29 444 64
2018-02-23 13:43:01 GMT 37.649185 -8.839378 36,000 29 444 0
2018-02-23 13:42:55 GMT 37.638138 -8.847398 36,000 29 444 -64
2018-02-23 13:42:47 GMT 37.625656 -8.856383 36,000 29 445 0
2018-02-23 13:42:43 GMT 37.619202 -8.861058 36,000 29 445 0
2018-02-23 13:42:39 GMT 37.609222 -8.868246 36,000 29 445 64
2018-02-23 13:42:34 GMT 37.601349 -8.873914 36,000 29 445 0
2018-02-23 13:42:29 GMT 37.592789 -8.880109 36,000 29 445 0
2018-02-23 13:42:23 GMT 37.582413 -8.887581 36,000 29 446 0
2018-02-23 13:42:18 GMT 37.572033 -8.895104 36,000 29 446 0
2018-02-23 13:42:13 GMT 37.563812 -8.901030 36,000 29 446 0
2018-02-23 13:42:07 GMT 37.554108 -8.908001 36,000 29 447 64
2018-02-23 13:42:02 GMT 37.545181 -8.914412 36,000 29 446 0
2018-02-23 13:41:58 GMT 37.535843 -8.921132 36,000 29 447 0
2018-02-23 13:41:52 GMT 37.526176 -8.928063 36,000 29 447 -64
2018-02-23 13:41:47 GMT 37.517567 -8.934273 36,000 29 447 -64
2018-02-23 13:41:41 GMT 37.507511 -8.941438 36,000 29 447 -64
2018-02-23 13:41:35 GMT 37.496712 -8.949200 36,000 29 447 64
2018-02-23 13:41:31 GMT 37.489540 -8.954335 36,000 29 447 0
2018-02-23 13:41:24 GMT 37.474823 -8.964902 36,000 29 447 0
2018-02-23 13:41:21 GMT 37.470520 -8.967999 36,000 29 447 0
2018-02-23 13:41:13 GMT 37.456100 -8.978284 36,000 29 447 64
2018-02-23 13:41:10 GMT 37.452160 -8.981144 36,000 29 447 0
2018-02-23 13:41:04 GMT 37.440308 -8.989621 36,000 29 447 -64
2018-02-23 13:41:00 GMT 37.433853 -8.994296 36,000 29 447 0
2018-02-23 13:40:53 GMT 37.420551 -9.003833 36,000 29 447 0
2018-02-23 13:40:50 GMT 37.415131 -9.007679 36,000 29 447 0
2018-02-23 13:40:43 GMT 37.402176 -9.017029 36,000 29 448 0
2018-02-23 13:40:39 GMT 37.396454 -9.021119 36,000 29 448 -64
2018-02-23 13:40:33 GMT 37.383820 -9.030165 36,000 29 448 0
2018-02-23 13:40:29 GMT 37.377686 -9.034560 36,000 29 449 0
2018-02-23 13:40:22 GMT 37.363617 -9.044674 36,000 29 450 64
2018-02-23 13:40:19 GMT 37.358917 -9.048059 36,000 29 450 0
2018-02-23 13:40:12 GMT 37.346252 -9.057093 36,000 29 450 0
2018-02-23 13:40:08 GMT 37.339737 -9.061750 36,000 29 450 0
2018-02-23 13:40:01 GMT 37.326702 -9.071065 36,000 29 450 0
2018-02-23 13:39:58 GMT 37.320885 -9.075244 36,000 29 450 64
2018-02-23 13:39:50 GMT 37.307465 -9.084817 36,000 29 451 64
2018-02-23 13:39:47 GMT 37.302383 -9.088440 36,000 29 451 64
2018-02-23 13:39:41 GMT 37.288605 -9.098258 36,000 29 450 0
2018-02-23 13:39:37 GMT 37.283176 -9.102173 36,000 29 450 0
2018-02-23 13:39:29 GMT 37.269398 -9.111965 36,000 29 450 0
2018-02-23 13:39:26 GMT 37.263931 -9.115847 36,000 29 451 0
2018-02-23 13:39:20 GMT 37.250496 -9.125399 36,000 29 451 0
2018-02-23 13:39:16 GMT 37.245422 -9.129042 36,000 29 451 64
2018-02-23 13:39:09 GMT 37.231644 -9.138893 36,000 29 451 0
2018-02-23 13:39:06 GMT 37.226944 -9.142261 36,000 29 451 0
2018-02-23 13:39:01 GMT 37.216782 -9.149449 36,000 29 450 0
2018-02-23 13:38:56 GMT 37.208458 -9.155433 36,000 29 450 0
2018-02-23 13:38:48 GMT 37.194351 -9.165520 36,000 29 450 0
2018-02-23 13:38:45 GMT 37.190002 -9.168617 36,000 29 450 0
2018-02-23 13:38:40 GMT 37.177361 -9.177644 36,000 29 450 64
2018-02-23 13:38:35 GMT 37.171188 -9.182057 36,000 29 450 0
2018-02-23 13:38:30 GMT 37.158188 -9.191349 36,000 29 449 0
2018-02-23 13:38:24 GMT 37.152039 -9.195676 36,000 29 449 64
2018-02-23 13:38:18 GMT 37.136909 -9.206543 36,000 29 448 0
2018-02-23 13:38:14 GMT 37.133652 -9.208822 36,000 29 448 0
2018-02-23 13:38:07 GMT 37.119186 -9.219107 36,000 29 448 0
2018-02-23 13:38:04 GMT 37.115215 -9.221888 36,000 29 448 0
2018-02-23 13:37:58 GMT 37.104034 -9.229860 36,000 29 448 0
2018-02-23 13:37:53 GMT 37.096115 -9.235470 36,000 29 448 0
2018-02-23 13:37:46 GMT 37.080963 -9.246222 36,000 29 447 0
2018-02-23 13:37:43 GMT 37.078079 -9.248268 36,000 29 447 0
2018-02-23 13:37:37 GMT 37.066895 -9.256220 36,000 29 447 0
2018-02-23 13:37:33 GMT 37.058979 -9.261833 36,000 29 447 0
2018-02-23 13:37:27 GMT 37.048180 -9.269535 36,000 29 447 64
2018-02-23 13:37:23 GMT 37.040588 -9.274857 36,000 29 447 0
2018-02-23 13:37:17 GMT 37.030518 -9.282045 36,000 29 447 0
2018-02-23 13:37:12 GMT 37.021866 -9.288122 36,000 29 447 0
2018-02-23 13:37:08 GMT 37.012527 -9.294784 36,000 29 446 0
2018-02-23 13:37:02 GMT 37.003490 -9.301121 36,000 29 447 64
2018-02-23 13:36:57 GMT 36.990875 -9.309978 36,000 29 447 0
2018-02-23 13:36:52 GMT 36.985474 -9.313779 36,000 29 446 0
2018-02-23 13:36:46 GMT 36.972885 -9.322718 36,000 29 447 0
2018-02-23 13:36:42 GMT 36.966759 -9.327034 36,000 29 447 0
2018-02-23 13:36:36 GMT 36.956314 -9.334405 36,000 29 447 0
2018-02-23 13:36:31 GMT 36.948048 -9.340290 36,000 29 446 0
2018-02-23 13:36:26 GMT 36.937199 -9.347873 36,000 29 446 0
2018-02-23 13:36:20 GMT 36.926788 -9.355267 36,000 29 446 0
2018-02-23 13:36:16 GMT 36.920288 -9.359826 36,000 29 446 0
2018-02-23 13:36:11 GMT 36.909824 -9.367218 36,000 29 446 0
2018-02-23 13:36:06 GMT 36.901215 -9.373308 36,000 29 446 0
2018-02-23 13:36:00 GMT 36.891113 -9.380414 36,000 29 446 0
2018-02-23 13:35:54 GMT 36.880314 -9.387997 36,000 29 446 0
2018-02-23 13:35:50 GMT 36.871655 -9.394087 36,000 29 446 0
2018-02-23 13:35:44 GMT 36.860504 -9.401959 36,000 29 446 0
2018-02-23 13:35:39 GMT 36.853271 -9.407043 36,000 29 446 0
2018-02-23 13:35:33 GMT 36.841393 -9.415400 36,000 29 447 64
2018-02-23 13:35:29 GMT 36.836014 -9.419231 36,000 29 447 0
2018-02-23 13:35:26 GMT 36.828781 -9.424324 36,000 29 447 0
2018-02-23 13:35:23 GMT 36.824821 -9.427088 36,000 29 447 0
2018-02-23 13:35:19 GMT 36.817978 -9.431934 36,000 29 447 64
2018-02-23 13:35:14 GMT 36.808640 -9.438515 36,000 29 447 64
2018-02-23 13:35:09 GMT 36.798893 -9.445379 36,000 29 447 0
2018-02-23 13:35:04 GMT 36.788094 -9.452976 36,000 29 447 0
2018-02-23 13:34:57 GMT 36.775105 -9.462092 36,000 29 447 0
2018-02-23 13:34:54 GMT 36.769333 -9.466183 36,000 29 447 0
2018-02-23 13:34:48 GMT 36.762115 -9.471267 36,000 29 448 0
2018-02-23 13:34:43 GMT 36.752014 -9.478338 36,000 29 448 0
2018-02-23 13:34:39 GMT 36.745148 -9.483147 36,000 29 448 0
2018-02-23 13:34:36 GMT 36.738327 -9.487980 36,000 29 448 64
2018-02-23 13:34:33 GMT 36.734695 -9.490551 36,000 29 448 0
2018-02-23 13:34:27 GMT 36.724960 -9.497395 36,000 29 448 64
2018-02-23 13:34:23 GMT 36.717041 -9.502945 36,000 29 447 64
2018-02-23 13:34:17 GMT 36.706924 -9.510040 36,000 29 448 64
2018-02-23 13:34:13 GMT 36.697586 -9.516621 36,000 29 447 0
2018-02-23 13:34:07 GMT 36.687820 -9.523452 36,000 29 447 0
2018-02-23 13:34:01 GMT 36.677353 -9.530811 36,000 29 447 0
2018-02-23 13:33:56 GMT 36.668362 -9.537126 36,000 29 447 0
2018-02-23 13:33:52 GMT 36.660782 -9.542427 36,000 29 447 64
2018-02-23 13:33:46 GMT 36.649979 -9.550037 36,000 29 447 0
2018-02-23 13:33:43 GMT 36.643127 -9.554833 36,000 29 447 0
2018-02-23 13:33:35 GMT 36.630840 -9.563365 36,000 29 447 0
2018-02-23 13:33:31 GMT 36.623291 -9.568691 36,000 29 446 0
2018-02-23 13:33:25 GMT 36.612823 -9.575987 36,000 29 446 0
2018-02-23 13:33:21 GMT 36.604523 -9.581795 36,000 29 446 64
2018-02-23 13:33:15 GMT 36.594109 -9.589078 36,000 29 446 0
2018-02-23 13:33:12 GMT 36.586147 -9.594629 36,000 29 446 64
2018-02-23 13:33:07 GMT 36.579678 -9.599187 36,000 29 446 0
2018-02-23 13:33:04 GMT 36.574997 -9.602451 36,000 29 446 64
2018-02-23 13:33:00 GMT 36.567436 -9.607719 36,000 29 446 64
2018-02-23 13:32:54 GMT 36.557007 -9.615040 36,000 29 446 0
2018-02-23 13:32:50 GMT 36.547977 -9.621277 36,000 29 446 0
2018-02-23 13:32:44 GMT 36.538620 -9.627822 36,000 29 446 0
2018-02-23 13:32:33 GMT 36.519161 -9.641379 36,000 29 446 64
2018-02-23 13:32:27 GMT 36.508713 -9.648685 36,000 29 446 0
2018-02-23 13:32:22 GMT 36.499702 -9.654937 36,000 29 446 0
2018-02-23 13:32:13 GMT 36.482803 -9.666767 36,000 29 446 0
2018-02-23 13:32:02 GMT 36.461929 -9.681301 36,000 29 446 0
2018-02-23 13:31:52 GMT 36.445049 -9.693097 36,000 29 445 0
2018-02-23 13:31:49 GMT 36.439278 -9.697129 36,000 29 445 0
2018-02-23 13:31:42 GMT 36.426334 -9.706129 36,000 29 445 0
2018-02-23 13:31:32 GMT 36.408367 -9.718576 36,000 29 445 0
2018-02-23 13:31:26 GMT 36.398666 -9.725304 36,000 29 445 0
2018-02-23 13:31:21 GMT 36.389652 -9.731549 36,000 29 445 64
2018-02-23 13:31:15 GMT 36.377792 -9.739780 36,000 29 445 64
2018-02-23 13:31:12 GMT 36.372429 -9.743529 36,000 29 445 0
2018-02-23 13:31:09 GMT 36.367767 -9.746761 36,000 29 445 64
2018-02-23 13:31:04 GMT 36.357697 -9.753742 36,000 29 445 0
2018-02-23 13:31:01 GMT 36.350876 -9.758489 36,000 29 445 0
2018-02-23 13:30:50 GMT 36.334030 -9.770164 36,000 29 444 64
2018-02-23 13:30:46 GMT 36.325424 -9.776173 36,000 29 444 64
2018-02-23 13:30:39 GMT 36.312885 -9.784845 36,000 29 443 64
2018-02-23 13:30:28 GMT 36.294617 -9.797516 36,000 29 443 64
2018-02-23 13:30:18 GMT 36.275253 -9.810905 36,000 29 443 0
2018-02-23 13:30:08 GMT 36.258423 -9.822537 36,000 29 443 0
2018-02-23 13:30:04 GMT 36.248363 -9.829433 36,000 29 443 0
2018-02-23 13:29:58 GMT 36.240143 -9.835110 36,000 29 443 0
2018-02-23 13:29:47 GMT 36.221180 -9.848191 36,000 29 443 0
2018-02-23 13:29:37 GMT 36.203304 -9.860522 36,000 29 442 0
2018-02-23 13:29:27 GMT 36.184341 -9.873676 36,000 29 442 128
2018-02-23 13:29:18 GMT 36.166489 -9.885979 36,000 29 442 64
2018-02-23 13:29:15 GMT 36.163269 -9.888221 36,000 29 442 64
2018-02-23 13:29:04 GMT 36.142551 -9.902480 36,000 29 442 -64
2018-02-23 13:28:54 GMT 36.125420 -9.914343 36,000 29 442 64
2018-02-23 13:28:44 GMT 36.105057 -9.928379 36,000 29 442 0
2018-02-23 13:28:34 GMT 36.089714 -9.939004 36,000 29 442 0
2018-02-23 13:28:24 GMT 36.071095 -9.951802 36,000 29 443 0
2018-02-23 13:28:15 GMT 36.054291 -9.963341 36,000 29 442 0
2018-02-23 13:28:04 GMT 36.036346 -9.975586 36,000 28 443 0
2018-02-23 13:28:00 GMT 36.028473 -9.980965 36,000 28 443 0
2018-02-23 13:27:53 GMT 36.013367 -9.991264 36,000 28 443 0
2018-02-23 13:27:42 GMT 35.996155 -10.002995 36,000 28 443 64
2018-02-23 13:27:32 GMT 35.977104 -10.016025 36,000 29 443 0
2018-02-23 13:27:22 GMT 35.958847 -10.028572 36,000 29 443 0
2018-02-23 13:27:12 GMT 35.944145 -10.038699 36,000 29 444 0
2018-02-23 13:27:02 GMT 35.925201 -10.051918 36,000 29 443 0
2018-02-23 13:26:51 GMT 35.906662 -10.064907 36,000 29 443 64
2018-02-23 13:26:48 GMT 35.899521 -10.069885 36,000 29 443 64
2018-02-23 13:26:41 GMT 35.888123 -10.077896 36,000 29 443 0
2018-02-23 13:26:30 GMT 35.868896 -10.091343 36,000 29 442 64
2018-02-23 13:26:21 GMT 35.851822 -10.103302 36,000 29 442 0
2018-02-23 13:26:10 GMT 35.832932 -10.116597 36,000 29 442 0
2018-02-23 13:26:00 GMT 35.815567 -10.128822 36,000 29 442 0
2018-02-23 13:25:50 GMT 35.796715 -10.142076 36,000 29 442 64
2018-02-23 13:25:47 GMT 35.789593 -10.147043 36,000 29 442 64
2018-02-23 13:25:40 GMT 35.777489 -10.155575 36,000 29 442 64
2018-02-23 13:25:29 GMT 35.760452 -10.167554 36,000 29 443 0
2018-02-23 13:25:18 GMT 35.741180 -10.181054 36,000 29 443 64
2018-02-23 13:25:09 GMT 35.723694 -10.193253 36,000 29 444 0
2018-02-23 13:25:02 GMT 35.707947 -10.204124 36,000 29 444 0
2018-02-23 13:24:58 GMT 35.705109 -10.206127 36,000 29 443 0
2018-02-23 13:24:51 GMT 35.690437 -10.216350 36,000 29 443 0
2018-02-23 13:24:48 GMT 35.686852 -10.218863 36,000 29 445 0
2018-02-23 13:24:42 GMT 35.674301 -10.227585 36,000 29 445 0
2018-02-23 13:24:38 GMT 35.668232 -10.231836 36,000 29 445 0
2018-02-23 13:24:27 GMT 35.647423 -10.246270 36,000 29 445 64
2018-02-23 13:24:15 GMT 35.624725 -10.261917 36,000 29 446 64
2018-02-23 13:24:05 GMT 35.605957 -10.274792 36,000 29 447 -64
2018-02-23 13:23:55 GMT 35.587555 -10.287528 36,000 29 447 64
2018-02-23 13:23:43 GMT 35.568794 -10.300559 36,000 29 448 0
2018-02-23 13:23:35 GMT 35.552536 -10.311813 36,000 29 448 0
2018-02-23 13:23:25 GMT 35.535919 -10.323315 36,000 29 449 0
2018-02-23 13:23:14 GMT 35.516006 -10.337083 36,000 29 449 64
2018-02-23 13:23:03 GMT 35.489548 -10.355358 36,000 29 450 0
2018-02-23 13:22:53 GMT 35.479042 -10.362679 36,000 29 450 64
2018-02-23 13:22:44 GMT 35.462677 -10.373955 36,000 29 451 0
2018-02-23 13:22:41 GMT 35.456512 -10.378165 36,000 29 451 0
2018-02-23 13:22:33 GMT 35.440498 -10.389210 36,000 29 450 64
2018-02-23 13:22:23 GMT 35.424820 -10.399990 36,000 29 452 0
2018-02-23 13:22:20 GMT 35.418617 -10.404228 36,000 29 452 0
2018-02-23 13:22:12 GMT 35.404404 -10.414009 36,000 29 452 64
2018-02-23 13:22:03 GMT 35.385406 -10.427055 36,000 29 452 0
2018-02-23 13:21:51 GMT 35.366013 -10.440284 36,000 29 453 0
2018-02-23 13:21:42 GMT 35.347672 -10.452848 36,000 29 453 64
2018-02-23 13:21:32 GMT 35.331161 -10.464134 36,000 29 455 0
2018-02-23 13:21:20 GMT 35.306568 -10.480957 36,000 29 455 0
2018-02-23 13:21:10 GMT 35.290009 -10.492344 36,000 29 456 64
2018-02-23 13:21:00 GMT 35.272724 -10.504157 36,000 29 456 64
2018-02-23 13:20:57 GMT 35.265324 -10.509241 36,000 29 456 64
2018-02-23 13:20:49 GMT 35.251308 -10.518883 36,000 29 457 -64
2018-02-23 13:20:40 GMT 35.235809 -10.529519 36,000 29 457 64
2018-02-23 13:20:30 GMT 35.216949 -10.542391 36,000 29 458 64
2018-02-23 13:20:19 GMT 35.197723 -10.555619 36,000 29 458 0
2018-02-23 13:20:09 GMT 35.178082 -10.569077 36,000 29 459 -64
2018-02-23 13:19:58 GMT 35.157368 -10.583382 36,000 29 459 64
2018-02-23 13:19:47 GMT 35.137756 -10.596874 36,000 29 459 0
2018-02-23 13:19:36 GMT 35.117706 -10.610607 36,000 29 459 64
2018-02-23 13:19:26 GMT 35.098434 -10.623779 36,000 29 459 0
2018-02-23 13:19:17 GMT 35.080975 -10.635738 36,000 29 459 0
2018-02-23 13:19:06 GMT 35.060577 -10.649676 36,000 29 460 64
2018-02-23 13:18:55 GMT 35.041992 -10.662344 36,000 29 460 0
2018-02-23 13:18:44 GMT 35.019699 -10.677590 36,000 29 460 0
2018-02-23 13:18:34 GMT 35.002998 -10.689011 36,000 29 460 0
2018-02-23 13:18:24 GMT 34.984039 -10.701917 36,000 29 461 0
2018-02-23 13:18:14 GMT 34.965408 -10.714641 36,000 29 460 -64
2018-02-23 13:18:04 GMT 34.946438 -10.727520 36,000 29 461 64
2018-02-23 13:17:53 GMT 34.926727 -10.740985 36,000 29 461 0
2018-02-23 13:17:43 GMT 34.908096 -10.753709 36,000 29 461 0
2018-02-23 13:17:33 GMT 34.888733 -10.766882 36,000 29 462 0
2018-02-23 13:17:22 GMT 34.867859 -10.781119 36,000 29 462 0
2018-02-23 13:17:12 GMT 34.849228 -10.793843 36,000 29 462 0
2018-02-23 13:17:02 GMT 34.830944 -10.806313 36,000 29 462 0
2018-02-23 13:16:51 GMT 34.810040 -10.820503 36,000 29 462 0
2018-02-23 13:16:40 GMT 34.790581 -10.833721 36,000 29 462 64
2018-02-23 13:16:30 GMT 34.770767 -10.847205 36,000 29 462 0
2018-02-23 13:16:19 GMT 34.749432 -10.861645 36,000 29 462 0
2018-02-23 13:16:09 GMT 34.732204 -10.873318 36,000 29 463 64
2018-02-23 13:15:59 GMT 34.712700 -10.886478 36,000 29 464 -64
2018-02-23 13:15:49 GMT 34.693542 -10.899390 36,000 29 464 64
2018-02-23 13:15:38 GMT 34.673950 -10.912563 36,000 29 465 -64
2018-02-23 13:15:28 GMT 34.653950 -10.926018 36,000 29 466 64
2018-02-23 13:15:17 GMT 34.634674 -10.939020 36,000 29 468 0
2018-02-23 13:15:07 GMT 34.614944 -10.952248 36,000 29 469 0
2018-02-23 13:14:57 GMT 34.595215 -10.965589 36,000 29 470 64
2018-02-23 13:14:46 GMT 34.574615 -10.979434 36,000 29 471 0
2018-02-23 13:14:36 GMT 34.555573 -10.992214 36,000 28 471 64
2018-02-23 13:14:25 GMT 34.535660 -11.005442 36,000 28 471 0
2018-02-23 13:14:14 GMT 34.514668 -11.019459 36,000 29 471 64
2018-02-23 13:14:05 GMT 34.496017 -11.032067 36,000 29 470 0
2018-02-23 13:13:53 GMT 34.473129 -11.047426 36,000 29 470 64
2018-02-23 13:13:44 GMT 34.456013 -11.058941 36,000 29 470 64
2018-02-23 13:13:31 GMT 34.432407 -11.074791 36,000 29 470 0
2018-02-23 13:13:23 GMT 34.417187 -11.085033 36,000 29 470 64
2018-02-23 13:13:11 GMT 34.394714 -11.100059 36,000 29 470 0
2018-02-23 13:12:58 GMT 34.368446 -11.117649 36,000 29 470 0
2018-02-23 13:12:48 GMT 34.349762 -11.130159 36,000 29 470 0
2018-02-23 13:12:37 GMT 34.329620 -11.143627 36,000 29 470 64
2018-02-23 13:12:29 GMT 34.314354 -11.153812 36,000 28 470 0
2018-02-23 13:12:18 GMT 34.292240 -11.168518 36,000 28 470 0
2018-02-23 13:12:09 GMT 34.275101 -11.179990 36,000 28 470 64
2018-02-23 13:10:58 GMT 34.139969 -11.270027 36,000 29 469 64
2018-02-23 13:10:54 GMT 34.132736 -11.274831 36,000 29 469 64
2018-02-23 13:10:43 GMT 34.111851 -11.288795 36,000 29 470 0
We lost coverage of the aircraft here for a total of 11 minutes
2018-02-23 12:59:29 GMT 32.808472 -12.140332 36,000 28 477 0
2018-02-23 12:59:03 GMT 32.757156 -12.173236 36,000 28 477 0
2018-02-23 12:58:53 GMT 32.735767 -12.186921 36,000 28 477 0
2018-02-23 12:58:34 GMT 32.701172 -12.209161 36,000 28 477 0
2018-02-23 12:58:06 GMT 32.645596 -12.244879 36,000 28 477 0
2018-02-23 12:57:27 GMT 32.570297 -12.292767 36,000 28 479 0
2018-02-23 12:55:35 GMT 32.348785 -12.433173 36,000 28 483 0
2018-02-23 12:55:21 GMT 32.321182 -12.450751 36,000 28 484 64
2018-02-23 12:54:59 GMT 32.279694 -12.477106 36,000 28 485 0
2018-02-23 12:54:50 GMT 32.259476 -12.489917 36,000 28 486 0
2018-02-23 12:54:41 GMT 32.241661 -12.501208 36,000 28 486 0
2018-02-23 12:54:32 GMT 32.225040 -12.511746 36,000 28 486 64
2018-02-23 12:54:19 GMT 32.197678 -12.529138 36,000 28 486 0
2018-02-23 12:54:11 GMT 32.184174 -12.537762 36,000 28 487 -64
2018-02-23 12:53:52 GMT 32.146042 -12.562042 36,000 28 488 64
2018-02-23 12:53:46 GMT 32.132126 -12.570938 36,000 28 488 64
2018-02-23 12:53:36 GMT 32.112991 -12.583101 36,000 28 488 0
2018-02-23 12:53:27 GMT 32.094269 -12.594946 36,000 28 489 64
2018-02-23 12:53:19 GMT 32.079517 -12.604289 36,000 28 489 64
2018-02-23 12:53:09 GMT 32.058758 -12.617462 36,000 28 489 0
2018-02-23 12:52:59 GMT 32.039532 -12.629569 36,000 27 490 64
2018-02-23 12:52:48 GMT 32.018723 -12.642573 36,000 27 490 64
2018-02-23 12:51:43 GMT 31.886654 -12.724915 36,000 28 494 0
2018-02-23 12:50:28 GMT 31.735931 -12.819375 36,000 28 496 0
2018-02-23 12:50:22 GMT 31.725403 -12.825892 36,000 27 495 0
2018-02-23 12:50:01 GMT 31.677914 -12.855377 36,000 27 495 64
2018-02-23 12:49:55 GMT 31.670197 -12.860143 36,000 27 495 64
2018-02-23 12:49:52 GMT 31.662872 -12.864667 36,000 28 496 0
2018-02-23 12:49:41 GMT 31.642160 -12.877515 36,000 27 495 -64
2018-02-23 12:49:29 GMT 31.617813 -12.892621 36,000 28 496 64
2018-02-23 12:49:20 GMT 31.598740 -12.904466 36,000 28 496 64
2018-02-23 12:49:10 GMT 31.578058 -12.917395 36,000 28 496 0
2018-02-23 12:48:58 GMT 31.554108 -12.932308 36,000 28 496 0
2018-02-23 12:48:54 GMT 31.545181 -12.937909 36,000 28 496 0
2018-02-23 12:48:48 GMT 31.535046 -12.944257 36,000 28 497 0
2018-02-23 12:48:37 GMT 31.511536 -12.958978 36,000 28 497 0
2018-02-23 12:48:26 GMT 31.489656 -12.972766 36,000 28 496 64
2018-02-23 12:48:16 GMT 31.469009 -12.985786 36,000 28 496 0
2018-02-23 12:48:06 GMT 31.449156 -12.998254 36,000 28 496 0
2018-02-23 12:47:55 GMT 31.427673 -13.011744 36,000 28 496 0
2018-02-23 12:47:45 GMT 31.406979 -13.024622 36,000 27 497 0
2018-02-23 12:47:36 GMT 31.386246 -13.037433 36,000 27 496 0
2018-02-23 12:47:32 GMT 31.380119 -13.041156 36,000 27 496 0
2018-02-23 12:47:24 GMT 31.363873 -13.051154 36,000 27 496 0
2018-02-23 12:47:21 GMT 31.358192 -13.054669 36,000 27 496 0
2018-02-23 12:47:15 GMT 31.342300 -13.064414 36,000 27 496 64
2018-02-23 12:47:07 GMT 31.328865 -13.072632 36,000 27 496 0
2018-02-23 12:47:02 GMT 31.319504 -13.078362 36,000 27 496 0
2018-02-23 12:46:54 GMT 31.299957 -13.090318 36,000 27 496 0
2018-02-23 12:46:51 GMT 31.296326 -13.092572 36,000 27 496 0
2018-02-23 12:46:43 GMT 31.278030 -13.103835 36,000 27 496 0
2018-02-23 12:46:37 GMT 31.268280 -13.109867 36,000 27 496 0
2018-02-23 12:46:34 GMT 31.261364 -13.114105 36,000 27 496 0
2018-02-23 12:46:31 GMT 31.255686 -13.117621 36,000 27 496 0
2018-02-23 12:46:24 GMT 31.237381 -13.128878 36,000 27 496 64
2018-02-23 12:46:17 GMT 31.227242 -13.135144 36,000 27 495 0
2018-02-23 12:46:10 GMT 31.212624 -13.144153 36,000 28 496 0
2018-02-23 12:46:00 GMT 31.190744 -13.157776 36,000 28 496 0
2018-02-23 12:45:56 GMT 31.185064 -13.161292 36,000 28 496 -64
2018-02-23 12:45:49 GMT 31.170494 -13.170410 36,000 28 495 0
2018-02-23 12:45:39 GMT 31.151035 -13.182440 36,000 28 496 64
2018-02-23 12:45:26 GMT 31.123430 -13.199469 36,000 28 496 0
2018-02-23 12:45:15 GMT 31.102798 -13.212244 36,000 27 494 0
2018-02-23 12:45:08 GMT 31.087770 -13.221497 36,000 27 494 0
2018-02-23 12:45:00 GMT 31.066729 -13.234515 36,000 27 494 64
2018-02-23 12:44:56 GMT 31.063471 -13.236493 36,000 27 494 64
2018-02-23 12:44:46 GMT 31.043610 -13.248758 36,000 27 494 0
2018-02-23 12:44:36 GMT 31.022970 -13.261487 36,000 27 494 0
2018-02-23 12:44:28 GMT 31.005569 -13.272238 36,000 27 494 0
2018-02-23 12:44:25 GMT 31.001137 -13.274945 36,000 27 494 0
2018-02-23 12:44:16 GMT 30.980484 -13.287695 36,000 27 494 -64
2018-02-23 12:44:13 GMT 30.975586 -13.290657 36,000 27 494 -64
2018-02-23 12:44:07 GMT 30.962219 -13.298840 36,000 27 494 0
2018-02-23 12:44:03 GMT 30.954956 -13.303290 36,000 27 494 64
2018-02-23 12:43:53 GMT 30.936291 -13.314661 36,000 27 494 0
2018-02-23 12:43:43 GMT 30.915993 -13.326965 36,000 27 494 0
2018-02-23 12:43:32 GMT 30.892485 -13.341302 36,000 27 494 0
2018-02-23 12:43:23 GMT 30.875061 -13.351943 36,000 27 494 0
2018-02-23 12:43:13 GMT 30.854004 -13.364868 36,000 27 494 -64
2018-02-23 12:43:02 GMT 30.831688 -13.378546 36,000 27 494 0
2018-02-23 12:42:51 GMT 30.810644 -13.391455 36,000 27 495 0
2018-02-23 12:42:41 GMT 30.790348 -13.403870 36,000 27 495 0
2018-02-23 12:42:30 GMT 30.768469 -13.417218 36,000 27 495 64
2018-02-23 12:42:20 GMT 30.747334 -13.430127 36,000 27 495 0
2018-02-23 12:42:09 GMT 30.725006 -13.443765 36,000 27 496 0
2018-02-23 12:41:59 GMT 30.704273 -13.456439 36,000 27 496 0
2018-02-23 12:41:48 GMT 30.682709 -13.469561 36,000 27 496 64
2018-02-23 12:41:37 GMT 30.660328 -13.483136 36,000 27 496 64
2018-02-23 12:41:27 GMT 30.639496 -13.495681 36,000 27 497 -64
2018-02-23 12:41:16 GMT 30.616243 -13.509778 36,000 27 497 0
2018-02-23 12:41:06 GMT 30.595413 -13.522339 36,000 27 497 64
2018-02-23 12:40:58 GMT 30.580719 -13.531225 36,000 27 497 64
2018-02-23 12:40:54 GMT 30.572525 -13.536179 36,000 27 498 64
2018-02-23 12:40:45 GMT 30.552465 -13.548285 36,000 27 498 0
2018-02-23 12:40:37 GMT 30.534027 -13.559391 36,000 34 501 0
2018-02-23 12:40:34 GMT 30.531555 -13.560899 36,000 27 499 0
2018-02-23 12:40:30 GMT 30.523361 -13.565799 36,000 27 498 0
2018-02-23 12:40:23 GMT 30.509583 -13.574524 36,000 31 499 0
2018-02-23 12:40:20 GMT 30.502794 -13.579102 36,000 31 499 0
2018-02-23 12:40:11 GMT 30.486008 -13.591488 36,000 34 500 0
2018-02-23 12:40:03 GMT 30.469116 -13.604790 36,000 34 500 0
2018-02-23 12:39:52 GMT 30.449112 -13.620462 36,000 34 501 0
2018-02-23 12:39:42 GMT 30.428329 -13.636780 36,000 34 502 0
2018-02-23 12:39:32 GMT 30.407501 -13.653044 36,000 33 502 -64
2018-02-23 12:39:21 GMT 30.387451 -13.668608 36,000 33 502 0
2018-02-23 12:39:10 GMT 30.366577 -13.684764 36,000 33 502 0
2018-02-23 12:39:00 GMT 30.348381 -13.698798 36,000 33 502 0
2018-02-23 12:38:57 GMT 30.340654 -13.704785 36,000 33 502 0
2018-02-23 12:38:53 GMT 30.332565 -13.711045 36,000 34 502 -64
2018-02-23 12:38:48 GMT 30.325607 -13.716485 36,000 34 502 0
2018-02-23 12:38:39 GMT 30.304825 -13.732695 36,000 34 502 -64
2018-02-23 12:38:33 GMT 30.293636 -13.741370 36,000 34 502 -64
2018-02-23 12:38:28 GMT 30.284775 -13.748313 36,000 34 502 0
2018-02-23 12:38:19 GMT 30.266682 -13.762408 36,000 34 502 128
2018-02-23 12:38:16 GMT 30.263611 -13.764825 36,000 34 502 64
2018-02-23 12:38:11 GMT 30.252018 -13.773834 36,000 34 502 0
2018-02-23 12:38:07 GMT 30.243942 -13.780141 36,000 34 502 0
2018-02-23 12:38:03 GMT 30.235121 -13.787073 36,000 34 501 0
2018-02-23 12:37:56 GMT 30.222782 -13.796686 36,000 34 501 0
2018-02-23 12:37:49 GMT 30.210493 -13.806354 36,000 34 501 0
2018-02-23 12:37:45 GMT 30.202766 -13.812341 36,000 34 501 0
2018-02-23 12:37:35 GMT 30.182005 -13.828546 36,000 34 501 0
2018-02-23 12:37:24 GMT 30.162079 -13.844147 36,000 34 500 64
2018-02-23 12:37:19 GMT 30.152435 -13.851659 36,000 34 501 -64
2018-02-23 12:37:14 GMT 30.142061 -13.859747 36,000 34 501 -128
2018-02-23 12:37:03 GMT 30.121719 -13.875625 36,000 34 500 64
2018-02-23 12:36:55 GMT 30.107117 -13.886988 36,000 34 500 64
2018-02-23 12:36:52 GMT 30.101376 -13.891443 36,000 34 500 64
2018-02-23 12:36:42 GMT 30.081404 -13.907043 36,000 34 501 -64
2018-02-23 12:36:33 GMT 30.066422 -13.918708 36,000 34 500 -64
2018-02-23 12:36:30 GMT 30.060642 -13.923193 36,000 34 501 0
2018-02-23 12:36:24 GMT 30.047195 -13.933680 36,000 34 500 64
2018-02-23 12:36:21 GMT 30.039551 -13.939658 36,000 34 500 64
2018-02-23 12:36:13 GMT 30.026892 -13.949561 36,000 34 500 0
2018-02-23 12:36:10 GMT 30.019592 -13.955276 36,000 34 500 -64
2018-02-23 12:36:03 GMT 30.007324 -13.964916 36,000 34 500 0
2018-02-23 12:35:59 GMT 29.999634 -13.970893 36,000 34 501 64
2018-02-23 12:35:52 GMT 29.986588 -13.981126 36,000 34 500 0
2018-02-23 12:35:49 GMT 29.979315 -13.986859 36,000 34 500 0
2018-02-23 12:35:41 GMT 29.965851 -13.997336 36,000 34 501 0
2018-02-23 12:35:36 GMT 29.953537 -14.006868 36,000 34 500 0
2018-02-23 12:35:31 GMT 29.945847 -14.012846 36,000 33 501 0
2018-02-23 12:35:28 GMT 29.938156 -14.018824 36,000 33 501 -64
2018-02-23 12:35:24 GMT 29.931198 -14.024209 36,000 33 501 64
2018-02-23 12:35:20 GMT 29.925453 -14.028662 36,000 33 501 64
2018-02-23 12:35:17 GMT 29.918518 -14.034045 36,000 33 501 128
2018-02-23 12:35:14 GMT 29.911972 -14.039073 36,000 33 501 64
2018-02-23 12:35:09 GMT 29.904646 -14.044728 36,000 33 501 0
2018-02-23 12:35:06 GMT 29.897324 -14.050404 36,000 33 501 -64
2018-02-23 12:34:59 GMT 29.885372 -14.059646 36,000 33 502 64
2018-02-23 12:34:56 GMT 29.876854 -14.066216 36,000 33 502 64
2018-02-23 12:34:48 GMT 29.864136 -14.076022 36,000 33 502 -64
2018-02-23 12:34:45 GMT 29.857178 -14.081409 36,000 33 506 0
2018-02-23 12:34:38 GMT 29.844406 -14.091258 36,000 33 502 64
2018-02-23 12:34:35 GMT 29.836679 -14.097182 36,000 33 502 64
2018-02-23 12:34:26 GMT 29.821564 -14.108822 36,000 33 503 -64
2018-02-23 12:34:23 GMT 29.815384 -14.113629 36,000 33 503 0
2018-02-23 12:34:17 GMT 29.803757 -14.122608 36,000 33 505 64
2018-02-23 12:34:14 GMT 29.795620 -14.128903 36,000 33 505 0
2018-02-23 12:34:05 GMT 29.780817 -14.140266 36,000 33 506 0
2018-02-23 12:34:02 GMT 29.775009 -14.144792 36,000 33 507 0
2018-02-23 12:33:55 GMT 29.760178 -14.156254 36,000 33 508 -64
2018-02-23 12:33:51 GMT 29.753536 -14.161377 36,000 33 508 -64
2018-02-23 12:33:45 GMT 29.741014 -14.171017 36,025 33 508 320
2018-02-23 12:33:42 GMT 29.733194 -14.176995 36,000 33 508 896
2018-02-23 12:33:34 GMT 29.719528 -14.187522 35,875 33 508 1088
2018-02-23 12:33:30 GMT 29.712059 -14.193259 35,825 33 508 1024
2018-02-23 12:33:24 GMT 29.699583 -14.202845 35,700 33 508 960
2018-02-23 12:33:21 GMT 29.692108 -14.208544 35,650 33 508 1024
2018-02-23 12:33:13 GMT 29.678787 -14.218791 35,550 33 508 832
2018-02-23 12:33:09 GMT 29.670534 -14.225087 35,500 33 509 768
2018-02-23 12:33:03 GMT 29.658371 -14.234425 35,425 33 508 896
2018-02-23 12:32:59 GMT 29.650543 -14.240447 35,350 33 509 832
2018-02-23 12:32:52 GMT 29.638000 -14.250060 35,275 33 509 704
2018-02-23 12:32:49 GMT 29.629349 -14.256609 35,225 33 508 704
2018-02-23 12:32:42 GMT 29.617186 -14.265909 35,150 33 508 704
2018-02-23 12:32:38 GMT 29.608978 -14.272191 35,100 33 508 704
2018-02-23 12:32:31 GMT 29.596050 -14.282065 35,050 33 506 640
2018-02-23 12:32:28 GMT 29.587830 -14.288301 35,000 33 506 640
2018-02-23 12:32:20 GMT 29.575754 -14.297521 34,925 33 506 640
2018-02-23 12:32:16 GMT 29.566772 -14.304358 34,900 33 504 768
2018-02-23 12:32:10 GMT 29.554712 -14.313570 34,825 33 504 832
2018-02-23 12:32:05 GMT 29.546146 -14.320086 34,750 33 504 832
2018-02-23 12:32:00 GMT 29.535645 -14.328073 34,700 33 503 704
2018-02-23 12:31:56 GMT 29.525944 -14.335489 34,625 33 502 640
2018-02-23 12:31:50 GMT 29.517424 -14.342005 34,550 33 502 704
2018-02-23 12:31:47 GMT 29.508499 -14.348831 34,525 33 501 896
2018-02-23 12:31:44 GMT 29.505432 -14.351155 34,525 33 501 896
2018-02-23 12:31:39 GMT 29.495361 -14.358867 34,450 33 501 704
2018-02-23 12:31:35 GMT 29.485336 -14.366526 34,400 33 500 512
2018-02-23 12:31:27 GMT 29.468399 -14.379519 34,300 33 499 896
2018-02-23 12:31:23 GMT 29.464960 -14.382127 34,275 33 499 704
2018-02-23 12:31:17 GMT 29.453461 -14.391013 34,200 33 498 512
2018-02-23 12:31:13 GMT 29.444244 -14.398068 34,175 33 497 704
2018-02-23 12:31:08 GMT 29.435440 -14.404819 34,100 33 497 832
2018-02-23 12:31:03 GMT 29.424728 -14.413006 34,025 33 496 704
2018-02-23 12:30:57 GMT 29.414404 -14.420902 33,975 33 495 512
2018-02-23 12:30:52 GMT 29.403744 -14.429034 33,925 33 494 576
2018-02-23 12:30:46 GMT 29.393463 -14.436880 33,875 33 493 640
2018-02-23 12:30:42 GMT 29.383959 -14.444167 33,825 33 492 448
2018-02-23 12:30:36 GMT 29.374512 -14.451405 33,800 33 491 704
2018-02-23 12:30:30 GMT 29.363522 -14.459785 33,725 33 490 832
2018-02-23 12:30:25 GMT 29.354490 -14.466786 33,650 33 490 1152
2018-02-23 12:30:20 GMT 29.343567 -14.475174 33,550 34 491 896
2018-02-23 12:30:15 GMT 29.334148 -14.482458 33,475 33 490 768
2018-02-23 12:30:10 GMT 29.323580 -14.490536 33,400 34 489 1024
2018-02-23 12:30:04 GMT 29.314133 -14.497780 33,300 33 490 832
2018-02-23 12:29:58 GMT 29.303238 -14.506154 33,225 33 489 1024
2018-02-23 12:29:53 GMT 29.293808 -14.513362 33,150 33 489 896
2018-02-23 12:29:49 GMT 29.283640 -14.521125 33,075 33 488 704
2018-02-23 12:29:43 GMT 29.275398 -14.527480 33,025 34 488 512
2018-02-23 12:29:37 GMT 29.263824 -14.536497 32,975 34 486 192
2018-02-23 12:29:33 GMT 29.256363 -14.542254 32,975 34 484 448
2018-02-23 12:29:27 GMT 29.244507 -14.551497 32,900 34 483 832
2018-02-23 12:29:22 GMT 29.236015 -14.558123 32,850 34 482 704
2018-02-23 12:29:17 GMT 29.224936 -14.566740 32,800 34 480 448
2018-02-23 12:29:12 GMT 29.216492 -14.573364 32,775 34 479 576
2018-02-23 12:29:06 GMT 29.205105 -14.582196 32,700 34 478 704
2018-02-23 12:29:01 GMT 29.197098 -14.588497 32,650 34 477 576
2018-02-23 12:28:56 GMT 29.185043 -14.597872 32,575 34 475 832
2018-02-23 12:28:50 GMT 29.177719 -14.603524 32,525 34 475 832
2018-02-23 12:28:44 GMT 29.166420 -14.612193 32,375 33 472 832
2018-02-23 12:28:40 GMT 29.158722 -14.617996 32,375 33 473 896
2018-02-23 12:28:33 GMT 29.146683 -14.627165 32,275 33 472 768
2018-02-23 12:28:29 GMT 29.139420 -14.632712 32,225 33 472 896
2018-02-23 12:28:24 GMT 29.128143 -14.641289 32,125 33 470 896
2018-02-23 12:28:19 GMT 29.120865 -14.646783 32,075 33 470 832
2018-02-23 12:28:13 GMT 29.109238 -14.655550 31,975 33 468 896
2018-02-23 12:28:09 GMT 29.101665 -14.661309 31,900 33 468 832
2018-02-23 12:28:03 GMT 29.089376 -14.670572 31,800 33 467 960
2018-02-23 12:27:58 GMT 29.083237 -14.675252 31,750 33 466 960
2018-02-23 12:27:51 GMT 29.070969 -14.684442 31,625 33 466 1152
2018-02-23 12:27:48 GMT 29.063736 -14.689883 31,550 33 466 1024
2018-02-23 12:27:40 GMT 29.050781 -14.699654 31,425 33 465 1408
2018-02-23 12:27:37 GMT 29.045700 -14.703404 31,350 33 466 1344
2018-02-23 12:27:31 GMT 29.032396 -14.713440 31,200 33 464 832
2018-02-23 12:27:26 GMT 29.025181 -14.718825 31,150 33 464 704
2018-02-23 12:27:19 GMT 29.012983 -14.727981 31,050 33 463 1024
2018-02-23 12:27:16 GMT 29.006559 -14.732828 30,975 33 462 896
2018-02-23 12:27:10 GMT 28.993666 -14.742468 30,875 33 461 1088
2018-02-23 12:27:05 GMT 28.987610 -14.747033 30,800 33 461 1152
2018-02-23 12:26:58 GMT 28.975138 -14.756362 30,700 33 459 896
2018-02-23 12:26:55 GMT 28.969803 -14.760396 30,650 33 459 960
2018-02-23 12:26:48 GMT 28.956345 -14.770484 30,525 33 458 1152
2018-02-23 12:26:44 GMT 28.950668 -14.774763 30,450 33 458 1216
2018-02-23 12:26:38 GMT 28.937210 -14.784851 30,275 33 458 1344
2018-02-23 12:26:33 GMT 28.931238 -14.789375 30,200 33 457 1024
2018-02-23 12:26:27 GMT 28.919228 -14.798422 30,075 33 455 1216
2018-02-23 12:26:24 GMT 28.913910 -14.802440 30,025 33 456 1408
2018-02-23 12:26:16 GMT 28.899811 -14.813004 29,850 32 454 1280
2018-02-23 12:26:13 GMT 28.894821 -14.816595 29,775 31 454 1408
2018-02-23 12:26:06 GMT 28.880356 -14.826314 29,600 28 453 1024
2018-02-23 12:26:03 GMT 28.876648 -14.828638 29,550 28 453 1024
2018-02-23 12:25:55 GMT 28.860992 -14.837828 29,400 25 451 1216
2018-02-23 12:25:52 GMT 28.856104 -14.840537 29,325 24 450 1088
2018-02-23 12:25:45 GMT 28.840834 -14.848184 29,200 22 449 1280
2018-02-23 12:25:41 GMT 28.836594 -14.850135 29,150 21 449 1408
2018-02-23 12:25:31 GMT 28.816906 -14.859009 28,900 21 447 1280
2018-02-23 12:25:24 GMT 28.799913 -14.866656 28,725 21 446 1344
2018-02-23 12:25:21 GMT 28.796843 -14.868056 28,675 21 446 1344
2018-02-23 12:25:10 GMT 28.776077 -14.877337 28,425 21 444 1600
2018-02-23 12:25:00 GMT 28.755735 -14.886421 28,175 21 444 1280
2018-02-23 12:24:49 GMT 28.735859 -14.895307 27,925 21 442 1472
2018-02-23 12:24:39 GMT 28.715652 -14.904327 27,675 21 441 1664
2018-02-23 12:24:31 GMT 28.699314 -14.911625 27,450 21 440 1472
2018-02-23 12:24:28 GMT 28.695498 -14.913294 27,400 21 439 1408
2018-02-23 12:24:18 GMT 28.676193 -14.921969 27,125 21 438 1600
2018-02-23 12:24:10 GMT 28.658844 -14.929786 26,875 21 437 1536
2018-02-23 12:24:07 GMT 28.655462 -14.931335 26,825 21 436 1344
2018-02-23 12:23:57 GMT 28.635958 -14.940114 26,550 21 434 2176
2018-02-23 12:23:46 GMT 28.615707 -14.949215 26,225 21 434 1408
2018-02-23 12:23:38 GMT 28.599972 -14.956216 26,025 21 432 1600
2018-02-23 12:23:35 GMT 28.596249 -14.957832 25,975 21 431 1536
2018-02-23 12:23:25 GMT 28.577627 -14.966125 25,725 21 430 1536
2018-02-23 12:23:15 GMT 28.557999 -14.974893 25,450 21 427 1600
2018-02-23 12:23:04 GMT 28.538477 -14.983628 25,200 21 425 1344
2018-02-23 12:22:54 GMT 28.519089 -14.992271 24,950 21 422 1408
2018-02-23 12:22:43 GMT 28.500538 -15.000485 24,700 21 419 1600
2018-02-23 12:22:33 GMT 28.481369 -15.009014 24,425 21 416 1408
2018-02-23 12:22:22 GMT 28.462738 -15.017307 24,175 21 413 1536
2018-02-23 12:22:12 GMT 28.443558 -15.025864 23,900 21 410 1536
2018-02-23 12:22:01 GMT 28.424843 -15.034198 23,650 21 406 1536
2018-02-23 12:21:50 GMT 28.405563 -15.042819 23,325 21 404 1728
2018-02-23 12:21:40 GMT 28.388533 -15.050408 23,050 21 401 1856
2018-02-23 12:21:30 GMT 28.370564 -15.058432 22,725 21 399 1792
2018-02-23 12:21:19 GMT 28.351290 -15.066995 22,400 21 397 1856
2018-02-23 12:21:09 GMT 28.334206 -15.074535 22,075 21 395 1920
2018-02-23 12:20:58 GMT 28.316849 -15.082221 21,725 21 392 2368
2018-02-23 12:20:48 GMT 28.298492 -15.090356 21,325 21 393 1984
2018-02-23 12:20:37 GMT 28.280579 -15.098338 20,975 21 391 2048
2018-02-23 12:20:27 GMT 28.263336 -15.106043 20,600 21 391 2304
2018-02-23 12:20:16 GMT 28.245432 -15.113956 20,250 21 389 2240
2018-02-23 12:20:05 GMT 28.227585 -15.121836 19,825 21 390 2304
2018-02-23 12:19:55 GMT 28.210098 -15.129600 19,525 21 387 1024
2018-02-23 12:19:45 GMT 28.192453 -15.137437 19,325 21 384 1024
2018-02-23 12:19:34 GMT 28.175230 -15.145030 19,150 21 383 1152
2018-02-23 12:19:24 GMT 28.158371 -15.152471 18,975 21 382 1344
2018-02-23 12:19:13 GMT 28.140827 -15.160217 18,675 21 382 2048
2018-02-23 12:19:03 GMT 28.122997 -15.168080 18,325 21 384 1984
2018-02-23 12:18:52 GMT 28.105726 -15.175727 17,975 21 382 2240
2018-02-23 12:18:42 GMT 28.088287 -15.183475 17,550 21 381 2752
2018-02-23 12:18:31 GMT 28.070480 -15.191345 17,075 21 380 2432
2018-02-23 12:18:20 GMT 28.053452 -15.198951 16,650 21 379 2624
2018-02-23 12:18:11 GMT 28.036783 -15.206317 16,225 21 378 2432
2018-02-23 12:18:00 GMT 28.019531 -15.213899 15,825 21 374 2240
2018-02-23 12:17:50 GMT 28.002090 -15.221505 15,425 21 371 1984
2018-02-23 12:17:38 GMT 27.985474 -15.228794 15,100 21 366 2048
2018-02-23 12:17:29 GMT 27.969131 -15.235977 14,750 21 361 2240
2018-02-23 12:17:18 GMT 27.952972 -15.243108 14,350 21 357 2304
2018-02-23 12:17:08 GMT 27.936649 -15.250397 13,875 21 356 2944
2018-02-23 12:16:56 GMT 27.920076 -15.257897 13,375 22 355 2752
2018-02-23 12:16:47 GMT 27.904854 -15.264922 12,850 22 355 3520
2018-02-23 12:16:35 GMT 27.887676 -15.272739 12,250 21 358 2752
2018-02-23 12:16:24 GMT 27.871662 -15.279922 11,775 21 355 2816
2018-02-23 12:16:15 GMT 27.855972 -15.286750 11,400 20 352 2240
2018-02-23 12:16:03 GMT 27.838657 -15.293919 11,000 19 346 1856
2018-02-23 12:15:53 GMT 27.823574 -15.299677 10,725 18 338 1856
2018-02-23 12:15:42 GMT 27.808365 -15.306702 10,475 30 328 832
2018-02-23 12:15:31 GMT 27.795364 -15.317636 10,250 44 318 2112
2018-02-23 12:15:21 GMT 27.785797 -15.331732 9,825 60 313 2496
2018-02-23 12:15:10 GMT 27.778885 -15.346421 9,400 62 309 2496
2018-02-23 12:15:00 GMT 27.771881 -15.361530 8,975 65 304 2304
2018-02-23 12:14:50 GMT 27.767578 -15.377025 8,575 83 295 2624
2018-02-23 12:14:39 GMT 27.767715 -15.393400 8,100 100 286 2560
2018-02-23 12:14:28 GMT 27.772293 -15.408377 7,600 118 278 2944
2018-02-23 12:14:17 GMT 27.780375 -15.420526 7,125 135 270 2752
2018-02-23 12:14:06 GMT 27.791290 -15.429572 6,575 153 261 2880
2018-02-23 12:13:57 GMT 27.802254 -15.434259 6,100 167 255 2816
2018-02-23 12:13:46 GMT 27.814821 -15.435633 5,625 184 249 2176
2018-02-23 12:13:35 GMT 27.826447 -15.432941 5,400 201 229 960
2018-02-23 12:13:24 GMT 27.837494 -15.428185 5,100 201 213 2688
2018-02-23 12:13:14 GMT 27.846222 -15.424546 4,675 201 210 2880
2018-02-23 12:13:04 GMT 27.855835 -15.420526 4,175 200 206 3008
2018-02-23 12:12:52 GMT 27.866089 -15.416358 3,600 201 204 3072
2018-02-23 12:12:42 GMT 27.875154 -15.412656 3,050 201 204 3328
2018-02-23 12:12:32 GMT 27.884171 -15.408792 2,550 201 200 2048
2018-02-23 12:12:21 GMT 27.893051 -15.405112 2,300 200 188 704
2018-02-23 12:12:11 GMT 27.901154 -15.401692 2,150 203 169 1024
2018-02-23 12:12:00 GMT 27.908524 -15.397805 1,925 210 154 1600
2018-02-23 12:11:50 GMT 27.914724 -15.393430 1,550 211 145 3328
2018-02-23 12:11:40 GMT 27.920837 -15.389617 950 207 151 3520
2018-02-23 12:11:29 GMT 27.927851 -15.386088 400 203 158 1472
2018-02-23 12:11:18 GMT 27.934740 -15.383038 0 202 130
2018-02-23 12:11:08 GMT 27.939548 -15.380913 0 202 88
2018-02-23 12:10:57 GMT 27.942795 -15.379473 0 202 38
2018-02-23 12:10:46 GMT 27.943714 -15.379064 0 205 9
2018-02-23 12:10:35 GMT 27.944145 -15.379069 0 126 13
2018-02-23 12:10:25 GMT 27.944435 -15.379777 0 109 17
2018-02-23 12:10:14 GMT 27.944733 -15.380608 0 112 15
2018-02-23 12:10:00 GMT 27.944973 -15.381388 0 90 9
2018-02-23 12:07:15 GMT 27.944401 -15.382367 0 53 7
2018-02-23 12:07:09 GMT 27.944273 -15.382556 0 53 9
2018-02-23 12:06:55 GMT 27.943783 -15.383170 0 36 15

Making use of Plane Finder data

You are free to use the raw flight data, aircraft information and images provided in this report for your own purposes provided the data is correctly attributed to Plane Finder. We ask that you please credit Plane Finder and link to planefinder.net in close proximity to the content.

Optionally one of the following logos (no smaller then 150x24px) can be used and must link to planefinder.net

Embedding the Plane Finder map

You are welcome to embed the Plane Finder playback map on your website to offer visitors a more interactive experience. We suggest using the following HTML code:

<iframe src="//planefinder.net/data/report/FR3163-EI-EVR-7700-squawk-2018-02-23/map" width="800" height="600" seamless="seamless"></iframe>

Where our data comes from

Plane Finder has a global network of data feeds and antenna radars that receive data broadcast directly from aircraft. The primary technologies used are ADS-B and MLAT. We also show feeds from the FAA and a FLARM glider feed.

Click here to find out more about the Plane Finder network.

How we collect our data